<?xml version="1.0" encoding="UTF-8" standalone="no" ?>
<gpx xmlns="http://www.topografix.com/GPX/1/1" xmlns:xsi="http://www.w3.org/2001/XMLSchema-instance" xsi:schemaLocation="http://www.topografix.com/GPX/1/1 http://www.topografix.com/GPX/1/1/gpx.xsd" version="1.1" creator="VisuGPX - https://www.visugpx.com">
  <metadata>
    <name>Grand Balon</name>
    <desc><![CDATA[Randonnée grand ballon pour 3 jours non stop]]></desc>
  </metadata>
  <trk>
    <name><![CDATA[3429573-Test Tour du Vallon complet]]></name>
    <trkseg>
      <trkpt lat="47.9071" lon="7.20971">
        <ele>293</ele>
        <time>2018-03-10T12:07:58Z</time>
      </trkpt>
      <trkpt lat="47.9071" lon="7.20971">
        <ele>293</ele>
        <time>2018-03-10T12:08:58Z</time>
      </trkpt>
      <trkpt lat="47.90698" lon="7.20928">
        <ele>294</ele>
        <time>2018-03-10T12:09:58Z</time>
      </trkpt>
      <trkpt lat="47.90672" lon="7.20846">
        <ele>295</ele>
        <time>2018-03-10T12:10:58Z</time>
      </trkpt>
      <trkpt lat="47.90637" lon="7.20722">
        <ele>301</ele>
        <time>2018-03-10T12:11:58Z</time>
      </trkpt>
      <trkpt lat="47.90623" lon="7.2067">
        <ele>303</ele>
        <time>2018-03-10T12:12:58Z</time>
      </trkpt>
      <trkpt lat="47.90619" lon="7.20642">
        <ele>305</ele>
        <time>2018-03-10T12:13:58Z</time>
      </trkpt>
      <trkpt lat="47.90619" lon="7.20593">
        <ele>308</ele>
        <time>2018-03-10T12:14:58Z</time>
      </trkpt>
      <trkpt lat="47.90613" lon="7.20536">
        <ele>311</ele>
        <time>2018-03-10T12:15:58Z</time>
      </trkpt>
      <trkpt lat="47.90605" lon="7.20482">
        <ele>313</ele>
        <time>2018-03-10T12:16:58Z</time>
      </trkpt>
      <trkpt lat="47.90592" lon="7.20412">
        <ele>317</ele>
        <time>2018-03-10T12:17:58Z</time>
      </trkpt>
      <trkpt lat="47.90587" lon="7.20374">
        <ele>319</ele>
        <time>2018-03-10T12:18:58Z</time>
      </trkpt>
      <trkpt lat="47.90586" lon="7.20329">
        <ele>321</ele>
        <time>2018-03-10T12:19:58Z</time>
      </trkpt>
      <trkpt lat="47.90595" lon="7.20153">
        <ele>331</ele>
        <time>2018-03-10T12:20:58Z</time>
      </trkpt>
      <trkpt lat="47.90592" lon="7.20047">
        <ele>340</ele>
        <time>2018-03-10T12:21:58Z</time>
      </trkpt>
      <trkpt lat="47.9059" lon="7.20015">
        <ele>344</ele>
        <time>2018-03-10T12:22:58Z</time>
      </trkpt>
      <trkpt lat="47.90583" lon="7.1997">
        <ele>348</ele>
        <time>2018-03-10T12:23:58Z</time>
      </trkpt>
      <trkpt lat="47.9057" lon="7.19911">
        <ele>353</ele>
        <time>2018-03-10T12:24:58Z</time>
      </trkpt>
      <trkpt lat="47.90553" lon="7.19856">
        <ele>357</ele>
        <time>2018-03-10T12:25:58Z</time>
      </trkpt>
      <trkpt lat="47.90521" lon="7.19771">
        <ele>365</ele>
        <time>2018-03-10T12:26:58Z</time>
      </trkpt>
      <trkpt lat="47.9052" lon="7.19759">
        <ele>366</ele>
        <time>2018-03-10T12:27:58Z</time>
      </trkpt>
      <trkpt lat="47.90516" lon="7.19741">
        <ele>368</ele>
        <time>2018-03-10T12:28:58Z</time>
      </trkpt>
      <trkpt lat="47.90513" lon="7.1972">
        <ele>371</ele>
        <time>2018-03-10T12:29:58Z</time>
      </trkpt>
      <trkpt lat="47.90503" lon="7.19701">
        <ele>373</ele>
        <time>2018-03-10T12:30:58Z</time>
      </trkpt>
      <trkpt lat="47.90495" lon="7.19688">
        <ele>374</ele>
        <time>2018-03-10T12:31:58Z</time>
      </trkpt>
      <trkpt lat="47.90476" lon="7.19669">
        <ele>375</ele>
        <time>2018-03-10T12:32:58Z</time>
      </trkpt>
      <trkpt lat="47.90461" lon="7.19653">
        <ele>376</ele>
        <time>2018-03-10T12:33:58Z</time>
      </trkpt>
      <trkpt lat="47.90454" lon="7.19623">
        <ele>380</ele>
        <time>2018-03-10T12:34:58Z</time>
      </trkpt>
      <trkpt lat="47.90449" lon="7.19576">
        <ele>387</ele>
        <time>2018-03-10T12:35:58Z</time>
      </trkpt>
      <trkpt lat="47.90439" lon="7.19542">
        <ele>390</ele>
        <time>2018-03-10T12:36:58Z</time>
      </trkpt>
      <trkpt lat="47.90408" lon="7.19464">
        <ele>398</ele>
        <time>2018-03-10T12:37:58Z</time>
      </trkpt>
      <trkpt lat="47.90394" lon="7.19444">
        <ele>401</ele>
        <time>2018-03-10T12:38:58Z</time>
      </trkpt>
      <trkpt lat="47.90374" lon="7.19431">
        <ele>403</ele>
        <time>2018-03-10T12:39:58Z</time>
      </trkpt>
      <trkpt lat="47.90351" lon="7.19419">
        <ele>405</ele>
        <time>2018-03-10T12:40:58Z</time>
      </trkpt>
      <trkpt lat="47.90338" lon="7.19401">
        <ele>408</ele>
        <time>2018-03-10T12:41:58Z</time>
      </trkpt>
      <trkpt lat="47.90329" lon="7.193">
        <ele>421</ele>
        <time>2018-03-10T12:42:58Z</time>
      </trkpt>
      <trkpt lat="47.90318" lon="7.19269">
        <ele>426</ele>
        <time>2018-03-10T12:43:58Z</time>
      </trkpt>
      <trkpt lat="47.90293" lon="7.1925">
        <ele>432</ele>
        <time>2018-03-10T12:44:58Z</time>
      </trkpt>
      <trkpt lat="47.90267" lon="7.19244">
        <ele>436</ele>
        <time>2018-03-10T12:45:58Z</time>
      </trkpt>
      <trkpt lat="47.90245" lon="7.1925">
        <ele>439</ele>
        <time>2018-03-10T12:46:58Z</time>
      </trkpt>
      <trkpt lat="47.90211" lon="7.19291">
        <ele>439</ele>
        <time>2018-03-10T12:47:58Z</time>
      </trkpt>
      <trkpt lat="47.90195" lon="7.19306">
        <ele>439</ele>
        <time>2018-03-10T12:48:58Z</time>
      </trkpt>
      <trkpt lat="47.90175" lon="7.1931">
        <ele>442</ele>
        <time>2018-03-10T12:49:58Z</time>
      </trkpt>
      <trkpt lat="47.90142" lon="7.19309">
        <ele>446</ele>
        <time>2018-03-10T12:50:58Z</time>
      </trkpt>
      <trkpt lat="47.90111" lon="7.193">
        <ele>452</ele>
        <time>2018-03-10T12:51:58Z</time>
      </trkpt>
      <trkpt lat="47.90064" lon="7.19282">
        <ele>459</ele>
        <time>2018-03-10T12:52:58Z</time>
      </trkpt>
      <trkpt lat="47.90008" lon="7.19254">
        <ele>465</ele>
        <time>2018-03-10T12:53:58Z</time>
      </trkpt>
      <trkpt lat="47.89999" lon="7.19253">
        <ele>466</ele>
        <time>2018-03-10T12:54:58Z</time>
      </trkpt>
      <trkpt lat="47.89966" lon="7.19229">
        <ele>470</ele>
        <time>2018-03-10T12:55:58Z</time>
      </trkpt>
      <trkpt lat="47.89967" lon="7.19168">
        <ele>477</ele>
        <time>2018-03-10T12:56:58Z</time>
      </trkpt>
      <trkpt lat="47.89978" lon="7.19099">
        <ele>493</ele>
        <time>2018-03-10T12:57:58Z</time>
      </trkpt>
      <trkpt lat="47.89997" lon="7.18994">
        <ele>511</ele>
        <time>2018-03-10T12:58:58Z</time>
      </trkpt>
      <trkpt lat="47.90023" lon="7.18902">
        <ele>515</ele>
        <time>2018-03-10T12:59:58Z</time>
      </trkpt>
      <trkpt lat="47.90053" lon="7.1884">
        <ele>519</ele>
        <time>2018-03-10T13:00:58Z</time>
      </trkpt>
      <trkpt lat="47.90088" lon="7.18801">
        <ele>526</ele>
        <time>2018-03-10T13:01:58Z</time>
      </trkpt>
      <trkpt lat="47.90141" lon="7.1873">
        <ele>536</ele>
        <time>2018-03-10T13:02:58Z</time>
      </trkpt>
      <trkpt lat="47.90199" lon="7.18651">
        <ele>539</ele>
        <time>2018-03-10T13:03:58Z</time>
      </trkpt>
      <trkpt lat="47.90239" lon="7.186">
        <ele>544</ele>
        <time>2018-03-10T13:04:58Z</time>
      </trkpt>
      <trkpt lat="47.90298" lon="7.18522">
        <ele>562</ele>
        <time>2018-03-10T13:05:58Z</time>
      </trkpt>
      <trkpt lat="47.90365" lon="7.18466">
        <ele>585</ele>
        <time>2018-03-10T13:06:58Z</time>
      </trkpt>
      <trkpt lat="47.90423" lon="7.18436">
        <ele>602</ele>
        <time>2018-03-10T13:07:58Z</time>
      </trkpt>
      <trkpt lat="47.90493" lon="7.18413">
        <ele>616</ele>
        <time>2018-03-10T13:08:58Z</time>
      </trkpt>
      <trkpt lat="47.90557" lon="7.18396">
        <ele>618</ele>
        <time>2018-03-10T13:09:58Z</time>
      </trkpt>
      <trkpt lat="47.90613" lon="7.18378">
        <ele>611</ele>
        <time>2018-03-10T13:10:58Z</time>
      </trkpt>
      <trkpt lat="47.90659" lon="7.18355">
        <ele>600</ele>
        <time>2018-03-10T13:11:58Z</time>
      </trkpt>
      <trkpt lat="47.90702" lon="7.18338">
        <ele>600</ele>
        <time>2018-03-10T13:12:58Z</time>
      </trkpt>
      <trkpt lat="47.90724" lon="7.18293">
        <ele>597</ele>
        <time>2018-03-10T13:13:58Z</time>
      </trkpt>
      <trkpt lat="47.90744" lon="7.18243">
        <ele>594</ele>
        <time>2018-03-10T13:14:58Z</time>
      </trkpt>
      <trkpt lat="47.90771" lon="7.18209">
        <ele>591</ele>
        <time>2018-03-10T13:15:58Z</time>
      </trkpt>
      <trkpt lat="47.9079" lon="7.18183">
        <ele>590</ele>
        <time>2018-03-10T13:16:58Z</time>
      </trkpt>
      <trkpt lat="47.9081" lon="7.18164">
        <ele>592</ele>
        <time>2018-03-10T13:17:58Z</time>
      </trkpt>
      <trkpt lat="47.9083" lon="7.18147">
        <ele>595</ele>
        <time>2018-03-10T13:18:58Z</time>
      </trkpt>
      <trkpt lat="47.90846" lon="7.18117">
        <ele>594</ele>
        <time>2018-03-10T13:19:58Z</time>
      </trkpt>
      <trkpt lat="47.90865" lon="7.18095">
        <ele>596</ele>
        <time>2018-03-10T13:20:58Z</time>
      </trkpt>
      <trkpt lat="47.90867" lon="7.18048">
        <ele>593</ele>
        <time>2018-03-10T13:21:58Z</time>
      </trkpt>
      <trkpt lat="47.90865" lon="7.18016">
        <ele>591</ele>
        <time>2018-03-10T13:22:58Z</time>
      </trkpt>
      <trkpt lat="47.90866" lon="7.17973">
        <ele>587</ele>
        <time>2018-03-10T13:23:58Z</time>
      </trkpt>
      <trkpt lat="47.90872" lon="7.17926">
        <ele>582</ele>
        <time>2018-03-10T13:24:58Z</time>
      </trkpt>
      <trkpt lat="47.90885" lon="7.17894">
        <ele>580</ele>
        <time>2018-03-10T13:25:58Z</time>
      </trkpt>
      <trkpt lat="47.90912" lon="7.17864">
        <ele>582</ele>
        <time>2018-03-10T13:26:58Z</time>
      </trkpt>
      <trkpt lat="47.90928" lon="7.17838">
        <ele>578</ele>
        <time>2018-03-10T13:27:58Z</time>
      </trkpt>
      <trkpt lat="47.90947" lon="7.17816">
        <ele>574</ele>
        <time>2018-03-10T13:28:58Z</time>
      </trkpt>
      <trkpt lat="47.90952" lon="7.17795">
        <ele>571</ele>
        <time>2018-03-10T13:29:58Z</time>
      </trkpt>
      <trkpt lat="47.90962" lon="7.17748">
        <ele>567</ele>
        <time>2018-03-10T13:30:58Z</time>
      </trkpt>
      <trkpt lat="47.90957" lon="7.1771">
        <ele>566</ele>
        <time>2018-03-10T13:31:58Z</time>
      </trkpt>
      <trkpt lat="47.90948" lon="7.17696">
        <ele>566</ele>
        <time>2018-03-10T13:32:58Z</time>
      </trkpt>
      <trkpt lat="47.90942" lon="7.17681">
        <ele>566</ele>
        <time>2018-03-10T13:33:58Z</time>
      </trkpt>
      <trkpt lat="47.90939" lon="7.17666">
        <ele>566</ele>
        <time>2018-03-10T13:34:58Z</time>
      </trkpt>
      <trkpt lat="47.90921" lon="7.17646">
        <ele>569</ele>
        <time>2018-03-10T13:35:58Z</time>
      </trkpt>
      <trkpt lat="47.909" lon="7.1763">
        <ele>569</ele>
        <time>2018-03-10T13:36:58Z</time>
      </trkpt>
      <trkpt lat="47.90898" lon="7.17601">
        <ele>572</ele>
        <time>2018-03-10T13:37:58Z</time>
      </trkpt>
      <trkpt lat="47.9089" lon="7.17546">
        <ele>574</ele>
        <time>2018-03-10T13:38:58Z</time>
      </trkpt>
      <trkpt lat="47.90891" lon="7.17523">
        <ele>575</ele>
        <time>2018-03-10T13:39:58Z</time>
      </trkpt>
      <trkpt lat="47.909" lon="7.17488">
        <ele>576</ele>
        <time>2018-03-10T13:40:58Z</time>
      </trkpt>
      <trkpt lat="47.90906" lon="7.1743">
        <ele>578</ele>
        <time>2018-03-10T13:41:58Z</time>
      </trkpt>
      <trkpt lat="47.90885" lon="7.17336">
        <ele>584</ele>
        <time>2018-03-10T13:42:58Z</time>
      </trkpt>
      <trkpt lat="47.90883" lon="7.173">
        <ele>584</ele>
        <time>2018-03-10T13:43:58Z</time>
      </trkpt>
      <trkpt lat="47.90889" lon="7.17222">
        <ele>588</ele>
        <time>2018-03-10T13:44:58Z</time>
      </trkpt>
      <trkpt lat="47.90896" lon="7.17092">
        <ele>597</ele>
        <time>2018-03-10T13:45:58Z</time>
      </trkpt>
      <trkpt lat="47.90894" lon="7.17019">
        <ele>603</ele>
        <time>2018-03-10T13:46:58Z</time>
      </trkpt>
      <trkpt lat="47.90883" lon="7.16934">
        <ele>604</ele>
        <time>2018-03-10T13:47:58Z</time>
      </trkpt>
      <trkpt lat="47.90885" lon="7.1689">
        <ele>606</ele>
        <time>2018-03-10T13:48:58Z</time>
      </trkpt>
      <trkpt lat="47.90903" lon="7.16833">
        <ele>613</ele>
        <time>2018-03-10T13:49:58Z</time>
      </trkpt>
      <trkpt lat="47.90917" lon="7.16795">
        <ele>616</ele>
        <time>2018-03-10T13:50:58Z</time>
      </trkpt>
      <trkpt lat="47.90931" lon="7.16769">
        <ele>620</ele>
        <time>2018-03-10T13:51:58Z</time>
      </trkpt>
      <trkpt lat="47.90953" lon="7.16746">
        <ele>629</ele>
        <time>2018-03-10T13:52:58Z</time>
      </trkpt>
      <trkpt lat="47.90958" lon="7.16732">
        <ele>633</ele>
        <time>2018-03-10T13:53:58Z</time>
      </trkpt>
      <trkpt lat="47.90958" lon="7.16723">
        <ele>635</ele>
        <time>2018-03-10T13:54:58Z</time>
      </trkpt>
      <trkpt lat="47.90953" lon="7.16712">
        <ele>634</ele>
        <time>2018-03-10T13:55:58Z</time>
      </trkpt>
      <trkpt lat="47.90921" lon="7.1667">
        <ele>627</ele>
        <time>2018-03-10T13:56:58Z</time>
      </trkpt>
      <trkpt lat="47.90909" lon="7.16639">
        <ele>628</ele>
        <time>2018-03-10T13:57:58Z</time>
      </trkpt>
      <trkpt lat="47.90906" lon="7.16593">
        <ele>636</ele>
        <time>2018-03-10T13:58:58Z</time>
      </trkpt>
      <trkpt lat="47.9091" lon="7.16482">
        <ele>648</ele>
        <time>2018-03-10T13:59:58Z</time>
      </trkpt>
      <trkpt lat="47.90912" lon="7.1638">
        <ele>655</ele>
        <time>2018-03-10T14:00:58Z</time>
      </trkpt>
      <trkpt lat="47.90913" lon="7.16284">
        <ele>657</ele>
        <time>2018-03-10T14:01:58Z</time>
      </trkpt>
      <trkpt lat="47.90904" lon="7.16191">
        <ele>649</ele>
        <time>2018-03-10T14:02:58Z</time>
      </trkpt>
      <trkpt lat="47.90918" lon="7.16161">
        <ele>650</ele>
        <time>2018-03-10T14:03:58Z</time>
      </trkpt>
      <trkpt lat="47.9093" lon="7.16145">
        <ele>650</ele>
        <time>2018-03-10T14:04:58Z</time>
      </trkpt>
      <trkpt lat="47.90946" lon="7.16132">
        <ele>651</ele>
        <time>2018-03-10T14:05:58Z</time>
      </trkpt>
      <trkpt lat="47.90989" lon="7.16106">
        <ele>655</ele>
        <time>2018-03-10T14:06:58Z</time>
      </trkpt>
      <trkpt lat="47.91022" lon="7.16084">
        <ele>652</ele>
        <time>2018-03-10T14:07:58Z</time>
      </trkpt>
      <trkpt lat="47.9103" lon="7.16072">
        <ele>652</ele>
        <time>2018-03-10T14:08:58Z</time>
      </trkpt>
      <trkpt lat="47.91028" lon="7.16039">
        <ele>650</ele>
        <time>2018-03-10T14:09:58Z</time>
      </trkpt>
      <trkpt lat="47.91008" lon="7.15976">
        <ele>649</ele>
        <time>2018-03-10T14:10:58Z</time>
      </trkpt>
      <trkpt lat="47.9101" lon="7.15932">
        <ele>651</ele>
        <time>2018-03-10T14:11:58Z</time>
      </trkpt>
      <trkpt lat="47.91016" lon="7.15903">
        <ele>652</ele>
        <time>2018-03-10T14:12:58Z</time>
      </trkpt>
      <trkpt lat="47.91018" lon="7.15891">
        <ele>653</ele>
        <time>2018-03-10T14:13:58Z</time>
      </trkpt>
      <trkpt lat="47.91043" lon="7.15876">
        <ele>653</ele>
        <time>2018-03-10T14:14:58Z</time>
      </trkpt>
      <trkpt lat="47.91022" lon="7.15843">
        <ele>658</ele>
        <time>2018-03-10T14:15:58Z</time>
      </trkpt>
      <trkpt lat="47.90991" lon="7.15792">
        <ele>662</ele>
        <time>2018-03-10T14:16:58Z</time>
      </trkpt>
      <trkpt lat="47.90988" lon="7.15691">
        <ele>682</ele>
        <time>2018-03-10T14:17:58Z</time>
      </trkpt>
      <trkpt lat="47.90979" lon="7.15636">
        <ele>693</ele>
        <time>2018-03-10T14:18:58Z</time>
      </trkpt>
      <trkpt lat="47.9097" lon="7.15589">
        <ele>702</ele>
        <time>2018-03-10T14:19:58Z</time>
      </trkpt>
      <trkpt lat="47.90956" lon="7.15554">
        <ele>707</ele>
        <time>2018-03-10T14:20:58Z</time>
      </trkpt>
      <trkpt lat="47.90943" lon="7.1552">
        <ele>712</ele>
        <time>2018-03-10T14:21:58Z</time>
      </trkpt>
      <trkpt lat="47.90939" lon="7.15492">
        <ele>718</ele>
        <time>2018-03-10T14:22:58Z</time>
      </trkpt>
      <trkpt lat="47.90936" lon="7.15425">
        <ele>734</ele>
        <time>2018-03-10T14:23:58Z</time>
      </trkpt>
      <trkpt lat="47.90928" lon="7.15368">
        <ele>748</ele>
        <time>2018-03-10T14:24:58Z</time>
      </trkpt>
      <trkpt lat="47.90912" lon="7.15322">
        <ele>758</ele>
        <time>2018-03-10T14:25:58Z</time>
      </trkpt>
      <trkpt lat="47.90889" lon="7.15303">
        <ele>762</ele>
        <time>2018-03-10T14:26:58Z</time>
      </trkpt>
      <trkpt lat="47.9085" lon="7.15277">
        <ele>767</ele>
        <time>2018-03-10T14:27:58Z</time>
      </trkpt>
      <trkpt lat="47.90822" lon="7.15247">
        <ele>773</ele>
        <time>2018-03-10T14:28:58Z</time>
      </trkpt>
      <trkpt lat="47.90808" lon="7.15212">
        <ele>776</ele>
        <time>2018-03-10T14:29:58Z</time>
      </trkpt>
      <trkpt lat="47.90799" lon="7.15188">
        <ele>777</ele>
        <time>2018-03-10T14:30:58Z</time>
      </trkpt>
      <trkpt lat="47.90797" lon="7.15146">
        <ele>781</ele>
        <time>2018-03-10T14:31:58Z</time>
      </trkpt>
      <trkpt lat="47.90802" lon="7.1508">
        <ele>787</ele>
        <time>2018-03-10T14:32:58Z</time>
      </trkpt>
      <trkpt lat="47.90795" lon="7.1501">
        <ele>789</ele>
        <time>2018-03-10T14:33:58Z</time>
      </trkpt>
      <trkpt lat="47.90789" lon="7.14928">
        <ele>791</ele>
        <time>2018-03-10T14:34:58Z</time>
      </trkpt>
      <trkpt lat="47.9079" lon="7.1488">
        <ele>792</ele>
        <time>2018-03-10T14:35:58Z</time>
      </trkpt>
      <trkpt lat="47.90795" lon="7.14838">
        <ele>794</ele>
        <time>2018-03-10T14:36:58Z</time>
      </trkpt>
      <trkpt lat="47.90804" lon="7.14801">
        <ele>798</ele>
        <time>2018-03-10T14:37:58Z</time>
      </trkpt>
      <trkpt lat="47.90828" lon="7.14776">
        <ele>805</ele>
        <time>2018-03-10T14:38:58Z</time>
      </trkpt>
      <trkpt lat="47.90865" lon="7.1475">
        <ele>811</ele>
        <time>2018-03-10T14:39:58Z</time>
      </trkpt>
      <trkpt lat="47.90888" lon="7.14719">
        <ele>818</ele>
        <time>2018-03-10T14:40:58Z</time>
      </trkpt>
      <trkpt lat="47.909" lon="7.14686">
        <ele>822</ele>
        <time>2018-03-10T14:41:58Z</time>
      </trkpt>
      <trkpt lat="47.90906" lon="7.14649">
        <ele>826</ele>
        <time>2018-03-10T14:42:58Z</time>
      </trkpt>
      <trkpt lat="47.90903" lon="7.14592">
        <ele>832</ele>
        <time>2018-03-10T14:43:58Z</time>
      </trkpt>
      <trkpt lat="47.90896" lon="7.14537">
        <ele>839</ele>
        <time>2018-03-10T14:44:58Z</time>
      </trkpt>
      <trkpt lat="47.90886" lon="7.14494">
        <ele>844</ele>
        <time>2018-03-10T14:45:58Z</time>
      </trkpt>
      <trkpt lat="47.90869" lon="7.14441">
        <ele>848</ele>
        <time>2018-03-10T14:46:58Z</time>
      </trkpt>
      <trkpt lat="47.90849" lon="7.14391">
        <ele>853</ele>
        <time>2018-03-10T14:47:58Z</time>
      </trkpt>
      <trkpt lat="47.9084" lon="7.14367">
        <ele>857</ele>
        <time>2018-03-10T14:48:58Z</time>
      </trkpt>
      <trkpt lat="47.90857" lon="7.14375">
        <ele>859</ele>
        <time>2018-03-10T14:49:58Z</time>
      </trkpt>
      <trkpt lat="47.90872" lon="7.14385">
        <ele>860</ele>
        <time>2018-03-10T14:50:58Z</time>
      </trkpt>
      <trkpt lat="47.90887" lon="7.14397">
        <ele>861</ele>
        <time>2018-03-10T14:51:58Z</time>
      </trkpt>
      <trkpt lat="47.90896" lon="7.144">
        <ele>863</ele>
        <time>2018-03-10T14:52:58Z</time>
      </trkpt>
      <trkpt lat="47.90903" lon="7.14399">
        <ele>865</ele>
        <time>2018-03-10T14:53:58Z</time>
      </trkpt>
      <trkpt lat="47.90907" lon="7.1439">
        <ele>867</ele>
        <time>2018-03-10T14:54:58Z</time>
      </trkpt>
      <trkpt lat="47.90907" lon="7.14374">
        <ele>870</ele>
        <time>2018-03-10T14:55:58Z</time>
      </trkpt>
      <trkpt lat="47.9086" lon="7.1434">
        <ele>868</ele>
        <time>2018-03-10T14:56:58Z</time>
      </trkpt>
      <trkpt lat="47.90831" lon="7.14321">
        <ele>866</ele>
        <time>2018-03-10T14:57:58Z</time>
      </trkpt>
      <trkpt lat="47.90803" lon="7.14254">
        <ele>879</ele>
        <time>2018-03-10T14:58:58Z</time>
      </trkpt>
      <trkpt lat="47.90786" lon="7.14184">
        <ele>893</ele>
        <time>2018-03-10T14:59:58Z</time>
      </trkpt>
      <trkpt lat="47.90764" lon="7.1414">
        <ele>900</ele>
        <time>2018-03-10T15:00:58Z</time>
      </trkpt>
      <trkpt lat="47.9074" lon="7.14099">
        <ele>908</ele>
        <time>2018-03-10T15:01:58Z</time>
      </trkpt>
      <trkpt lat="47.90716" lon="7.14066">
        <ele>915</ele>
        <time>2018-03-10T15:02:58Z</time>
      </trkpt>
      <trkpt lat="47.9071" lon="7.14031">
        <ele>918</ele>
        <time>2018-03-10T15:03:58Z</time>
      </trkpt>
      <trkpt lat="47.9071" lon="7.13976">
        <ele>920</ele>
        <time>2018-03-10T15:04:58Z</time>
      </trkpt>
      <trkpt lat="47.90715" lon="7.13951">
        <ele>919</ele>
        <time>2018-03-10T15:05:58Z</time>
      </trkpt>
      <trkpt lat="47.90698" lon="7.13858">
        <ele>924</ele>
        <time>2018-03-10T15:06:58Z</time>
      </trkpt>
      <trkpt lat="47.90681" lon="7.13774">
        <ele>927</ele>
        <time>2018-03-10T15:07:58Z</time>
      </trkpt>
      <trkpt lat="47.90653" lon="7.13684">
        <ele>923</ele>
        <time>2018-03-10T15:08:58Z</time>
      </trkpt>
      <trkpt lat="47.90647" lon="7.13599">
        <ele>920</ele>
        <time>2018-03-10T15:09:58Z</time>
      </trkpt>
      <trkpt lat="47.90648" lon="7.13545">
        <ele>928</ele>
        <time>2018-03-10T15:10:58Z</time>
      </trkpt>
      <trkpt lat="47.90657" lon="7.13445">
        <ele>950</ele>
        <time>2018-03-10T15:11:58Z</time>
      </trkpt>
      <trkpt lat="47.90671" lon="7.13304">
        <ele>968</ele>
        <time>2018-03-10T15:12:58Z</time>
      </trkpt>
      <trkpt lat="47.90675" lon="7.13242">
        <ele>969</ele>
        <time>2018-03-10T15:13:58Z</time>
      </trkpt>
      <trkpt lat="47.90686" lon="7.13179">
        <ele>965</ele>
        <time>2018-03-10T15:14:58Z</time>
      </trkpt>
      <trkpt lat="47.90736" lon="7.13041">
        <ele>965</ele>
        <time>2018-03-10T15:15:58Z</time>
      </trkpt>
      <trkpt lat="47.90741" lon="7.13015">
        <ele>967</ele>
        <time>2018-03-10T15:16:58Z</time>
      </trkpt>
      <trkpt lat="47.90759" lon="7.12975">
        <ele>968</ele>
        <time>2018-03-10T15:17:58Z</time>
      </trkpt>
      <trkpt lat="47.90781" lon="7.12933">
        <ele>967</ele>
        <time>2018-03-10T15:18:58Z</time>
      </trkpt>
      <trkpt lat="47.90795" lon="7.12905">
        <ele>969</ele>
        <time>2018-03-10T15:19:58Z</time>
      </trkpt>
      <trkpt lat="47.90803" lon="7.12881">
        <ele>971</ele>
        <time>2018-03-10T15:20:58Z</time>
      </trkpt>
      <trkpt lat="47.90813" lon="7.1289">
        <ele>972</ele>
        <time>2018-03-10T15:21:58Z</time>
      </trkpt>
      <trkpt lat="47.90815" lon="7.12872">
        <ele>973</ele>
        <time>2018-03-10T15:22:58Z</time>
      </trkpt>
      <trkpt lat="47.90814" lon="7.12863">
        <ele>974</ele>
        <time>2018-03-10T15:23:58Z</time>
      </trkpt>
      <trkpt lat="47.90818" lon="7.12858">
        <ele>974</ele>
        <time>2018-03-10T15:24:58Z</time>
      </trkpt>
      <trkpt lat="47.90812" lon="7.12843">
        <ele>975</ele>
        <time>2018-03-10T15:25:58Z</time>
      </trkpt>
      <trkpt lat="47.90798" lon="7.12811">
        <ele>978</ele>
        <time>2018-03-10T15:26:58Z</time>
      </trkpt>
      <trkpt lat="47.90758" lon="7.12737">
        <ele>986</ele>
        <time>2018-03-10T15:27:58Z</time>
      </trkpt>
      <trkpt lat="47.90753" lon="7.12694">
        <ele>993</ele>
        <time>2018-03-10T15:28:58Z</time>
      </trkpt>
      <trkpt lat="47.90746" lon="7.12648">
        <ele>999</ele>
        <time>2018-03-10T15:29:58Z</time>
      </trkpt>
      <trkpt lat="47.90741" lon="7.12555">
        <ele>1010</ele>
        <time>2018-03-10T15:30:58Z</time>
      </trkpt>
      <trkpt lat="47.90745" lon="7.12463">
        <ele>1024</ele>
        <time>2018-03-10T15:31:58Z</time>
      </trkpt>
      <trkpt lat="47.90731" lon="7.12391">
        <ele>1031</ele>
        <time>2018-03-10T15:32:58Z</time>
      </trkpt>
      <trkpt lat="47.90709" lon="7.12326">
        <ele>1039</ele>
        <time>2018-03-10T15:33:58Z</time>
      </trkpt>
      <trkpt lat="47.90661" lon="7.1225">
        <ele>1046</ele>
        <time>2018-03-10T15:34:58Z</time>
      </trkpt>
      <trkpt lat="47.90568" lon="7.12053">
        <ele>1068</ele>
        <time>2018-03-10T15:35:58Z</time>
      </trkpt>
      <trkpt lat="47.90521" lon="7.1189">
        <ele>1093</ele>
        <time>2018-03-10T15:36:58Z</time>
      </trkpt>
      <trkpt lat="47.90486" lon="7.11739">
        <ele>1112</ele>
        <time>2018-03-10T15:37:58Z</time>
      </trkpt>
      <trkpt lat="47.90462" lon="7.11654">
        <ele>1116</ele>
        <time>2018-03-10T15:38:58Z</time>
      </trkpt>
      <trkpt lat="47.90456" lon="7.11611">
        <ele>1119</ele>
        <time>2018-03-10T15:39:58Z</time>
      </trkpt>
      <trkpt lat="47.90453" lon="7.11562">
        <ele>1124</ele>
        <time>2018-03-10T15:40:58Z</time>
      </trkpt>
      <trkpt lat="47.90435" lon="7.11431">
        <ele>1132</ele>
        <time>2018-03-10T15:41:58Z</time>
      </trkpt>
      <trkpt lat="47.90428" lon="7.114">
        <ele>1134</ele>
        <time>2018-03-10T15:42:58Z</time>
      </trkpt>
      <trkpt lat="47.90429" lon="7.11138">
        <ele>1192</ele>
        <time>2018-03-10T15:43:58Z</time>
      </trkpt>
      <trkpt lat="47.90253" lon="7.10758">
        <ele>1246</ele>
        <time>2018-03-10T15:44:58Z</time>
      </trkpt>
      <trkpt lat="47.9024" lon="7.10738">
        <ele>1249</ele>
        <time>2018-03-10T15:45:58Z</time>
      </trkpt>
      <trkpt lat="47.90233" lon="7.10733">
        <ele>1249</ele>
        <time>2018-03-10T15:46:58Z</time>
      </trkpt>
      <trkpt lat="47.90225" lon="7.10725">
        <ele>1250</ele>
        <time>2018-03-10T15:47:58Z</time>
      </trkpt>
      <trkpt lat="47.90211" lon="7.10712">
        <ele>1251</ele>
        <time>2018-03-10T15:48:58Z</time>
      </trkpt>
      <trkpt lat="47.90201" lon="7.10701">
        <ele>1252</ele>
        <time>2018-03-10T15:49:58Z</time>
      </trkpt>
      <trkpt lat="47.90217" lon="7.10697">
        <ele>1254</ele>
        <time>2018-03-10T15:50:58Z</time>
      </trkpt>
      <trkpt lat="47.90229" lon="7.10695">
        <ele>1255</ele>
        <time>2018-03-10T15:51:58Z</time>
      </trkpt>
      <trkpt lat="47.90244" lon="7.10693">
        <ele>1256</ele>
        <time>2018-03-10T15:52:58Z</time>
      </trkpt>
      <trkpt lat="47.90261" lon="7.10689">
        <ele>1258</ele>
        <time>2018-03-10T15:53:58Z</time>
      </trkpt>
      <trkpt lat="47.90271" lon="7.10687">
        <ele>1260</ele>
        <time>2018-03-10T15:54:58Z</time>
      </trkpt>
      <trkpt lat="47.90299" lon="7.10683">
        <ele>1265</ele>
        <time>2018-03-10T15:55:58Z</time>
      </trkpt>
      <trkpt lat="47.90324" lon="7.10676">
        <ele>1271</ele>
        <time>2018-03-10T15:56:58Z</time>
      </trkpt>
      <trkpt lat="47.90358" lon="7.10666">
        <ele>1279</ele>
        <time>2018-03-10T15:57:58Z</time>
      </trkpt>
      <trkpt lat="47.90383" lon="7.10661">
        <ele>1284</ele>
        <time>2018-03-10T15:58:58Z</time>
      </trkpt>
      <trkpt lat="47.90411" lon="7.1066">
        <ele>1289</ele>
        <time>2018-03-10T15:59:58Z</time>
      </trkpt>
      <trkpt lat="47.90446" lon="7.10666">
        <ele>1294</ele>
        <time>2018-03-10T16:00:58Z</time>
      </trkpt>
      <trkpt lat="47.90473" lon="7.10674">
        <ele>1297</ele>
        <time>2018-03-10T16:01:58Z</time>
      </trkpt>
      <trkpt lat="47.90515" lon="7.10682">
        <ele>1301</ele>
        <time>2018-03-10T16:02:58Z</time>
      </trkpt>
      <trkpt lat="47.90465" lon="7.10611">
        <ele>1307</ele>
        <time>2018-03-10T16:03:58Z</time>
      </trkpt>
      <trkpt lat="47.90446" lon="7.10572">
        <ele>1311</ele>
        <time>2018-03-10T16:04:58Z</time>
      </trkpt>
      <trkpt lat="47.90437" lon="7.10526">
        <ele>1317</ele>
        <time>2018-03-10T16:05:58Z</time>
      </trkpt>
      <trkpt lat="47.90431" lon="7.10465">
        <ele>1324</ele>
        <time>2018-03-10T16:06:58Z</time>
      </trkpt>
      <trkpt lat="47.90463" lon="7.10414">
        <ele>1331</ele>
        <time>2018-03-10T16:07:58Z</time>
      </trkpt>
      <trkpt lat="47.90475" lon="7.10367">
        <ele>1333</ele>
        <time>2018-03-10T16:08:58Z</time>
      </trkpt>
      <trkpt lat="47.90453" lon="7.10342">
        <ele>1334</ele>
        <time>2018-03-10T16:09:58Z</time>
      </trkpt>
      <trkpt lat="47.90436" lon="7.1033">
        <ele>1336</ele>
        <time>2018-03-10T16:10:58Z</time>
      </trkpt>
      <trkpt lat="47.90438" lon="7.10303">
        <ele>1338</ele>
        <time>2018-03-10T16:11:58Z</time>
      </trkpt>
      <trkpt lat="47.9044" lon="7.10285">
        <ele>1340</ele>
        <time>2018-03-10T16:12:58Z</time>
      </trkpt>
      <trkpt lat="47.90435" lon="7.10269">
        <ele>1342</ele>
        <time>2018-03-10T16:13:58Z</time>
      </trkpt>
      <trkpt lat="47.90424" lon="7.10255">
        <ele>1346</ele>
        <time>2018-03-10T16:14:58Z</time>
      </trkpt>
      <trkpt lat="47.90406" lon="7.10233">
        <ele>1351</ele>
        <time>2018-03-10T16:15:58Z</time>
      </trkpt>
      <trkpt lat="47.904" lon="7.10229">
        <ele>1352</ele>
        <time>2018-03-10T16:16:58Z</time>
      </trkpt>
      <trkpt lat="47.90391" lon="7.10227">
        <ele>1353</ele>
        <time>2018-03-10T16:17:58Z</time>
      </trkpt>
      <trkpt lat="47.90363" lon="7.1023">
        <ele>1356</ele>
        <time>2018-03-10T16:18:58Z</time>
      </trkpt>
      <trkpt lat="47.90341" lon="7.10228">
        <ele>1359</ele>
        <time>2018-03-10T16:19:58Z</time>
      </trkpt>
      <trkpt lat="47.90317" lon="7.10216">
        <ele>1362</ele>
        <time>2018-03-10T16:20:58Z</time>
      </trkpt>
      <trkpt lat="47.90292" lon="7.10195">
        <ele>1366</ele>
        <time>2018-03-10T16:21:58Z</time>
      </trkpt>
      <trkpt lat="47.90277" lon="7.10179">
        <ele>1368</ele>
        <time>2018-03-10T16:22:58Z</time>
      </trkpt>
      <trkpt lat="47.90271" lon="7.10164">
        <ele>1371</ele>
        <time>2018-03-10T16:23:58Z</time>
      </trkpt>
      <trkpt lat="47.90264" lon="7.10126">
        <ele>1379</ele>
        <time>2018-03-10T16:24:58Z</time>
      </trkpt>
      <trkpt lat="47.90261" lon="7.10117">
        <ele>1380</ele>
        <time>2018-03-10T16:25:58Z</time>
      </trkpt>
      <trkpt lat="47.90244" lon="7.10098">
        <ele>1383</ele>
        <time>2018-03-10T16:26:58Z</time>
      </trkpt>
      <trkpt lat="47.90228" lon="7.10079">
        <ele>1384</ele>
        <time>2018-03-10T16:27:58Z</time>
      </trkpt>
      <trkpt lat="47.90222" lon="7.10071">
        <ele>1385</ele>
        <time>2018-03-10T16:28:58Z</time>
      </trkpt>
      <trkpt lat="47.90205" lon="7.10049">
        <ele>1388</ele>
        <time>2018-03-10T16:29:58Z</time>
      </trkpt>
      <trkpt lat="47.90174" lon="7.10016">
        <ele>1392</ele>
        <time>2018-03-10T16:30:58Z</time>
      </trkpt>
      <trkpt lat="47.90157" lon="7.1">
        <ele>1396</ele>
        <time>2018-03-10T16:31:58Z</time>
      </trkpt>
      <trkpt lat="47.90123" lon="7.0998">
        <ele>1399</ele>
        <time>2018-03-10T16:32:58Z</time>
      </trkpt>
      <trkpt lat="47.90083" lon="7.09956">
        <ele>1404</ele>
        <time>2018-03-10T16:33:58Z</time>
      </trkpt>
      <trkpt lat="47.90074" lon="7.09949">
        <ele>1404</ele>
        <time>2018-03-10T16:34:58Z</time>
      </trkpt>
      <trkpt lat="47.90062" lon="7.0994">
        <ele>1404</ele>
        <time>2018-03-10T16:35:58Z</time>
      </trkpt>
      <trkpt lat="47.90047" lon="7.09928">
        <ele>1404</ele>
        <time>2018-03-10T16:36:58Z</time>
      </trkpt>
      <trkpt lat="47.90043" lon="7.09917">
        <ele>1406</ele>
        <time>2018-03-10T16:37:58Z</time>
      </trkpt>
      <trkpt lat="47.90043" lon="7.09899">
        <ele>1405</ele>
        <time>2018-03-10T16:38:58Z</time>
      </trkpt>
      <trkpt lat="47.90045" lon="7.09873">
        <ele>1404</ele>
        <time>2018-03-10T16:39:58Z</time>
      </trkpt>
      <trkpt lat="47.90074" lon="7.09813">
        <ele>1405</ele>
        <time>2018-03-10T16:40:58Z</time>
      </trkpt>
      <trkpt lat="47.90103" lon="7.09775">
        <ele>1398</ele>
        <time>2018-03-10T16:41:58Z</time>
      </trkpt>
      <trkpt lat="47.90158" lon="7.09723">
        <ele>1386</ele>
        <time>2018-03-10T16:42:58Z</time>
      </trkpt>
      <trkpt lat="47.90198" lon="7.0968">
        <ele>1373</ele>
        <time>2018-03-10T16:43:58Z</time>
      </trkpt>
      <trkpt lat="47.90224" lon="7.09649">
        <ele>1362</ele>
        <time>2018-03-10T16:44:58Z</time>
      </trkpt>
      <trkpt lat="47.90259" lon="7.09621">
        <ele>1350</ele>
        <time>2018-03-10T16:45:58Z</time>
      </trkpt>
      <trkpt lat="47.90286" lon="7.09597">
        <ele>1338</ele>
        <time>2018-03-10T16:46:58Z</time>
      </trkpt>
      <trkpt lat="47.90317" lon="7.09566">
        <ele>1326</ele>
        <time>2018-03-10T16:47:58Z</time>
      </trkpt>
      <trkpt lat="47.90328" lon="7.09536">
        <ele>1319</ele>
        <time>2018-03-10T16:48:58Z</time>
      </trkpt>
      <trkpt lat="47.90346" lon="7.09512">
        <ele>1311</ele>
        <time>2018-03-10T16:49:58Z</time>
      </trkpt>
      <trkpt lat="47.9036" lon="7.09489">
        <ele>1305</ele>
        <time>2018-03-10T16:50:58Z</time>
      </trkpt>
      <trkpt lat="47.90369" lon="7.09441">
        <ele>1296</ele>
        <time>2018-03-10T16:51:58Z</time>
      </trkpt>
      <trkpt lat="47.90384" lon="7.09359">
        <ele>1278</ele>
        <time>2018-03-10T16:52:58Z</time>
      </trkpt>
      <trkpt lat="47.90393" lon="7.09326">
        <ele>1270</ele>
        <time>2018-03-10T16:53:58Z</time>
      </trkpt>
      <trkpt lat="47.90396" lon="7.09296">
        <ele>1262</ele>
        <time>2018-03-10T16:54:58Z</time>
      </trkpt>
      <trkpt lat="47.90406" lon="7.09279">
        <ele>1256</ele>
        <time>2018-03-10T16:55:58Z</time>
      </trkpt>
      <trkpt lat="47.90447" lon="7.09191">
        <ele>1241</ele>
        <time>2018-03-10T16:56:58Z</time>
      </trkpt>
      <trkpt lat="47.90453" lon="7.0918">
        <ele>1239</ele>
        <time>2018-03-10T16:57:58Z</time>
      </trkpt>
      <trkpt lat="47.90454" lon="7.09172">
        <ele>1239</ele>
        <time>2018-03-10T16:58:58Z</time>
      </trkpt>
      <trkpt lat="47.90456" lon="7.09166">
        <ele>1238</ele>
        <time>2018-03-10T16:59:58Z</time>
      </trkpt>
      <trkpt lat="47.9046" lon="7.09158">
        <ele>1237</ele>
        <time>2018-03-10T17:00:58Z</time>
      </trkpt>
      <trkpt lat="47.90459" lon="7.09133">
        <ele>1234</ele>
        <time>2018-03-10T17:01:58Z</time>
      </trkpt>
      <trkpt lat="47.90463" lon="7.09109">
        <ele>1232</ele>
        <time>2018-03-10T17:02:58Z</time>
      </trkpt>
      <trkpt lat="47.90471" lon="7.09094">
        <ele>1230</ele>
        <time>2018-03-10T17:03:58Z</time>
      </trkpt>
      <trkpt lat="47.905" lon="7.09053">
        <ele>1229</ele>
        <time>2018-03-10T17:04:58Z</time>
      </trkpt>
      <trkpt lat="47.90508" lon="7.09039">
        <ele>1227</ele>
        <time>2018-03-10T17:05:58Z</time>
      </trkpt>
      <trkpt lat="47.90477" lon="7.08984">
        <ele>1224</ele>
        <time>2018-03-10T17:06:58Z</time>
      </trkpt>
      <trkpt lat="47.9045" lon="7.08933">
        <ele>1218</ele>
        <time>2018-03-10T17:07:58Z</time>
      </trkpt>
      <trkpt lat="47.90431" lon="7.08877">
        <ele>1212</ele>
        <time>2018-03-10T17:08:58Z</time>
      </trkpt>
      <trkpt lat="47.90427" lon="7.0887">
        <ele>1211</ele>
        <time>2018-03-10T17:09:58Z</time>
      </trkpt>
      <trkpt lat="47.90424" lon="7.08867">
        <ele>1210</ele>
        <time>2018-03-10T17:10:58Z</time>
      </trkpt>
      <trkpt lat="47.9042" lon="7.0883">
        <ele>1208</ele>
        <time>2018-03-10T17:11:58Z</time>
      </trkpt>
      <trkpt lat="47.90411" lon="7.08799">
        <ele>1207</ele>
        <time>2018-03-10T17:12:58Z</time>
      </trkpt>
      <trkpt lat="47.90401" lon="7.08776">
        <ele>1205</ele>
        <time>2018-03-10T17:13:58Z</time>
      </trkpt>
      <trkpt lat="47.90389" lon="7.0876">
        <ele>1202</ele>
        <time>2018-03-10T17:14:58Z</time>
      </trkpt>
      <trkpt lat="47.90355" lon="7.08729">
        <ele>1197</ele>
        <time>2018-03-10T17:15:58Z</time>
      </trkpt>
      <trkpt lat="47.90296" lon="7.08677">
        <ele>1190</ele>
        <time>2018-03-10T17:16:58Z</time>
      </trkpt>
      <trkpt lat="47.9028" lon="7.08668">
        <ele>1186</ele>
        <time>2018-03-10T17:17:58Z</time>
      </trkpt>
      <trkpt lat="47.90235" lon="7.08623">
        <ele>1182</ele>
        <time>2018-03-10T17:18:58Z</time>
      </trkpt>
      <trkpt lat="47.90207" lon="7.086">
        <ele>1178</ele>
        <time>2018-03-10T17:19:58Z</time>
      </trkpt>
      <trkpt lat="47.90192" lon="7.08576">
        <ele>1180</ele>
        <time>2018-03-10T17:20:58Z</time>
      </trkpt>
      <trkpt lat="47.90183" lon="7.08564">
        <ele>1180</ele>
        <time>2018-03-10T17:21:58Z</time>
      </trkpt>
      <trkpt lat="47.90175" lon="7.08558">
        <ele>1179</ele>
        <time>2018-03-10T17:22:58Z</time>
      </trkpt>
      <trkpt lat="47.90155" lon="7.08552">
        <ele>1174</ele>
        <time>2018-03-10T17:23:58Z</time>
      </trkpt>
      <trkpt lat="47.90132" lon="7.08538">
        <ele>1171</ele>
        <time>2018-03-10T17:24:58Z</time>
      </trkpt>
      <trkpt lat="47.90105" lon="7.08519">
        <ele>1167</ele>
        <time>2018-03-10T17:25:58Z</time>
      </trkpt>
      <trkpt lat="47.90103" lon="7.08507">
        <ele>1169</ele>
        <time>2018-03-10T17:26:58Z</time>
      </trkpt>
      <trkpt lat="47.90079" lon="7.08463">
        <ele>1172</ele>
        <time>2018-03-10T17:27:58Z</time>
      </trkpt>
      <trkpt lat="47.90037" lon="7.08349">
        <ele>1184</ele>
        <time>2018-03-10T17:28:58Z</time>
      </trkpt>
      <trkpt lat="47.90021" lon="7.08304">
        <ele>1185</ele>
        <time>2018-03-10T17:29:58Z</time>
      </trkpt>
      <trkpt lat="47.9001" lon="7.08266">
        <ele>1186</ele>
        <time>2018-03-10T17:30:58Z</time>
      </trkpt>
      <trkpt lat="47.89997" lon="7.08235">
        <ele>1185</ele>
        <time>2018-03-10T17:31:58Z</time>
      </trkpt>
      <trkpt lat="47.89981" lon="7.08163">
        <ele>1190</ele>
        <time>2018-03-10T17:32:58Z</time>
      </trkpt>
      <trkpt lat="47.89965" lon="7.08074">
        <ele>1193</ele>
        <time>2018-03-10T17:33:58Z</time>
      </trkpt>
      <trkpt lat="47.89947" lon="7.07979">
        <ele>1198</ele>
        <time>2018-03-10T17:34:58Z</time>
      </trkpt>
      <trkpt lat="47.8993" lon="7.07914">
        <ele>1200</ele>
        <time>2018-03-10T17:35:58Z</time>
      </trkpt>
      <trkpt lat="47.89914" lon="7.07862">
        <ele>1203</ele>
        <time>2018-03-10T17:36:58Z</time>
      </trkpt>
      <trkpt lat="47.89886" lon="7.07791">
        <ele>1208</ele>
        <time>2018-03-10T17:37:58Z</time>
      </trkpt>
      <trkpt lat="47.89866" lon="7.07746">
        <ele>1212</ele>
        <time>2018-03-10T17:38:58Z</time>
      </trkpt>
      <trkpt lat="47.89848" lon="7.07717">
        <ele>1211</ele>
        <time>2018-03-10T17:39:58Z</time>
      </trkpt>
      <trkpt lat="47.89823" lon="7.07661">
        <ele>1214</ele>
        <time>2018-03-10T17:40:58Z</time>
      </trkpt>
      <trkpt lat="47.89807" lon="7.07613">
        <ele>1214</ele>
        <time>2018-03-10T17:41:58Z</time>
      </trkpt>
      <trkpt lat="47.89795" lon="7.07563">
        <ele>1213</ele>
        <time>2018-03-10T17:42:58Z</time>
      </trkpt>
      <trkpt lat="47.89792" lon="7.0752">
        <ele>1213</ele>
        <time>2018-03-10T17:43:58Z</time>
      </trkpt>
      <trkpt lat="47.89792" lon="7.07502">
        <ele>1214</ele>
        <time>2018-03-10T17:44:58Z</time>
      </trkpt>
      <trkpt lat="47.89801" lon="7.07448">
        <ele>1211</ele>
        <time>2018-03-10T17:45:58Z</time>
      </trkpt>
      <trkpt lat="47.89814" lon="7.07398">
        <ele>1209</ele>
        <time>2018-03-10T17:46:58Z</time>
      </trkpt>
      <trkpt lat="47.89838" lon="7.07356">
        <ele>1206</ele>
        <time>2018-03-10T17:47:58Z</time>
      </trkpt>
      <trkpt lat="47.89865" lon="7.07348">
        <ele>1203</ele>
        <time>2018-03-10T17:48:58Z</time>
      </trkpt>
      <trkpt lat="47.89888" lon="7.07355">
        <ele>1205</ele>
        <time>2018-03-10T17:49:58Z</time>
      </trkpt>
      <trkpt lat="47.89925" lon="7.07379">
        <ele>1212</ele>
        <time>2018-03-10T17:50:58Z</time>
      </trkpt>
      <trkpt lat="47.89963" lon="7.07437">
        <ele>1224</ele>
        <time>2018-03-10T17:51:58Z</time>
      </trkpt>
      <trkpt lat="47.89993" lon="7.07473">
        <ele>1229</ele>
        <time>2018-03-10T17:52:58Z</time>
      </trkpt>
      <trkpt lat="47.90025" lon="7.07482">
        <ele>1230</ele>
        <time>2018-03-10T17:53:58Z</time>
      </trkpt>
      <trkpt lat="47.90078" lon="7.07487">
        <ele>1231</ele>
        <time>2018-03-10T17:54:58Z</time>
      </trkpt>
      <trkpt lat="47.90124" lon="7.07495">
        <ele>1227</ele>
        <time>2018-03-10T17:55:58Z</time>
      </trkpt>
      <trkpt lat="47.90204" lon="7.0754">
        <ele>1239</ele>
        <time>2018-03-10T17:56:58Z</time>
      </trkpt>
      <trkpt lat="47.90221" lon="7.07537">
        <ele>1238</ele>
        <time>2018-03-10T17:57:58Z</time>
      </trkpt>
      <trkpt lat="47.90251" lon="7.07515">
        <ele>1232</ele>
        <time>2018-03-10T17:58:58Z</time>
      </trkpt>
      <trkpt lat="47.90283" lon="7.07472">
        <ele>1232</ele>
        <time>2018-03-10T17:59:58Z</time>
      </trkpt>
      <trkpt lat="47.90311" lon="7.07422">
        <ele>1234</ele>
        <time>2018-03-10T18:00:58Z</time>
      </trkpt>
      <trkpt lat="47.9032" lon="7.07377">
        <ele>1229</ele>
        <time>2018-03-10T18:01:58Z</time>
      </trkpt>
      <trkpt lat="47.90332" lon="7.07292">
        <ele>1219</ele>
        <time>2018-03-10T18:02:58Z</time>
      </trkpt>
      <trkpt lat="47.90346" lon="7.07168">
        <ele>1209</ele>
        <time>2018-03-10T18:03:58Z</time>
      </trkpt>
      <trkpt lat="47.90374" lon="7.07016">
        <ele>1202</ele>
        <time>2018-03-10T18:04:58Z</time>
      </trkpt>
      <trkpt lat="47.90419" lon="7.06756">
        <ele>1181</ele>
        <time>2018-03-10T18:05:58Z</time>
      </trkpt>
      <trkpt lat="47.90434" lon="7.06717">
        <ele>1179</ele>
        <time>2018-03-10T18:06:58Z</time>
      </trkpt>
      <trkpt lat="47.90458" lon="7.06687">
        <ele>1180</ele>
        <time>2018-03-10T18:07:58Z</time>
      </trkpt>
      <trkpt lat="47.90504" lon="7.06654">
        <ele>1184</ele>
        <time>2018-03-10T18:08:58Z</time>
      </trkpt>
      <trkpt lat="47.90527" lon="7.06641">
        <ele>1180</ele>
        <time>2018-03-10T18:09:58Z</time>
      </trkpt>
      <trkpt lat="47.90561" lon="7.06628">
        <ele>1178</ele>
        <time>2018-03-10T18:10:58Z</time>
      </trkpt>
      <trkpt lat="47.90609" lon="7.06623">
        <ele>1177</ele>
        <time>2018-03-10T18:11:58Z</time>
      </trkpt>
      <trkpt lat="47.90756" lon="7.06635">
        <ele>1172</ele>
        <time>2018-03-10T18:12:58Z</time>
      </trkpt>
      <trkpt lat="47.90834" lon="7.0664">
        <ele>1175</ele>
        <time>2018-03-10T18:13:58Z</time>
      </trkpt>
      <trkpt lat="47.90873" lon="7.06648">
        <ele>1181</ele>
        <time>2018-03-10T18:14:58Z</time>
      </trkpt>
      <trkpt lat="47.90877" lon="7.06651">
        <ele>1182</ele>
        <time>2018-03-10T18:15:58Z</time>
      </trkpt>
      <trkpt lat="47.90882" lon="7.06656">
        <ele>1184</ele>
        <time>2018-03-10T18:16:58Z</time>
      </trkpt>
      <trkpt lat="47.90888" lon="7.06659">
        <ele>1185</ele>
        <time>2018-03-10T18:17:58Z</time>
      </trkpt>
      <trkpt lat="47.90906" lon="7.06661">
        <ele>1187</ele>
        <time>2018-03-10T18:18:58Z</time>
      </trkpt>
      <trkpt lat="47.90918" lon="7.06667">
        <ele>1189</ele>
        <time>2018-03-10T18:19:58Z</time>
      </trkpt>
      <trkpt lat="47.90927" lon="7.06672">
        <ele>1190</ele>
        <time>2018-03-10T18:20:58Z</time>
      </trkpt>
      <trkpt lat="47.90936" lon="7.06673">
        <ele>1191</ele>
        <time>2018-03-10T18:21:58Z</time>
      </trkpt>
      <trkpt lat="47.90949" lon="7.06669">
        <ele>1193</ele>
        <time>2018-03-10T18:22:58Z</time>
      </trkpt>
      <trkpt lat="47.90979" lon="7.06631">
        <ele>1194</ele>
        <time>2018-03-10T18:23:58Z</time>
      </trkpt>
      <trkpt lat="47.90987" lon="7.06617">
        <ele>1195</ele>
        <time>2018-03-10T18:24:58Z</time>
      </trkpt>
      <trkpt lat="47.91002" lon="7.06594">
        <ele>1196</ele>
        <time>2018-03-10T18:25:58Z</time>
      </trkpt>
      <trkpt lat="47.91044" lon="7.06519">
        <ele>1198</ele>
        <time>2018-03-10T18:26:58Z</time>
      </trkpt>
      <trkpt lat="47.91057" lon="7.06489">
        <ele>1199</ele>
        <time>2018-03-10T18:27:58Z</time>
      </trkpt>
      <trkpt lat="47.91077" lon="7.06449">
        <ele>1201</ele>
        <time>2018-03-10T18:28:58Z</time>
      </trkpt>
      <trkpt lat="47.91095" lon="7.06404">
        <ele>1201</ele>
        <time>2018-03-10T18:29:58Z</time>
      </trkpt>
      <trkpt lat="47.91111" lon="7.06358">
        <ele>1201</ele>
        <time>2018-03-10T18:30:58Z</time>
      </trkpt>
      <trkpt lat="47.91116" lon="7.06321">
        <ele>1200</ele>
        <time>2018-03-10T18:31:58Z</time>
      </trkpt>
      <trkpt lat="47.9113" lon="7.06188">
        <ele>1199</ele>
        <time>2018-03-10T18:32:58Z</time>
      </trkpt>
      <trkpt lat="47.91149" lon="7.06104">
        <ele>1201</ele>
        <time>2018-03-10T18:33:58Z</time>
      </trkpt>
      <trkpt lat="47.9116" lon="7.06042">
        <ele>1200</ele>
        <time>2018-03-10T18:34:58Z</time>
      </trkpt>
      <trkpt lat="47.91159" lon="7.06026">
        <ele>1198</ele>
        <time>2018-03-10T18:35:58Z</time>
      </trkpt>
      <trkpt lat="47.91155" lon="7.06001">
        <ele>1196</ele>
        <time>2018-03-10T18:36:58Z</time>
      </trkpt>
      <trkpt lat="47.91144" lon="7.05951">
        <ele>1194</ele>
        <time>2018-03-10T18:37:58Z</time>
      </trkpt>
      <trkpt lat="47.91125" lon="7.05898">
        <ele>1195</ele>
        <time>2018-03-10T18:38:58Z</time>
      </trkpt>
      <trkpt lat="47.91101" lon="7.05835">
        <ele>1199</ele>
        <time>2018-03-10T18:39:58Z</time>
      </trkpt>
      <trkpt lat="47.91093" lon="7.05778">
        <ele>1204</ele>
        <time>2018-03-10T18:40:58Z</time>
      </trkpt>
      <trkpt lat="47.91085" lon="7.05706">
        <ele>1209</ele>
        <time>2018-03-10T18:41:58Z</time>
      </trkpt>
      <trkpt lat="47.91082" lon="7.05645">
        <ele>1210</ele>
        <time>2018-03-10T18:42:58Z</time>
      </trkpt>
      <trkpt lat="47.91086" lon="7.05581">
        <ele>1208</ele>
        <time>2018-03-10T18:43:58Z</time>
      </trkpt>
      <trkpt lat="47.91087" lon="7.05556">
        <ele>1207</ele>
        <time>2018-03-10T18:44:58Z</time>
      </trkpt>
      <trkpt lat="47.91085" lon="7.05544">
        <ele>1206</ele>
        <time>2018-03-10T18:45:58Z</time>
      </trkpt>
      <trkpt lat="47.91085" lon="7.05531">
        <ele>1206</ele>
        <time>2018-03-10T18:46:58Z</time>
      </trkpt>
      <trkpt lat="47.91082" lon="7.05487">
        <ele>1204</ele>
        <time>2018-03-10T18:47:58Z</time>
      </trkpt>
      <trkpt lat="47.91079" lon="7.05464">
        <ele>1203</ele>
        <time>2018-03-10T18:48:58Z</time>
      </trkpt>
      <trkpt lat="47.91077" lon="7.05432">
        <ele>1203</ele>
        <time>2018-03-10T18:49:58Z</time>
      </trkpt>
      <trkpt lat="47.91073" lon="7.05293">
        <ele>1187</ele>
        <time>2018-03-10T18:50:58Z</time>
      </trkpt>
      <trkpt lat="47.9107" lon="7.05278">
        <ele>1184</ele>
        <time>2018-03-10T18:51:58Z</time>
      </trkpt>
      <trkpt lat="47.91069" lon="7.05226">
        <ele>1180</ele>
        <time>2018-03-10T18:52:58Z</time>
      </trkpt>
      <trkpt lat="47.91074" lon="7.05139">
        <ele>1180</ele>
        <time>2018-03-10T18:53:58Z</time>
      </trkpt>
      <trkpt lat="47.91075" lon="7.05096">
        <ele>1183</ele>
        <time>2018-03-10T18:54:58Z</time>
      </trkpt>
      <trkpt lat="47.9108" lon="7.05078">
        <ele>1184</ele>
        <time>2018-03-10T18:55:58Z</time>
      </trkpt>
      <trkpt lat="47.91092" lon="7.05058">
        <ele>1183</ele>
        <time>2018-03-10T18:56:58Z</time>
      </trkpt>
      <trkpt lat="47.91108" lon="7.05037">
        <ele>1182</ele>
        <time>2018-03-10T18:57:58Z</time>
      </trkpt>
      <trkpt lat="47.91126" lon="7.05011">
        <ele>1180</ele>
        <time>2018-03-10T18:58:58Z</time>
      </trkpt>
      <trkpt lat="47.91151" lon="7.0498">
        <ele>1175</ele>
        <time>2018-03-10T18:59:58Z</time>
      </trkpt>
      <trkpt lat="47.91174" lon="7.04949">
        <ele>1171</ele>
        <time>2018-03-10T19:00:58Z</time>
      </trkpt>
      <trkpt lat="47.91188" lon="7.04932">
        <ele>1169</ele>
        <time>2018-03-10T19:01:58Z</time>
      </trkpt>
      <trkpt lat="47.91242" lon="7.04853">
        <ele>1172</ele>
        <time>2018-03-10T19:02:58Z</time>
      </trkpt>
      <trkpt lat="47.91254" lon="7.04841">
        <ele>1174</ele>
        <time>2018-03-10T19:03:58Z</time>
      </trkpt>
      <trkpt lat="47.91263" lon="7.04804">
        <ele>1175</ele>
        <time>2018-03-10T19:04:58Z</time>
      </trkpt>
      <trkpt lat="47.9129" lon="7.04712">
        <ele>1179</ele>
        <time>2018-03-10T19:05:58Z</time>
      </trkpt>
      <trkpt lat="47.91299" lon="7.04684">
        <ele>1181</ele>
        <time>2018-03-10T19:06:58Z</time>
      </trkpt>
      <trkpt lat="47.91311" lon="7.04642">
        <ele>1181</ele>
        <time>2018-03-10T19:07:58Z</time>
      </trkpt>
      <trkpt lat="47.91379" lon="7.04502">
        <ele>1182</ele>
        <time>2018-03-10T19:08:58Z</time>
      </trkpt>
      <trkpt lat="47.91395" lon="7.04472">
        <ele>1183</ele>
        <time>2018-03-10T19:09:58Z</time>
      </trkpt>
      <trkpt lat="47.9141" lon="7.04453">
        <ele>1185</ele>
        <time>2018-03-10T19:10:58Z</time>
      </trkpt>
      <trkpt lat="47.91421" lon="7.04443">
        <ele>1186</ele>
        <time>2018-03-10T19:11:58Z</time>
      </trkpt>
      <trkpt lat="47.91432" lon="7.04437">
        <ele>1185</ele>
        <time>2018-03-10T19:12:58Z</time>
      </trkpt>
      <trkpt lat="47.9146" lon="7.04428">
        <ele>1185</ele>
        <time>2018-03-10T19:13:58Z</time>
      </trkpt>
      <trkpt lat="47.9149" lon="7.04427">
        <ele>1187</ele>
        <time>2018-03-10T19:14:58Z</time>
      </trkpt>
      <trkpt lat="47.91529" lon="7.04422">
        <ele>1191</ele>
        <time>2018-03-10T19:15:58Z</time>
      </trkpt>
      <trkpt lat="47.91569" lon="7.04408">
        <ele>1193</ele>
        <time>2018-03-10T19:16:58Z</time>
      </trkpt>
      <trkpt lat="47.91601" lon="7.04386">
        <ele>1193</ele>
        <time>2018-03-10T19:17:58Z</time>
      </trkpt>
      <trkpt lat="47.91628" lon="7.04371">
        <ele>1194</ele>
        <time>2018-03-10T19:18:58Z</time>
      </trkpt>
      <trkpt lat="47.91672" lon="7.0433">
        <ele>1193</ele>
        <time>2018-03-10T19:19:58Z</time>
      </trkpt>
      <trkpt lat="47.9171" lon="7.04275">
        <ele>1189</ele>
        <time>2018-03-10T19:20:58Z</time>
      </trkpt>
      <trkpt lat="47.91736" lon="7.04227">
        <ele>1185</ele>
        <time>2018-03-10T19:21:58Z</time>
      </trkpt>
      <trkpt lat="47.91759" lon="7.04198">
        <ele>1185</ele>
        <time>2018-03-10T19:22:58Z</time>
      </trkpt>
      <trkpt lat="47.91811" lon="7.04146">
        <ele>1185</ele>
        <time>2018-03-10T19:23:58Z</time>
      </trkpt>
      <trkpt lat="47.91912" lon="7.04099">
        <ele>1191</ele>
        <time>2018-03-10T19:24:58Z</time>
      </trkpt>
      <trkpt lat="47.91938" lon="7.04084">
        <ele>1191</ele>
        <time>2018-03-10T19:25:58Z</time>
      </trkpt>
      <trkpt lat="47.91968" lon="7.04058">
        <ele>1189</ele>
        <time>2018-03-10T19:26:58Z</time>
      </trkpt>
      <trkpt lat="47.92008" lon="7.04027">
        <ele>1188</ele>
        <time>2018-03-10T19:27:58Z</time>
      </trkpt>
      <trkpt lat="47.92082" lon="7.03987">
        <ele>1189</ele>
        <time>2018-03-10T19:28:58Z</time>
      </trkpt>
      <trkpt lat="47.92107" lon="7.03971">
        <ele>1189</ele>
        <time>2018-03-10T19:29:58Z</time>
      </trkpt>
      <trkpt lat="47.9212" lon="7.0396">
        <ele>1188</ele>
        <time>2018-03-10T19:30:58Z</time>
      </trkpt>
      <trkpt lat="47.92133" lon="7.03942">
        <ele>1186</ele>
        <time>2018-03-10T19:31:58Z</time>
      </trkpt>
      <trkpt lat="47.92143" lon="7.03919">
        <ele>1182</ele>
        <time>2018-03-10T19:32:58Z</time>
      </trkpt>
      <trkpt lat="47.92156" lon="7.03897">
        <ele>1181</ele>
        <time>2018-03-10T19:33:58Z</time>
      </trkpt>
      <trkpt lat="47.92178" lon="7.03868">
        <ele>1180</ele>
        <time>2018-03-10T19:34:58Z</time>
      </trkpt>
      <trkpt lat="47.92203" lon="7.03833">
        <ele>1179</ele>
        <time>2018-03-10T19:35:58Z</time>
      </trkpt>
      <trkpt lat="47.92217" lon="7.03818">
        <ele>1180</ele>
        <time>2018-03-10T19:36:58Z</time>
      </trkpt>
      <trkpt lat="47.92232" lon="7.03796">
        <ele>1179</ele>
        <time>2018-03-10T19:37:58Z</time>
      </trkpt>
      <trkpt lat="47.92251" lon="7.03752">
        <ele>1176</ele>
        <time>2018-03-10T19:38:58Z</time>
      </trkpt>
      <trkpt lat="47.92269" lon="7.037">
        <ele>1173</ele>
        <time>2018-03-10T19:39:58Z</time>
      </trkpt>
      <trkpt lat="47.92281" lon="7.03671">
        <ele>1172</ele>
        <time>2018-03-10T19:40:58Z</time>
      </trkpt>
      <trkpt lat="47.92292" lon="7.03637">
        <ele>1171</ele>
        <time>2018-03-10T19:41:58Z</time>
      </trkpt>
      <trkpt lat="47.92297" lon="7.03594">
        <ele>1169</ele>
        <time>2018-03-10T19:42:58Z</time>
      </trkpt>
      <trkpt lat="47.92297" lon="7.03548">
        <ele>1168</ele>
        <time>2018-03-10T19:43:58Z</time>
      </trkpt>
      <trkpt lat="47.92294" lon="7.03486">
        <ele>1169</ele>
        <time>2018-03-10T19:44:58Z</time>
      </trkpt>
      <trkpt lat="47.92293" lon="7.03472">
        <ele>1169</ele>
        <time>2018-03-10T19:45:58Z</time>
      </trkpt>
      <trkpt lat="47.92297" lon="7.03473">
        <ele>1170</ele>
        <time>2018-03-10T19:46:58Z</time>
      </trkpt>
      <trkpt lat="47.92292" lon="7.03423">
        <ele>1173</ele>
        <time>2018-03-10T19:47:58Z</time>
      </trkpt>
      <trkpt lat="47.9229" lon="7.03429">
        <ele>1172</ele>
        <time>2018-03-10T19:48:58Z</time>
      </trkpt>
      <trkpt lat="47.92271" lon="7.03419">
        <ele>1171</ele>
        <time>2018-03-10T19:49:58Z</time>
      </trkpt>
      <trkpt lat="47.92272" lon="7.03399">
        <ele>1173</ele>
        <time>2018-03-10T19:50:58Z</time>
      </trkpt>
      <trkpt lat="47.92319" lon="7.03176">
        <ele>1182</ele>
        <time>2018-03-10T19:51:58Z</time>
      </trkpt>
      <trkpt lat="47.9233" lon="7.03135">
        <ele>1184</ele>
        <time>2018-03-10T19:52:58Z</time>
      </trkpt>
      <trkpt lat="47.92347" lon="7.03101">
        <ele>1185</ele>
        <time>2018-03-10T19:53:58Z</time>
      </trkpt>
      <trkpt lat="47.92358" lon="7.03084">
        <ele>1185</ele>
        <time>2018-03-10T19:54:58Z</time>
      </trkpt>
      <trkpt lat="47.92383" lon="7.03057">
        <ele>1186</ele>
        <time>2018-03-10T19:55:58Z</time>
      </trkpt>
      <trkpt lat="47.92432" lon="7.03011">
        <ele>1189</ele>
        <time>2018-03-10T19:56:58Z</time>
      </trkpt>
      <trkpt lat="47.92436" lon="7.02981">
        <ele>1192</ele>
        <time>2018-03-10T19:57:58Z</time>
      </trkpt>
      <trkpt lat="47.92434" lon="7.02969">
        <ele>1193</ele>
        <time>2018-03-10T19:58:58Z</time>
      </trkpt>
      <trkpt lat="47.92427" lon="7.02965">
        <ele>1193</ele>
        <time>2018-03-10T19:59:58Z</time>
      </trkpt>
      <trkpt lat="47.92418" lon="7.02966">
        <ele>1192</ele>
        <time>2018-03-10T20:00:58Z</time>
      </trkpt>
      <trkpt lat="47.92444" lon="7.02939">
        <ele>1196</ele>
        <time>2018-03-10T20:01:58Z</time>
      </trkpt>
      <trkpt lat="47.92462" lon="7.0293">
        <ele>1198</ele>
        <time>2018-03-10T20:02:58Z</time>
      </trkpt>
      <trkpt lat="47.92497" lon="7.02926">
        <ele>1200</ele>
        <time>2018-03-10T20:03:58Z</time>
      </trkpt>
      <trkpt lat="47.92514" lon="7.0292">
        <ele>1201</ele>
        <time>2018-03-10T20:04:58Z</time>
      </trkpt>
      <trkpt lat="47.92529" lon="7.02911">
        <ele>1203</ele>
        <time>2018-03-10T20:05:58Z</time>
      </trkpt>
      <trkpt lat="47.9255" lon="7.02896">
        <ele>1205</ele>
        <time>2018-03-10T20:06:58Z</time>
      </trkpt>
      <trkpt lat="47.92614" lon="7.02843">
        <ele>1212</ele>
        <time>2018-03-10T20:07:58Z</time>
      </trkpt>
      <trkpt lat="47.92653" lon="7.02803">
        <ele>1215</ele>
        <time>2018-03-10T20:08:58Z</time>
      </trkpt>
      <trkpt lat="47.92668" lon="7.02773">
        <ele>1216</ele>
        <time>2018-03-10T20:09:58Z</time>
      </trkpt>
      <trkpt lat="47.92693" lon="7.02696">
        <ele>1216</ele>
        <time>2018-03-10T20:10:58Z</time>
      </trkpt>
      <trkpt lat="47.92706" lon="7.02665">
        <ele>1215</ele>
        <time>2018-03-10T20:11:58Z</time>
      </trkpt>
      <trkpt lat="47.9274" lon="7.02612">
        <ele>1217</ele>
        <time>2018-03-10T20:12:58Z</time>
      </trkpt>
      <trkpt lat="47.92769" lon="7.02558">
        <ele>1217</ele>
        <time>2018-03-10T20:13:58Z</time>
      </trkpt>
      <trkpt lat="47.9278" lon="7.02528">
        <ele>1218</ele>
        <time>2018-03-10T20:14:58Z</time>
      </trkpt>
      <trkpt lat="47.92801" lon="7.02439">
        <ele>1219</ele>
        <time>2018-03-10T20:15:58Z</time>
      </trkpt>
      <trkpt lat="47.92805" lon="7.0241">
        <ele>1219</ele>
        <time>2018-03-10T20:16:58Z</time>
      </trkpt>
      <trkpt lat="47.92804" lon="7.0239">
        <ele>1220</ele>
        <time>2018-03-10T20:17:58Z</time>
      </trkpt>
      <trkpt lat="47.92809" lon="7.02354">
        <ele>1220</ele>
        <time>2018-03-10T20:18:58Z</time>
      </trkpt>
      <trkpt lat="47.92811" lon="7.02285">
        <ele>1219</ele>
        <time>2018-03-10T20:19:58Z</time>
      </trkpt>
      <trkpt lat="47.92809" lon="7.02177">
        <ele>1216</ele>
        <time>2018-03-10T20:20:58Z</time>
      </trkpt>
      <trkpt lat="47.928" lon="7.02108">
        <ele>1216</ele>
        <time>2018-03-10T20:21:58Z</time>
      </trkpt>
      <trkpt lat="47.92775" lon="7.02017">
        <ele>1224</ele>
        <time>2018-03-10T20:22:58Z</time>
      </trkpt>
      <trkpt lat="47.92764" lon="7.01972">
        <ele>1230</ele>
        <time>2018-03-10T20:23:58Z</time>
      </trkpt>
      <trkpt lat="47.92765" lon="7.01962">
        <ele>1231</ele>
        <time>2018-03-10T20:24:58Z</time>
      </trkpt>
      <trkpt lat="47.92769" lon="7.01955">
        <ele>1231</ele>
        <time>2018-03-10T20:25:58Z</time>
      </trkpt>
      <trkpt lat="47.92778" lon="7.0195">
        <ele>1230</ele>
        <time>2018-03-10T20:26:58Z</time>
      </trkpt>
      <trkpt lat="47.92804" lon="7.01944">
        <ele>1228</ele>
        <time>2018-03-10T20:27:58Z</time>
      </trkpt>
      <trkpt lat="47.92831" lon="7.0194">
        <ele>1225</ele>
        <time>2018-03-10T20:28:58Z</time>
      </trkpt>
      <trkpt lat="47.92855" lon="7.01934">
        <ele>1225</ele>
        <time>2018-03-10T20:29:58Z</time>
      </trkpt>
      <trkpt lat="47.92872" lon="7.01936">
        <ele>1225</ele>
        <time>2018-03-10T20:30:58Z</time>
      </trkpt>
      <trkpt lat="47.92896" lon="7.01948">
        <ele>1223</ele>
        <time>2018-03-10T20:31:58Z</time>
      </trkpt>
      <trkpt lat="47.9292" lon="7.01956">
        <ele>1221</ele>
        <time>2018-03-10T20:32:58Z</time>
      </trkpt>
      <trkpt lat="47.92933" lon="7.01957">
        <ele>1220</ele>
        <time>2018-03-10T20:33:58Z</time>
      </trkpt>
      <trkpt lat="47.92947" lon="7.01952">
        <ele>1220</ele>
        <time>2018-03-10T20:34:58Z</time>
      </trkpt>
      <trkpt lat="47.92969" lon="7.01945">
        <ele>1220</ele>
        <time>2018-03-10T20:35:58Z</time>
      </trkpt>
      <trkpt lat="47.92994" lon="7.01942">
        <ele>1218</ele>
        <time>2018-03-10T20:36:58Z</time>
      </trkpt>
      <trkpt lat="47.93049" lon="7.01938">
        <ele>1216</ele>
        <time>2018-03-10T20:37:58Z</time>
      </trkpt>
      <trkpt lat="47.93124" lon="7.01943">
        <ele>1211</ele>
        <time>2018-03-10T20:38:58Z</time>
      </trkpt>
      <trkpt lat="47.93146" lon="7.01948">
        <ele>1209</ele>
        <time>2018-03-10T20:39:58Z</time>
      </trkpt>
      <trkpt lat="47.93168" lon="7.01955">
        <ele>1208</ele>
        <time>2018-03-10T20:40:58Z</time>
      </trkpt>
      <trkpt lat="47.93183" lon="7.01959">
        <ele>1208</ele>
        <time>2018-03-10T20:41:58Z</time>
      </trkpt>
      <trkpt lat="47.93189" lon="7.01963">
        <ele>1208</ele>
        <time>2018-03-10T20:42:58Z</time>
      </trkpt>
      <trkpt lat="47.93194" lon="7.01959">
        <ele>1208</ele>
        <time>2018-03-10T20:43:58Z</time>
      </trkpt>
      <trkpt lat="47.93199" lon="7.01975">
        <ele>1208</ele>
        <time>2018-03-10T20:44:58Z</time>
      </trkpt>
      <trkpt lat="47.9321" lon="7.01975">
        <ele>1208</ele>
        <time>2018-03-10T20:45:58Z</time>
      </trkpt>
      <trkpt lat="47.93216" lon="7.01971">
        <ele>1208</ele>
        <time>2018-03-10T20:46:58Z</time>
      </trkpt>
      <trkpt lat="47.93257" lon="7.01972">
        <ele>1208</ele>
        <time>2018-03-10T20:47:58Z</time>
      </trkpt>
      <trkpt lat="47.93313" lon="7.01969">
        <ele>1209</ele>
        <time>2018-03-10T20:48:58Z</time>
      </trkpt>
      <trkpt lat="47.93326" lon="7.0197">
        <ele>1210</ele>
        <time>2018-03-10T20:49:58Z</time>
      </trkpt>
      <trkpt lat="47.93347" lon="7.01977">
        <ele>1211</ele>
        <time>2018-03-10T20:50:58Z</time>
      </trkpt>
      <trkpt lat="47.93389" lon="7.01987">
        <ele>1212</ele>
        <time>2018-03-10T20:51:58Z</time>
      </trkpt>
      <trkpt lat="47.93412" lon="7.01996">
        <ele>1214</ele>
        <time>2018-03-10T20:52:58Z</time>
      </trkpt>
      <trkpt lat="47.93444" lon="7.02015">
        <ele>1212</ele>
        <time>2018-03-10T20:53:58Z</time>
      </trkpt>
      <trkpt lat="47.93476" lon="7.02051">
        <ele>1211</ele>
        <time>2018-03-10T20:54:58Z</time>
      </trkpt>
      <trkpt lat="47.93496" lon="7.02069">
        <ele>1211</ele>
        <time>2018-03-10T20:55:58Z</time>
      </trkpt>
      <trkpt lat="47.93504" lon="7.02065">
        <ele>1210</ele>
        <time>2018-03-10T20:56:58Z</time>
      </trkpt>
      <trkpt lat="47.93511" lon="7.02059">
        <ele>1210</ele>
        <time>2018-03-10T20:57:58Z</time>
      </trkpt>
      <trkpt lat="47.93516" lon="7.02056">
        <ele>1210</ele>
        <time>2018-03-10T20:58:58Z</time>
      </trkpt>
      <trkpt lat="47.93523" lon="7.02058">
        <ele>1209</ele>
        <time>2018-03-10T20:59:58Z</time>
      </trkpt>
      <trkpt lat="47.9353" lon="7.02061">
        <ele>1209</ele>
        <time>2018-03-10T21:00:58Z</time>
      </trkpt>
      <trkpt lat="47.93555" lon="7.02086">
        <ele>1209</ele>
        <time>2018-03-10T21:01:58Z</time>
      </trkpt>
      <trkpt lat="47.93596" lon="7.02129">
        <ele>1209</ele>
        <time>2018-03-10T21:02:58Z</time>
      </trkpt>
      <trkpt lat="47.93642" lon="7.02185">
        <ele>1211</ele>
        <time>2018-03-10T21:03:58Z</time>
      </trkpt>
      <trkpt lat="47.93657" lon="7.02195">
        <ele>1211</ele>
        <time>2018-03-10T21:04:58Z</time>
      </trkpt>
      <trkpt lat="47.9375" lon="7.02238">
        <ele>1206</ele>
        <time>2018-03-10T21:05:58Z</time>
      </trkpt>
      <trkpt lat="47.93864" lon="7.02287">
        <ele>1211</ele>
        <time>2018-03-10T21:06:58Z</time>
      </trkpt>
      <trkpt lat="47.93952" lon="7.02315">
        <ele>1216</ele>
        <time>2018-03-10T21:07:58Z</time>
      </trkpt>
      <trkpt lat="47.94008" lon="7.02326">
        <ele>1219</ele>
        <time>2018-03-10T21:08:58Z</time>
      </trkpt>
      <trkpt lat="47.94084" lon="7.02332">
        <ele>1216</ele>
        <time>2018-03-10T21:09:58Z</time>
      </trkpt>
      <trkpt lat="47.94136" lon="7.02343">
        <ele>1215</ele>
        <time>2018-03-10T21:10:58Z</time>
      </trkpt>
      <trkpt lat="47.94233" lon="7.02347">
        <ele>1224</ele>
        <time>2018-03-10T21:11:58Z</time>
      </trkpt>
      <trkpt lat="47.94254" lon="7.02352">
        <ele>1228</ele>
        <time>2018-03-10T21:12:58Z</time>
      </trkpt>
      <trkpt lat="47.94265" lon="7.02351">
        <ele>1230</ele>
        <time>2018-03-10T21:13:58Z</time>
      </trkpt>
      <trkpt lat="47.94274" lon="7.02342">
        <ele>1231</ele>
        <time>2018-03-10T21:14:58Z</time>
      </trkpt>
      <trkpt lat="47.94283" lon="7.02334">
        <ele>1233</ele>
        <time>2018-03-10T21:15:58Z</time>
      </trkpt>
      <trkpt lat="47.94316" lon="7.02332">
        <ele>1240</ele>
        <time>2018-03-10T21:16:58Z</time>
      </trkpt>
      <trkpt lat="47.94363" lon="7.02328">
        <ele>1246</ele>
        <time>2018-03-10T21:17:58Z</time>
      </trkpt>
      <trkpt lat="47.94378" lon="7.02328">
        <ele>1248</ele>
        <time>2018-03-10T21:18:58Z</time>
      </trkpt>
      <trkpt lat="47.9439" lon="7.02332">
        <ele>1249</ele>
        <time>2018-03-10T21:19:58Z</time>
      </trkpt>
      <trkpt lat="47.944" lon="7.02329">
        <ele>1250</ele>
        <time>2018-03-10T21:20:58Z</time>
      </trkpt>
      <trkpt lat="47.94404" lon="7.02333">
        <ele>1251</ele>
        <time>2018-03-10T21:21:58Z</time>
      </trkpt>
      <trkpt lat="47.9441" lon="7.02342">
        <ele>1251</ele>
        <time>2018-03-10T21:22:58Z</time>
      </trkpt>
      <trkpt lat="47.94419" lon="7.02344">
        <ele>1252</ele>
        <time>2018-03-10T21:23:58Z</time>
      </trkpt>
      <trkpt lat="47.94432" lon="7.02341">
        <ele>1253</ele>
        <time>2018-03-10T21:24:58Z</time>
      </trkpt>
      <trkpt lat="47.94443" lon="7.02335">
        <ele>1254</ele>
        <time>2018-03-10T21:25:58Z</time>
      </trkpt>
      <trkpt lat="47.94456" lon="7.02324">
        <ele>1255</ele>
        <time>2018-03-10T21:26:58Z</time>
      </trkpt>
      <trkpt lat="47.94462" lon="7.0232">
        <ele>1256</ele>
        <time>2018-03-10T21:27:58Z</time>
      </trkpt>
      <trkpt lat="47.94471" lon="7.02316">
        <ele>1257</ele>
        <time>2018-03-10T21:28:58Z</time>
      </trkpt>
      <trkpt lat="47.94479" lon="7.02318">
        <ele>1257</ele>
        <time>2018-03-10T21:29:58Z</time>
      </trkpt>
      <trkpt lat="47.94491" lon="7.02332">
        <ele>1258</ele>
        <time>2018-03-10T21:30:58Z</time>
      </trkpt>
      <trkpt lat="47.94498" lon="7.02331">
        <ele>1259</ele>
        <time>2018-03-10T21:31:58Z</time>
      </trkpt>
      <trkpt lat="47.94515" lon="7.02322">
        <ele>1259</ele>
        <time>2018-03-10T21:32:58Z</time>
      </trkpt>
      <trkpt lat="47.94529" lon="7.02312">
        <ele>1259</ele>
        <time>2018-03-10T21:33:58Z</time>
      </trkpt>
      <trkpt lat="47.94543" lon="7.0231">
        <ele>1260</ele>
        <time>2018-03-10T21:34:58Z</time>
      </trkpt>
      <trkpt lat="47.94553" lon="7.02314">
        <ele>1260</ele>
        <time>2018-03-10T21:35:58Z</time>
      </trkpt>
      <trkpt lat="47.94572" lon="7.02312">
        <ele>1260</ele>
        <time>2018-03-10T21:36:58Z</time>
      </trkpt>
      <trkpt lat="47.94582" lon="7.02313">
        <ele>1261</ele>
        <time>2018-03-10T21:37:58Z</time>
      </trkpt>
      <trkpt lat="47.94593" lon="7.02316">
        <ele>1261</ele>
        <time>2018-03-10T21:38:58Z</time>
      </trkpt>
      <trkpt lat="47.94599" lon="7.02315">
        <ele>1261</ele>
        <time>2018-03-10T21:39:58Z</time>
      </trkpt>
      <trkpt lat="47.94602" lon="7.0231">
        <ele>1261</ele>
        <time>2018-03-10T21:40:58Z</time>
      </trkpt>
      <trkpt lat="47.94608" lon="7.02305">
        <ele>1261</ele>
        <time>2018-03-10T21:41:58Z</time>
      </trkpt>
      <trkpt lat="47.94628" lon="7.02298">
        <ele>1260</ele>
        <time>2018-03-10T21:42:58Z</time>
      </trkpt>
      <trkpt lat="47.94643" lon="7.02285">
        <ele>1259</ele>
        <time>2018-03-10T21:43:58Z</time>
      </trkpt>
      <trkpt lat="47.94684" lon="7.02222">
        <ele>1249</ele>
        <time>2018-03-10T21:44:58Z</time>
      </trkpt>
      <trkpt lat="47.94719" lon="7.02183">
        <ele>1243</ele>
        <time>2018-03-10T21:45:58Z</time>
      </trkpt>
      <trkpt lat="47.94798" lon="7.02107">
        <ele>1224</ele>
        <time>2018-03-10T21:46:58Z</time>
      </trkpt>
      <trkpt lat="47.94822" lon="7.02087">
        <ele>1220</ele>
        <time>2018-03-10T21:47:58Z</time>
      </trkpt>
      <trkpt lat="47.95065" lon="7.01978">
        <ele>1191</ele>
        <time>2018-03-10T21:48:58Z</time>
      </trkpt>
      <trkpt lat="47.95082" lon="7.01974">
        <ele>1189</ele>
        <time>2018-03-10T21:49:58Z</time>
      </trkpt>
      <trkpt lat="47.95102" lon="7.0197">
        <ele>1187</ele>
        <time>2018-03-10T21:50:58Z</time>
      </trkpt>
      <trkpt lat="47.95116" lon="7.01964">
        <ele>1186</ele>
        <time>2018-03-10T21:51:58Z</time>
      </trkpt>
      <trkpt lat="47.95134" lon="7.01961">
        <ele>1186</ele>
        <time>2018-03-10T21:52:58Z</time>
      </trkpt>
      <trkpt lat="47.95141" lon="7.01959">
        <ele>1185</ele>
        <time>2018-03-10T21:53:58Z</time>
      </trkpt>
      <trkpt lat="47.95145" lon="7.01964">
        <ele>1186</ele>
        <time>2018-03-10T21:54:58Z</time>
      </trkpt>
      <trkpt lat="47.95154" lon="7.0197">
        <ele>1186</ele>
        <time>2018-03-10T21:55:58Z</time>
      </trkpt>
      <trkpt lat="47.95166" lon="7.01974">
        <ele>1186</ele>
        <time>2018-03-10T21:56:58Z</time>
      </trkpt>
      <trkpt lat="47.95186" lon="7.01982">
        <ele>1184</ele>
        <time>2018-03-10T21:57:58Z</time>
      </trkpt>
      <trkpt lat="47.95186" lon="7.02019">
        <ele>1187</ele>
        <time>2018-03-10T21:58:58Z</time>
      </trkpt>
      <trkpt lat="47.95193" lon="7.02039">
        <ele>1187</ele>
        <time>2018-03-10T21:59:58Z</time>
      </trkpt>
      <trkpt lat="47.95201" lon="7.02067">
        <ele>1188</ele>
        <time>2018-03-10T22:00:58Z</time>
      </trkpt>
      <trkpt lat="47.95206" lon="7.02094">
        <ele>1188</ele>
        <time>2018-03-10T22:01:58Z</time>
      </trkpt>
      <trkpt lat="47.95211" lon="7.02108">
        <ele>1188</ele>
        <time>2018-03-10T22:02:58Z</time>
      </trkpt>
      <trkpt lat="47.95201" lon="7.02174">
        <ele>1193</ele>
        <time>2018-03-10T22:03:58Z</time>
      </trkpt>
      <trkpt lat="47.95198" lon="7.02203">
        <ele>1196</ele>
        <time>2018-03-10T22:04:58Z</time>
      </trkpt>
      <trkpt lat="47.95189" lon="7.02272">
        <ele>1203</ele>
        <time>2018-03-10T22:05:58Z</time>
      </trkpt>
      <trkpt lat="47.95182" lon="7.02315">
        <ele>1206</ele>
        <time>2018-03-10T22:06:58Z</time>
      </trkpt>
      <trkpt lat="47.95172" lon="7.02388">
        <ele>1213</ele>
        <time>2018-03-10T22:07:58Z</time>
      </trkpt>
      <trkpt lat="47.95169" lon="7.02431">
        <ele>1218</ele>
        <time>2018-03-10T22:08:58Z</time>
      </trkpt>
      <trkpt lat="47.95164" lon="7.02482">
        <ele>1225</ele>
        <time>2018-03-10T22:09:58Z</time>
      </trkpt>
      <trkpt lat="47.95156" lon="7.02534">
        <ele>1230</ele>
        <time>2018-03-10T22:10:58Z</time>
      </trkpt>
      <trkpt lat="47.95151" lon="7.02609">
        <ele>1234</ele>
        <time>2018-03-10T22:11:58Z</time>
      </trkpt>
      <trkpt lat="47.95146" lon="7.02684">
        <ele>1238</ele>
        <time>2018-03-10T22:12:58Z</time>
      </trkpt>
      <trkpt lat="47.95132" lon="7.02751">
        <ele>1242</ele>
        <time>2018-03-10T22:13:58Z</time>
      </trkpt>
      <trkpt lat="47.95128" lon="7.02839">
        <ele>1245</ele>
        <time>2018-03-10T22:14:58Z</time>
      </trkpt>
      <trkpt lat="47.95123" lon="7.02873">
        <ele>1248</ele>
        <time>2018-03-10T22:15:58Z</time>
      </trkpt>
      <trkpt lat="47.95126" lon="7.02957">
        <ele>1252</ele>
        <time>2018-03-10T22:16:58Z</time>
      </trkpt>
      <trkpt lat="47.95128" lon="7.03012">
        <ele>1253</ele>
        <time>2018-03-10T22:17:58Z</time>
      </trkpt>
      <trkpt lat="47.95143" lon="7.03079">
        <ele>1251</ele>
        <time>2018-03-10T22:18:58Z</time>
      </trkpt>
      <trkpt lat="47.95145" lon="7.03111">
        <ele>1252</ele>
        <time>2018-03-10T22:19:58Z</time>
      </trkpt>
      <trkpt lat="47.95148" lon="7.03163">
        <ele>1252</ele>
        <time>2018-03-10T22:20:58Z</time>
      </trkpt>
      <trkpt lat="47.95151" lon="7.03208">
        <ele>1253</ele>
        <time>2018-03-10T22:21:58Z</time>
      </trkpt>
      <trkpt lat="47.95158" lon="7.03253">
        <ele>1253</ele>
        <time>2018-03-10T22:22:58Z</time>
      </trkpt>
      <trkpt lat="47.95168" lon="7.03276">
        <ele>1252</ele>
        <time>2018-03-10T22:23:58Z</time>
      </trkpt>
      <trkpt lat="47.95169" lon="7.03311">
        <ele>1251</ele>
        <time>2018-03-10T22:24:58Z</time>
      </trkpt>
      <trkpt lat="47.9519" lon="7.0336">
        <ele>1248</ele>
        <time>2018-03-10T22:25:58Z</time>
      </trkpt>
      <trkpt lat="47.95185" lon="7.03389">
        <ele>1248</ele>
        <time>2018-03-10T22:26:58Z</time>
      </trkpt>
      <trkpt lat="47.95175" lon="7.03438">
        <ele>1248</ele>
        <time>2018-03-10T22:27:58Z</time>
      </trkpt>
      <trkpt lat="47.95156" lon="7.03553">
        <ele>1250</ele>
        <time>2018-03-10T22:28:58Z</time>
      </trkpt>
      <trkpt lat="47.9514" lon="7.03598">
        <ele>1249</ele>
        <time>2018-03-10T22:29:58Z</time>
      </trkpt>
      <trkpt lat="47.95124" lon="7.03628">
        <ele>1247</ele>
        <time>2018-03-10T22:30:58Z</time>
      </trkpt>
      <trkpt lat="47.95106" lon="7.03655">
        <ele>1245</ele>
        <time>2018-03-10T22:31:58Z</time>
      </trkpt>
      <trkpt lat="47.95062" lon="7.03742">
        <ele>1246</ele>
        <time>2018-03-10T22:32:58Z</time>
      </trkpt>
      <trkpt lat="47.95021" lon="7.03813">
        <ele>1245</ele>
        <time>2018-03-10T22:33:58Z</time>
      </trkpt>
      <trkpt lat="47.94994" lon="7.03872">
        <ele>1244</ele>
        <time>2018-03-10T22:34:58Z</time>
      </trkpt>
      <trkpt lat="47.94932" lon="7.04015">
        <ele>1235</ele>
        <time>2018-03-10T22:35:58Z</time>
      </trkpt>
      <trkpt lat="47.94901" lon="7.04111">
        <ele>1230</ele>
        <time>2018-03-10T22:36:58Z</time>
      </trkpt>
      <trkpt lat="47.94883" lon="7.04194">
        <ele>1224</ele>
        <time>2018-03-10T22:37:58Z</time>
      </trkpt>
      <trkpt lat="47.94835" lon="7.04394">
        <ele>1214</ele>
        <time>2018-03-10T22:38:58Z</time>
      </trkpt>
      <trkpt lat="47.94829" lon="7.04429">
        <ele>1211</ele>
        <time>2018-03-10T22:39:58Z</time>
      </trkpt>
      <trkpt lat="47.94824" lon="7.04459">
        <ele>1209</ele>
        <time>2018-03-10T22:40:58Z</time>
      </trkpt>
      <trkpt lat="47.94817" lon="7.04512">
        <ele>1205</ele>
        <time>2018-03-10T22:41:58Z</time>
      </trkpt>
      <trkpt lat="47.94811" lon="7.04566">
        <ele>1204</ele>
        <time>2018-03-10T22:42:58Z</time>
      </trkpt>
      <trkpt lat="47.94803" lon="7.0462">
        <ele>1206</ele>
        <time>2018-03-10T22:43:58Z</time>
      </trkpt>
      <trkpt lat="47.94792" lon="7.04707">
        <ele>1217</ele>
        <time>2018-03-10T22:44:58Z</time>
      </trkpt>
      <trkpt lat="47.9479" lon="7.0476">
        <ele>1226</ele>
        <time>2018-03-10T22:45:58Z</time>
      </trkpt>
      <trkpt lat="47.94788" lon="7.04823">
        <ele>1239</ele>
        <time>2018-03-10T22:46:58Z</time>
      </trkpt>
      <trkpt lat="47.94784" lon="7.04876">
        <ele>1251</ele>
        <time>2018-03-10T22:47:58Z</time>
      </trkpt>
      <trkpt lat="47.94781" lon="7.04952">
        <ele>1264</ele>
        <time>2018-03-10T22:48:58Z</time>
      </trkpt>
      <trkpt lat="47.94777" lon="7.05038">
        <ele>1273</ele>
        <time>2018-03-10T22:49:58Z</time>
      </trkpt>
      <trkpt lat="47.94772" lon="7.05147">
        <ele>1284</ele>
        <time>2018-03-10T22:50:58Z</time>
      </trkpt>
      <trkpt lat="47.9477" lon="7.05194">
        <ele>1288</ele>
        <time>2018-03-10T22:51:58Z</time>
      </trkpt>
      <trkpt lat="47.94771" lon="7.05251">
        <ele>1293</ele>
        <time>2018-03-10T22:52:58Z</time>
      </trkpt>
      <trkpt lat="47.9477" lon="7.05301">
        <ele>1297</ele>
        <time>2018-03-10T22:53:58Z</time>
      </trkpt>
      <trkpt lat="47.94771" lon="7.05351">
        <ele>1300</ele>
        <time>2018-03-10T22:54:58Z</time>
      </trkpt>
      <trkpt lat="47.94776" lon="7.05389">
        <ele>1300</ele>
        <time>2018-03-10T22:55:58Z</time>
      </trkpt>
      <trkpt lat="47.94785" lon="7.05411">
        <ele>1301</ele>
        <time>2018-03-10T22:56:58Z</time>
      </trkpt>
      <trkpt lat="47.94799" lon="7.05433">
        <ele>1300</ele>
        <time>2018-03-10T22:57:58Z</time>
      </trkpt>
      <trkpt lat="47.94818" lon="7.05445">
        <ele>1300</ele>
        <time>2018-03-10T22:58:58Z</time>
      </trkpt>
      <trkpt lat="47.94829" lon="7.05455">
        <ele>1300</ele>
        <time>2018-03-10T22:59:58Z</time>
      </trkpt>
      <trkpt lat="47.94844" lon="7.05465">
        <ele>1301</ele>
        <time>2018-03-10T23:00:58Z</time>
      </trkpt>
      <trkpt lat="47.94862" lon="7.05475">
        <ele>1302</ele>
        <time>2018-03-10T23:01:58Z</time>
      </trkpt>
      <trkpt lat="47.94872" lon="7.05483">
        <ele>1303</ele>
        <time>2018-03-10T23:02:58Z</time>
      </trkpt>
      <trkpt lat="47.94892" lon="7.05493">
        <ele>1306</ele>
        <time>2018-03-10T23:03:58Z</time>
      </trkpt>
      <trkpt lat="47.94912" lon="7.05502">
        <ele>1309</ele>
        <time>2018-03-10T23:04:58Z</time>
      </trkpt>
      <trkpt lat="47.94931" lon="7.05525">
        <ele>1310</ele>
        <time>2018-03-10T23:05:58Z</time>
      </trkpt>
      <trkpt lat="47.94944" lon="7.05543">
        <ele>1311</ele>
        <time>2018-03-10T23:06:58Z</time>
      </trkpt>
      <trkpt lat="47.94959" lon="7.0557">
        <ele>1313</ele>
        <time>2018-03-10T23:07:58Z</time>
      </trkpt>
      <trkpt lat="47.9497" lon="7.0559">
        <ele>1313</ele>
        <time>2018-03-10T23:08:58Z</time>
      </trkpt>
      <trkpt lat="47.94974" lon="7.05606">
        <ele>1313</ele>
        <time>2018-03-10T23:09:58Z</time>
      </trkpt>
      <trkpt lat="47.94983" lon="7.05639">
        <ele>1312</ele>
        <time>2018-03-10T23:10:58Z</time>
      </trkpt>
      <trkpt lat="47.94995" lon="7.05675">
        <ele>1313</ele>
        <time>2018-03-10T23:11:58Z</time>
      </trkpt>
      <trkpt lat="47.95002" lon="7.05718">
        <ele>1313</ele>
        <time>2018-03-10T23:12:58Z</time>
      </trkpt>
      <trkpt lat="47.95005" lon="7.05748">
        <ele>1313</ele>
        <time>2018-03-10T23:13:58Z</time>
      </trkpt>
      <trkpt lat="47.95023" lon="7.05909">
        <ele>1292</ele>
        <time>2018-03-10T23:14:58Z</time>
      </trkpt>
      <trkpt lat="47.95031" lon="7.06049">
        <ele>1265</ele>
        <time>2018-03-10T23:15:58Z</time>
      </trkpt>
      <trkpt lat="47.95032" lon="7.06178">
        <ele>1248</ele>
        <time>2018-03-10T23:16:58Z</time>
      </trkpt>
      <trkpt lat="47.9504" lon="7.06275">
        <ele>1227</ele>
        <time>2018-03-10T23:17:58Z</time>
      </trkpt>
      <trkpt lat="47.95045" lon="7.06358">
        <ele>1208</ele>
        <time>2018-03-10T23:18:58Z</time>
      </trkpt>
      <trkpt lat="47.95048" lon="7.06434">
        <ele>1195</ele>
        <time>2018-03-10T23:19:58Z</time>
      </trkpt>
      <trkpt lat="47.95049" lon="7.06457">
        <ele>1192</ele>
        <time>2018-03-10T23:20:58Z</time>
      </trkpt>
      <trkpt lat="47.95047" lon="7.06481">
        <ele>1190</ele>
        <time>2018-03-10T23:21:58Z</time>
      </trkpt>
      <trkpt lat="47.95042" lon="7.06497">
        <ele>1189</ele>
        <time>2018-03-10T23:22:58Z</time>
      </trkpt>
      <trkpt lat="47.95034" lon="7.0651">
        <ele>1191</ele>
        <time>2018-03-10T23:23:58Z</time>
      </trkpt>
      <trkpt lat="47.95036" lon="7.06546">
        <ele>1192</ele>
        <time>2018-03-10T23:24:58Z</time>
      </trkpt>
      <trkpt lat="47.95051" lon="7.06613">
        <ele>1196</ele>
        <time>2018-03-10T23:25:58Z</time>
      </trkpt>
      <trkpt lat="47.95066" lon="7.06727">
        <ele>1210</ele>
        <time>2018-03-10T23:26:58Z</time>
      </trkpt>
      <trkpt lat="47.95069" lon="7.06843">
        <ele>1234</ele>
        <time>2018-03-10T23:27:58Z</time>
      </trkpt>
      <trkpt lat="47.95136" lon="7.0703">
        <ele>1265</ele>
        <time>2018-03-10T23:28:58Z</time>
      </trkpt>
      <trkpt lat="47.95142" lon="7.07102">
        <ele>1271</ele>
        <time>2018-03-10T23:29:58Z</time>
      </trkpt>
      <trkpt lat="47.95149" lon="7.07152">
        <ele>1270</ele>
        <time>2018-03-10T23:30:58Z</time>
      </trkpt>
      <trkpt lat="47.95158" lon="7.07178">
        <ele>1269</ele>
        <time>2018-03-10T23:31:58Z</time>
      </trkpt>
      <trkpt lat="47.95203" lon="7.07244">
        <ele>1254</ele>
        <time>2018-03-10T23:32:58Z</time>
      </trkpt>
      <trkpt lat="47.95238" lon="7.0734">
        <ele>1247</ele>
        <time>2018-03-10T23:33:58Z</time>
      </trkpt>
      <trkpt lat="47.9526" lon="7.07439">
        <ele>1243</ele>
        <time>2018-03-10T23:34:58Z</time>
      </trkpt>
      <trkpt lat="47.95284" lon="7.07542">
        <ele>1240</ele>
        <time>2018-03-10T23:35:58Z</time>
      </trkpt>
      <trkpt lat="47.9531" lon="7.07668">
        <ele>1245</ele>
        <time>2018-03-10T23:36:58Z</time>
      </trkpt>
      <trkpt lat="47.95334" lon="7.07789">
        <ele>1251</ele>
        <time>2018-03-10T23:37:58Z</time>
      </trkpt>
      <trkpt lat="47.95371" lon="7.07883">
        <ele>1249</ele>
        <time>2018-03-10T23:38:58Z</time>
      </trkpt>
      <trkpt lat="47.95433" lon="7.07951">
        <ele>1258</ele>
        <time>2018-03-10T23:39:58Z</time>
      </trkpt>
      <trkpt lat="47.95487" lon="7.08007">
        <ele>1269</ele>
        <time>2018-03-10T23:40:58Z</time>
      </trkpt>
      <trkpt lat="47.95532" lon="7.0807">
        <ele>1278</ele>
        <time>2018-03-10T23:41:58Z</time>
      </trkpt>
      <trkpt lat="47.95556" lon="7.08095">
        <ele>1281</ele>
        <time>2018-03-10T23:42:58Z</time>
      </trkpt>
      <trkpt lat="47.95588" lon="7.08119">
        <ele>1281</ele>
        <time>2018-03-10T23:43:58Z</time>
      </trkpt>
      <trkpt lat="47.95647" lon="7.08092">
        <ele>1279</ele>
        <time>2018-03-10T23:44:58Z</time>
      </trkpt>
      <trkpt lat="47.95718" lon="7.08055">
        <ele>1277</ele>
        <time>2018-03-10T23:45:58Z</time>
      </trkpt>
      <trkpt lat="47.96022" lon="7.0828">
        <ele>1249</ele>
        <time>2018-03-10T23:46:58Z</time>
      </trkpt>
      <trkpt lat="47.96094" lon="7.08348">
        <ele>1248</ele>
        <time>2018-03-10T23:47:58Z</time>
      </trkpt>
      <trkpt lat="47.96122" lon="7.08356">
        <ele>1246</ele>
        <time>2018-03-10T23:48:58Z</time>
      </trkpt>
      <trkpt lat="47.96143" lon="7.08376">
        <ele>1245</ele>
        <time>2018-03-10T23:49:58Z</time>
      </trkpt>
      <trkpt lat="47.9619" lon="7.08429">
        <ele>1246</ele>
        <time>2018-03-10T23:50:58Z</time>
      </trkpt>
      <trkpt lat="47.96207" lon="7.08456">
        <ele>1246</ele>
        <time>2018-03-10T23:51:58Z</time>
      </trkpt>
      <trkpt lat="47.96221" lon="7.08476">
        <ele>1247</ele>
        <time>2018-03-10T23:52:58Z</time>
      </trkpt>
      <trkpt lat="47.96246" lon="7.08533">
        <ele>1250</ele>
        <time>2018-03-10T23:53:58Z</time>
      </trkpt>
      <trkpt lat="47.96257" lon="7.08573">
        <ele>1250</ele>
        <time>2018-03-10T23:54:58Z</time>
      </trkpt>
      <trkpt lat="47.9628" lon="7.0862">
        <ele>1249</ele>
        <time>2018-03-10T23:55:58Z</time>
      </trkpt>
      <trkpt lat="47.96307" lon="7.08657">
        <ele>1248</ele>
        <time>2018-03-10T23:56:58Z</time>
      </trkpt>
      <trkpt lat="47.9634" lon="7.08698">
        <ele>1247</ele>
        <time>2018-03-10T23:57:58Z</time>
      </trkpt>
      <trkpt lat="47.96379" lon="7.08751">
        <ele>1245</ele>
        <time>2018-03-10T23:58:58Z</time>
      </trkpt>
      <trkpt lat="47.96396" lon="7.08778">
        <ele>1243</ele>
        <time>2018-03-10T23:59:58Z</time>
      </trkpt>
      <trkpt lat="47.96414" lon="7.08798">
        <ele>1243</ele>
        <time>2018-03-11T00:00:58Z</time>
      </trkpt>
      <trkpt lat="47.96438" lon="7.08836">
        <ele>1238</ele>
        <time>2018-03-11T00:01:58Z</time>
      </trkpt>
      <trkpt lat="47.96451" lon="7.08872">
        <ele>1232</ele>
        <time>2018-03-11T00:02:58Z</time>
      </trkpt>
      <trkpt lat="47.96458" lon="7.08881">
        <ele>1230</ele>
        <time>2018-03-11T00:03:58Z</time>
      </trkpt>
      <trkpt lat="47.96463" lon="7.08883">
        <ele>1230</ele>
        <time>2018-03-11T00:04:58Z</time>
      </trkpt>
      <trkpt lat="47.96483" lon="7.08894">
        <ele>1229</ele>
        <time>2018-03-11T00:05:58Z</time>
      </trkpt>
      <trkpt lat="47.96513" lon="7.08906">
        <ele>1227</ele>
        <time>2018-03-11T00:06:58Z</time>
      </trkpt>
      <trkpt lat="47.96529" lon="7.08914">
        <ele>1224</ele>
        <time>2018-03-11T00:07:58Z</time>
      </trkpt>
      <trkpt lat="47.9654" lon="7.08935">
        <ele>1221</ele>
        <time>2018-03-11T00:08:58Z</time>
      </trkpt>
      <trkpt lat="47.96549" lon="7.08945">
        <ele>1219</ele>
        <time>2018-03-11T00:09:58Z</time>
      </trkpt>
      <trkpt lat="47.96553" lon="7.08952">
        <ele>1219</ele>
        <time>2018-03-11T00:10:58Z</time>
      </trkpt>
      <trkpt lat="47.96557" lon="7.08965">
        <ele>1217</ele>
        <time>2018-03-11T00:11:58Z</time>
      </trkpt>
      <trkpt lat="47.96563" lon="7.08993">
        <ele>1215</ele>
        <time>2018-03-11T00:12:58Z</time>
      </trkpt>
      <trkpt lat="47.9657" lon="7.09017">
        <ele>1212</ele>
        <time>2018-03-11T00:13:58Z</time>
      </trkpt>
      <trkpt lat="47.96583" lon="7.09052">
        <ele>1209</ele>
        <time>2018-03-11T00:14:58Z</time>
      </trkpt>
      <trkpt lat="47.96602" lon="7.09118">
        <ele>1199</ele>
        <time>2018-03-11T00:15:58Z</time>
      </trkpt>
      <trkpt lat="47.96611" lon="7.09147">
        <ele>1194</ele>
        <time>2018-03-11T00:16:58Z</time>
      </trkpt>
      <trkpt lat="47.96618" lon="7.09165">
        <ele>1191</ele>
        <time>2018-03-11T00:17:58Z</time>
      </trkpt>
      <trkpt lat="47.96626" lon="7.09179">
        <ele>1188</ele>
        <time>2018-03-11T00:18:58Z</time>
      </trkpt>
      <trkpt lat="47.96641" lon="7.09214">
        <ele>1182</ele>
        <time>2018-03-11T00:19:58Z</time>
      </trkpt>
      <trkpt lat="47.9665" lon="7.0924">
        <ele>1179</ele>
        <time>2018-03-11T00:20:58Z</time>
      </trkpt>
      <trkpt lat="47.96657" lon="7.09249">
        <ele>1178</ele>
        <time>2018-03-11T00:21:58Z</time>
      </trkpt>
      <trkpt lat="47.96664" lon="7.09261">
        <ele>1176</ele>
        <time>2018-03-11T00:22:58Z</time>
      </trkpt>
      <trkpt lat="47.96664" lon="7.09285">
        <ele>1175</ele>
        <time>2018-03-11T00:23:58Z</time>
      </trkpt>
      <trkpt lat="47.96665" lon="7.09308">
        <ele>1173</ele>
        <time>2018-03-11T00:24:58Z</time>
      </trkpt>
      <trkpt lat="47.96679" lon="7.09334">
        <ele>1171</ele>
        <time>2018-03-11T00:25:58Z</time>
      </trkpt>
      <trkpt lat="47.96689" lon="7.09354">
        <ele>1168</ele>
        <time>2018-03-11T00:26:58Z</time>
      </trkpt>
      <trkpt lat="47.96695" lon="7.09369">
        <ele>1166</ele>
        <time>2018-03-11T00:27:58Z</time>
      </trkpt>
      <trkpt lat="47.96706" lon="7.0938">
        <ele>1164</ele>
        <time>2018-03-11T00:28:58Z</time>
      </trkpt>
      <trkpt lat="47.96728" lon="7.09408">
        <ele>1161</ele>
        <time>2018-03-11T00:29:58Z</time>
      </trkpt>
      <trkpt lat="47.96746" lon="7.09435">
        <ele>1158</ele>
        <time>2018-03-11T00:30:58Z</time>
      </trkpt>
      <trkpt lat="47.96756" lon="7.09452">
        <ele>1157</ele>
        <time>2018-03-11T00:31:58Z</time>
      </trkpt>
      <trkpt lat="47.96785" lon="7.09487">
        <ele>1153</ele>
        <time>2018-03-11T00:32:58Z</time>
      </trkpt>
      <trkpt lat="47.96812" lon="7.09532">
        <ele>1147</ele>
        <time>2018-03-11T00:33:58Z</time>
      </trkpt>
      <trkpt lat="47.96845" lon="7.09591">
        <ele>1139</ele>
        <time>2018-03-11T00:34:58Z</time>
      </trkpt>
      <trkpt lat="47.96854" lon="7.09608">
        <ele>1136</ele>
        <time>2018-03-11T00:35:58Z</time>
      </trkpt>
      <trkpt lat="47.96858" lon="7.09622">
        <ele>1134</ele>
        <time>2018-03-11T00:36:58Z</time>
      </trkpt>
      <trkpt lat="47.96878" lon="7.0966">
        <ele>1129</ele>
        <time>2018-03-11T00:37:58Z</time>
      </trkpt>
      <trkpt lat="47.96926" lon="7.09755">
        <ele>1121</ele>
        <time>2018-03-11T00:38:58Z</time>
      </trkpt>
      <trkpt lat="47.96952" lon="7.09808">
        <ele>1120</ele>
        <time>2018-03-11T00:39:58Z</time>
      </trkpt>
      <trkpt lat="47.96969" lon="7.0984">
        <ele>1120</ele>
        <time>2018-03-11T00:40:58Z</time>
      </trkpt>
      <trkpt lat="47.96983" lon="7.09872">
        <ele>1121</ele>
        <time>2018-03-11T00:41:58Z</time>
      </trkpt>
      <trkpt lat="47.96987" lon="7.09885">
        <ele>1121</ele>
        <time>2018-03-11T00:42:58Z</time>
      </trkpt>
      <trkpt lat="47.96994" lon="7.09894">
        <ele>1122</ele>
        <time>2018-03-11T00:43:58Z</time>
      </trkpt>
      <trkpt lat="47.97004" lon="7.09911">
        <ele>1123</ele>
        <time>2018-03-11T00:44:58Z</time>
      </trkpt>
      <trkpt lat="47.97016" lon="7.09937">
        <ele>1122</ele>
        <time>2018-03-11T00:45:58Z</time>
      </trkpt>
      <trkpt lat="47.97017" lon="7.09948">
        <ele>1122</ele>
        <time>2018-03-11T00:46:58Z</time>
      </trkpt>
      <trkpt lat="47.97021" lon="7.09952">
        <ele>1122</ele>
        <time>2018-03-11T00:47:58Z</time>
      </trkpt>
      <trkpt lat="47.97022" lon="7.09962">
        <ele>1122</ele>
        <time>2018-03-11T00:48:58Z</time>
      </trkpt>
      <trkpt lat="47.97027" lon="7.0997">
        <ele>1122</ele>
        <time>2018-03-11T00:49:58Z</time>
      </trkpt>
      <trkpt lat="47.97031" lon="7.09975">
        <ele>1123</ele>
        <time>2018-03-11T00:50:58Z</time>
      </trkpt>
      <trkpt lat="47.97033" lon="7.09983">
        <ele>1123</ele>
        <time>2018-03-11T00:51:58Z</time>
      </trkpt>
      <trkpt lat="47.97044" lon="7.10002">
        <ele>1124</ele>
        <time>2018-03-11T00:52:58Z</time>
      </trkpt>
      <trkpt lat="47.97051" lon="7.10023">
        <ele>1125</ele>
        <time>2018-03-11T00:53:58Z</time>
      </trkpt>
      <trkpt lat="47.97068" lon="7.10051">
        <ele>1129</ele>
        <time>2018-03-11T00:54:58Z</time>
      </trkpt>
      <trkpt lat="47.97084" lon="7.10085">
        <ele>1134</ele>
        <time>2018-03-11T00:55:58Z</time>
      </trkpt>
      <trkpt lat="47.97101" lon="7.10131">
        <ele>1136</ele>
        <time>2018-03-11T00:56:58Z</time>
      </trkpt>
      <trkpt lat="47.97111" lon="7.1015">
        <ele>1138</ele>
        <time>2018-03-11T00:57:58Z</time>
      </trkpt>
      <trkpt lat="47.97157" lon="7.10249">
        <ele>1148</ele>
        <time>2018-03-11T00:58:58Z</time>
      </trkpt>
      <trkpt lat="47.9718" lon="7.10287">
        <ele>1154</ele>
        <time>2018-03-11T00:59:58Z</time>
      </trkpt>
      <trkpt lat="47.97188" lon="7.10296">
        <ele>1155</ele>
        <time>2018-03-11T01:00:58Z</time>
      </trkpt>
      <trkpt lat="47.97195" lon="7.10309">
        <ele>1157</ele>
        <time>2018-03-11T01:01:58Z</time>
      </trkpt>
      <trkpt lat="47.97195" lon="7.10318">
        <ele>1158</ele>
        <time>2018-03-11T01:02:58Z</time>
      </trkpt>
      <trkpt lat="47.972" lon="7.10327">
        <ele>1160</ele>
        <time>2018-03-11T01:03:58Z</time>
      </trkpt>
      <trkpt lat="47.97202" lon="7.10335">
        <ele>1161</ele>
        <time>2018-03-11T01:04:58Z</time>
      </trkpt>
      <trkpt lat="47.97208" lon="7.10342">
        <ele>1163</ele>
        <time>2018-03-11T01:05:58Z</time>
      </trkpt>
      <trkpt lat="47.97213" lon="7.1035">
        <ele>1165</ele>
        <time>2018-03-11T01:06:58Z</time>
      </trkpt>
      <trkpt lat="47.97212" lon="7.10358">
        <ele>1166</ele>
        <time>2018-03-11T01:07:58Z</time>
      </trkpt>
      <trkpt lat="47.97209" lon="7.10378">
        <ele>1168</ele>
        <time>2018-03-11T01:08:58Z</time>
      </trkpt>
      <trkpt lat="47.97208" lon="7.104">
        <ele>1171</ele>
        <time>2018-03-11T01:09:58Z</time>
      </trkpt>
      <trkpt lat="47.97209" lon="7.1041">
        <ele>1173</ele>
        <time>2018-03-11T01:10:58Z</time>
      </trkpt>
      <trkpt lat="47.9721" lon="7.10426">
        <ele>1176</ele>
        <time>2018-03-11T01:11:58Z</time>
      </trkpt>
      <trkpt lat="47.97209" lon="7.10444">
        <ele>1177</ele>
        <time>2018-03-11T01:12:58Z</time>
      </trkpt>
      <trkpt lat="47.97219" lon="7.10447">
        <ele>1180</ele>
        <time>2018-03-11T01:13:58Z</time>
      </trkpt>
      <trkpt lat="47.97241" lon="7.1044">
        <ele>1185</ele>
        <time>2018-03-11T01:14:58Z</time>
      </trkpt>
      <trkpt lat="47.97259" lon="7.10439">
        <ele>1189</ele>
        <time>2018-03-11T01:15:58Z</time>
      </trkpt>
      <trkpt lat="47.97298" lon="7.1043">
        <ele>1192</ele>
        <time>2018-03-11T01:16:58Z</time>
      </trkpt>
      <trkpt lat="47.97304" lon="7.10429">
        <ele>1193</ele>
        <time>2018-03-11T01:17:58Z</time>
      </trkpt>
      <trkpt lat="47.97384" lon="7.10576">
        <ele>1214</ele>
        <time>2018-03-11T01:18:58Z</time>
      </trkpt>
      <trkpt lat="47.9746" lon="7.107">
        <ele>1221</ele>
        <time>2018-03-11T01:19:58Z</time>
      </trkpt>
      <trkpt lat="47.97516" lon="7.1078">
        <ele>1223</ele>
        <time>2018-03-11T01:20:58Z</time>
      </trkpt>
      <trkpt lat="47.97544" lon="7.10842">
        <ele>1222</ele>
        <time>2018-03-11T01:21:58Z</time>
      </trkpt>
      <trkpt lat="47.97569" lon="7.10936">
        <ele>1216</ele>
        <time>2018-03-11T01:22:58Z</time>
      </trkpt>
      <trkpt lat="47.97642" lon="7.11152">
        <ele>1230</ele>
        <time>2018-03-11T01:23:58Z</time>
      </trkpt>
      <trkpt lat="47.9765" lon="7.11194">
        <ele>1235</ele>
        <time>2018-03-11T01:24:58Z</time>
      </trkpt>
      <trkpt lat="47.97656" lon="7.11265">
        <ele>1241</ele>
        <time>2018-03-11T01:25:58Z</time>
      </trkpt>
      <trkpt lat="47.97658" lon="7.1131">
        <ele>1243</ele>
        <time>2018-03-11T01:26:58Z</time>
      </trkpt>
      <trkpt lat="47.97657" lon="7.1134">
        <ele>1243</ele>
        <time>2018-03-11T01:27:58Z</time>
      </trkpt>
      <trkpt lat="47.97643" lon="7.11459">
        <ele>1242</ele>
        <time>2018-03-11T01:28:58Z</time>
      </trkpt>
      <trkpt lat="47.97645" lon="7.11469">
        <ele>1243</ele>
        <time>2018-03-11T01:29:58Z</time>
      </trkpt>
      <trkpt lat="47.97676" lon="7.11541">
        <ele>1244</ele>
        <time>2018-03-11T01:30:58Z</time>
      </trkpt>
      <trkpt lat="47.97729" lon="7.11695">
        <ele>1231</ele>
        <time>2018-03-11T01:31:58Z</time>
      </trkpt>
      <trkpt lat="47.97772" lon="7.11837">
        <ele>1207</ele>
        <time>2018-03-11T01:32:58Z</time>
      </trkpt>
      <trkpt lat="47.97786" lon="7.11895">
        <ele>1205</ele>
        <time>2018-03-11T01:33:58Z</time>
      </trkpt>
      <trkpt lat="47.97795" lon="7.11976">
        <ele>1207</ele>
        <time>2018-03-11T01:34:58Z</time>
      </trkpt>
      <trkpt lat="47.97803" lon="7.12121">
        <ele>1218</ele>
        <time>2018-03-11T01:35:58Z</time>
      </trkpt>
      <trkpt lat="47.97808" lon="7.12146">
        <ele>1219</ele>
        <time>2018-03-11T01:36:58Z</time>
      </trkpt>
      <trkpt lat="47.97816" lon="7.12168">
        <ele>1220</ele>
        <time>2018-03-11T01:37:58Z</time>
      </trkpt>
      <trkpt lat="47.97842" lon="7.1221">
        <ele>1219</ele>
        <time>2018-03-11T01:38:58Z</time>
      </trkpt>
      <trkpt lat="47.98012" lon="7.12496">
        <ele>1248</ele>
        <time>2018-03-11T01:39:58Z</time>
      </trkpt>
      <trkpt lat="47.98042" lon="7.12551">
        <ele>1256</ele>
        <time>2018-03-11T01:40:58Z</time>
      </trkpt>
      <trkpt lat="47.98059" lon="7.12592">
        <ele>1260</ele>
        <time>2018-03-11T01:41:58Z</time>
      </trkpt>
      <trkpt lat="47.98065" lon="7.126">
        <ele>1261</ele>
        <time>2018-03-11T01:42:58Z</time>
      </trkpt>
      <trkpt lat="47.98065" lon="7.12607">
        <ele>1260</ele>
        <time>2018-03-11T01:43:58Z</time>
      </trkpt>
      <trkpt lat="47.98067" lon="7.12624">
        <ele>1259</ele>
        <time>2018-03-11T01:44:58Z</time>
      </trkpt>
      <trkpt lat="47.98076" lon="7.12686">
        <ele>1257</ele>
        <time>2018-03-11T01:45:58Z</time>
      </trkpt>
      <trkpt lat="47.98085" lon="7.1276">
        <ele>1256</ele>
        <time>2018-03-11T01:46:58Z</time>
      </trkpt>
      <trkpt lat="47.98093" lon="7.12803">
        <ele>1253</ele>
        <time>2018-03-11T01:47:58Z</time>
      </trkpt>
      <trkpt lat="47.98095" lon="7.12816">
        <ele>1252</ele>
        <time>2018-03-11T01:48:58Z</time>
      </trkpt>
      <trkpt lat="47.98174" lon="7.12898">
        <ele>1226</ele>
        <time>2018-03-11T01:49:58Z</time>
      </trkpt>
      <trkpt lat="47.9821" lon="7.12908">
        <ele>1219</ele>
        <time>2018-03-11T01:50:58Z</time>
      </trkpt>
      <trkpt lat="47.98244" lon="7.12903">
        <ele>1215</ele>
        <time>2018-03-11T01:51:58Z</time>
      </trkpt>
      <trkpt lat="47.98294" lon="7.12893">
        <ele>1205</ele>
        <time>2018-03-11T01:52:58Z</time>
      </trkpt>
      <trkpt lat="47.98327" lon="7.12898">
        <ele>1198</ele>
        <time>2018-03-11T01:53:58Z</time>
      </trkpt>
      <trkpt lat="47.98352" lon="7.12917">
        <ele>1193</ele>
        <time>2018-03-11T01:54:58Z</time>
      </trkpt>
      <trkpt lat="47.98366" lon="7.12945">
        <ele>1192</ele>
        <time>2018-03-11T01:55:58Z</time>
      </trkpt>
      <trkpt lat="47.98386" lon="7.13">
        <ele>1190</ele>
        <time>2018-03-11T01:56:58Z</time>
      </trkpt>
      <trkpt lat="47.98414" lon="7.13006">
        <ele>1185</ele>
        <time>2018-03-11T01:57:58Z</time>
      </trkpt>
      <trkpt lat="47.98508" lon="7.13015">
        <ele>1164</ele>
        <time>2018-03-11T01:58:58Z</time>
      </trkpt>
      <trkpt lat="47.98567" lon="7.13025">
        <ele>1156</ele>
        <time>2018-03-11T01:59:58Z</time>
      </trkpt>
      <trkpt lat="47.98567" lon="7.13036">
        <ele>1155</ele>
        <time>2018-03-11T02:00:58Z</time>
      </trkpt>
      <trkpt lat="47.98548" lon="7.13108">
        <ele>1151</ele>
        <time>2018-03-11T02:01:58Z</time>
      </trkpt>
      <trkpt lat="47.98488" lon="7.1328">
        <ele>1122</ele>
        <time>2018-03-11T02:02:58Z</time>
      </trkpt>
      <trkpt lat="47.98487" lon="7.13289">
        <ele>1120</ele>
        <time>2018-03-11T02:03:58Z</time>
      </trkpt>
      <trkpt lat="47.98489" lon="7.13291">
        <ele>1119</ele>
        <time>2018-03-11T02:04:58Z</time>
      </trkpt>
      <trkpt lat="47.98485" lon="7.13299">
        <ele>1117</ele>
        <time>2018-03-11T02:05:58Z</time>
      </trkpt>
      <trkpt lat="47.98468" lon="7.13317">
        <ele>1112</ele>
        <time>2018-03-11T02:06:58Z</time>
      </trkpt>
      <trkpt lat="47.98456" lon="7.13322">
        <ele>1110</ele>
        <time>2018-03-11T02:07:58Z</time>
      </trkpt>
      <trkpt lat="47.9845" lon="7.13323">
        <ele>1110</ele>
        <time>2018-03-11T02:08:58Z</time>
      </trkpt>
      <trkpt lat="47.98436" lon="7.13319">
        <ele>1111</ele>
        <time>2018-03-11T02:09:58Z</time>
      </trkpt>
      <trkpt lat="47.98395" lon="7.13292">
        <ele>1111</ele>
        <time>2018-03-11T02:10:58Z</time>
      </trkpt>
      <trkpt lat="47.98352" lon="7.13274">
        <ele>1104</ele>
        <time>2018-03-11T02:11:58Z</time>
      </trkpt>
      <trkpt lat="47.98316" lon="7.13264">
        <ele>1100</ele>
        <time>2018-03-11T02:12:58Z</time>
      </trkpt>
      <trkpt lat="47.98305" lon="7.1327">
        <ele>1096</ele>
        <time>2018-03-11T02:13:58Z</time>
      </trkpt>
      <trkpt lat="47.98292" lon="7.1327">
        <ele>1093</ele>
        <time>2018-03-11T02:14:58Z</time>
      </trkpt>
      <trkpt lat="47.9828" lon="7.13274">
        <ele>1090</ele>
        <time>2018-03-11T02:15:58Z</time>
      </trkpt>
      <trkpt lat="47.98262" lon="7.13297">
        <ele>1081</ele>
        <time>2018-03-11T02:16:58Z</time>
      </trkpt>
      <trkpt lat="47.98229" lon="7.13355">
        <ele>1069</ele>
        <time>2018-03-11T02:17:58Z</time>
      </trkpt>
      <trkpt lat="47.98204" lon="7.13406">
        <ele>1061</ele>
        <time>2018-03-11T02:18:58Z</time>
      </trkpt>
      <trkpt lat="47.98193" lon="7.13422">
        <ele>1059</ele>
        <time>2018-03-11T02:19:58Z</time>
      </trkpt>
      <trkpt lat="47.9817" lon="7.1344">
        <ele>1058</ele>
        <time>2018-03-11T02:20:58Z</time>
      </trkpt>
      <trkpt lat="47.9815" lon="7.13449">
        <ele>1054</ele>
        <time>2018-03-11T02:21:58Z</time>
      </trkpt>
      <trkpt lat="47.98126" lon="7.13452">
        <ele>1051</ele>
        <time>2018-03-11T02:22:58Z</time>
      </trkpt>
      <trkpt lat="47.98094" lon="7.13442">
        <ele>1050</ele>
        <time>2018-03-11T02:23:58Z</time>
      </trkpt>
      <trkpt lat="47.98072" lon="7.13433">
        <ele>1052</ele>
        <time>2018-03-11T02:24:58Z</time>
      </trkpt>
      <trkpt lat="47.98058" lon="7.13434">
        <ele>1055</ele>
        <time>2018-03-11T02:25:58Z</time>
      </trkpt>
      <trkpt lat="47.98042" lon="7.13478">
        <ele>1051</ele>
        <time>2018-03-11T02:26:58Z</time>
      </trkpt>
      <trkpt lat="47.98027" lon="7.13538">
        <ele>1040</ele>
        <time>2018-03-11T02:27:58Z</time>
      </trkpt>
      <trkpt lat="47.98017" lon="7.13562">
        <ele>1036</ele>
        <time>2018-03-11T02:28:58Z</time>
      </trkpt>
      <trkpt lat="47.98002" lon="7.13582">
        <ele>1035</ele>
        <time>2018-03-11T02:29:58Z</time>
      </trkpt>
      <trkpt lat="47.97996" lon="7.13589">
        <ele>1035</ele>
        <time>2018-03-11T02:30:58Z</time>
      </trkpt>
      <trkpt lat="47.97991" lon="7.13592">
        <ele>1036</ele>
        <time>2018-03-11T02:31:58Z</time>
      </trkpt>
      <trkpt lat="47.9798" lon="7.13594">
        <ele>1040</ele>
        <time>2018-03-11T02:32:58Z</time>
      </trkpt>
      <trkpt lat="47.97972" lon="7.13608">
        <ele>1039</ele>
        <time>2018-03-11T02:33:58Z</time>
      </trkpt>
      <trkpt lat="47.97956" lon="7.13647">
        <ele>1034</ele>
        <time>2018-03-11T02:34:58Z</time>
      </trkpt>
      <trkpt lat="47.97943" lon="7.13683">
        <ele>1029</ele>
        <time>2018-03-11T02:35:58Z</time>
      </trkpt>
      <trkpt lat="47.97932" lon="7.13729">
        <ele>1020</ele>
        <time>2018-03-11T02:36:58Z</time>
      </trkpt>
      <trkpt lat="47.97921" lon="7.13793">
        <ele>1006</ele>
        <time>2018-03-11T02:37:58Z</time>
      </trkpt>
      <trkpt lat="47.97911" lon="7.13827">
        <ele>999</ele>
        <time>2018-03-11T02:38:58Z</time>
      </trkpt>
      <trkpt lat="47.97901" lon="7.13849">
        <ele>997</ele>
        <time>2018-03-11T02:39:58Z</time>
      </trkpt>
      <trkpt lat="47.97886" lon="7.13867">
        <ele>999</ele>
        <time>2018-03-11T02:40:58Z</time>
      </trkpt>
      <trkpt lat="47.97875" lon="7.13884">
        <ele>1000</ele>
        <time>2018-03-11T02:41:58Z</time>
      </trkpt>
      <trkpt lat="47.97866" lon="7.13911">
        <ele>998</ele>
        <time>2018-03-11T02:42:58Z</time>
      </trkpt>
      <trkpt lat="47.97853" lon="7.13968">
        <ele>991</ele>
        <time>2018-03-11T02:43:58Z</time>
      </trkpt>
      <trkpt lat="47.97847" lon="7.14022">
        <ele>984</ele>
        <time>2018-03-11T02:44:58Z</time>
      </trkpt>
      <trkpt lat="47.97844" lon="7.14147">
        <ele>968</ele>
        <time>2018-03-11T02:45:58Z</time>
      </trkpt>
      <trkpt lat="47.97841" lon="7.14216">
        <ele>960</ele>
        <time>2018-03-11T02:46:58Z</time>
      </trkpt>
      <trkpt lat="47.97837" lon="7.14245">
        <ele>957</ele>
        <time>2018-03-11T02:47:58Z</time>
      </trkpt>
      <trkpt lat="47.97829" lon="7.14264">
        <ele>955</ele>
        <time>2018-03-11T02:48:58Z</time>
      </trkpt>
      <trkpt lat="47.97818" lon="7.14278">
        <ele>955</ele>
        <time>2018-03-11T02:49:58Z</time>
      </trkpt>
      <trkpt lat="47.97796" lon="7.14294">
        <ele>956</ele>
        <time>2018-03-11T02:50:58Z</time>
      </trkpt>
      <trkpt lat="47.97781" lon="7.14301">
        <ele>958</ele>
        <time>2018-03-11T02:51:58Z</time>
      </trkpt>
      <trkpt lat="47.97775" lon="7.14309">
        <ele>958</ele>
        <time>2018-03-11T02:52:58Z</time>
      </trkpt>
      <trkpt lat="47.97775" lon="7.1432">
        <ele>956</ele>
        <time>2018-03-11T02:53:58Z</time>
      </trkpt>
      <trkpt lat="47.97782" lon="7.14328">
        <ele>953</ele>
        <time>2018-03-11T02:54:58Z</time>
      </trkpt>
      <trkpt lat="47.97793" lon="7.14328">
        <ele>951</ele>
        <time>2018-03-11T02:55:58Z</time>
      </trkpt>
      <trkpt lat="47.97812" lon="7.14324">
        <ele>948</ele>
        <time>2018-03-11T02:56:58Z</time>
      </trkpt>
      <trkpt lat="47.97819" lon="7.14325">
        <ele>946</ele>
        <time>2018-03-11T02:57:58Z</time>
      </trkpt>
      <trkpt lat="47.97836" lon="7.14332">
        <ele>942</ele>
        <time>2018-03-11T02:58:58Z</time>
      </trkpt>
      <trkpt lat="47.9786" lon="7.14344">
        <ele>936</ele>
        <time>2018-03-11T02:59:58Z</time>
      </trkpt>
      <trkpt lat="47.97888" lon="7.14356">
        <ele>930</ele>
        <time>2018-03-11T03:00:58Z</time>
      </trkpt>
      <trkpt lat="47.97911" lon="7.14361">
        <ele>926</ele>
        <time>2018-03-11T03:01:58Z</time>
      </trkpt>
      <trkpt lat="47.97917" lon="7.14367">
        <ele>924</ele>
        <time>2018-03-11T03:02:58Z</time>
      </trkpt>
      <trkpt lat="47.97918" lon="7.14378">
        <ele>923</ele>
        <time>2018-03-11T03:03:58Z</time>
      </trkpt>
      <trkpt lat="47.97914" lon="7.14385">
        <ele>923</ele>
        <time>2018-03-11T03:04:58Z</time>
      </trkpt>
      <trkpt lat="47.97903" lon="7.14387">
        <ele>924</ele>
        <time>2018-03-11T03:05:58Z</time>
      </trkpt>
      <trkpt lat="47.97878" lon="7.14386">
        <ele>926</ele>
        <time>2018-03-11T03:06:58Z</time>
      </trkpt>
      <trkpt lat="47.97863" lon="7.14387">
        <ele>928</ele>
        <time>2018-03-11T03:07:58Z</time>
      </trkpt>
      <trkpt lat="47.97809" lon="7.14434">
        <ele>928</ele>
        <time>2018-03-11T03:08:58Z</time>
      </trkpt>
      <trkpt lat="47.97803" lon="7.14444">
        <ele>928</ele>
        <time>2018-03-11T03:09:58Z</time>
      </trkpt>
      <trkpt lat="47.97796" lon="7.14467">
        <ele>926</ele>
        <time>2018-03-11T03:10:58Z</time>
      </trkpt>
      <trkpt lat="47.97792" lon="7.14512">
        <ele>918</ele>
        <time>2018-03-11T03:11:58Z</time>
      </trkpt>
      <trkpt lat="47.97793" lon="7.14545">
        <ele>910</ele>
        <time>2018-03-11T03:12:58Z</time>
      </trkpt>
      <trkpt lat="47.97787" lon="7.14564">
        <ele>908</ele>
        <time>2018-03-11T03:13:58Z</time>
      </trkpt>
      <trkpt lat="47.97767" lon="7.14587">
        <ele>908</ele>
        <time>2018-03-11T03:14:58Z</time>
      </trkpt>
      <trkpt lat="47.97679" lon="7.1468">
        <ele>893</ele>
        <time>2018-03-11T03:15:58Z</time>
      </trkpt>
      <trkpt lat="47.97674" lon="7.14687">
        <ele>892</ele>
        <time>2018-03-11T03:16:58Z</time>
      </trkpt>
      <trkpt lat="47.97672" lon="7.14694">
        <ele>890</ele>
        <time>2018-03-11T03:17:58Z</time>
      </trkpt>
      <trkpt lat="47.97674" lon="7.14703">
        <ele>888</ele>
        <time>2018-03-11T03:18:58Z</time>
      </trkpt>
      <trkpt lat="47.97678" lon="7.14705">
        <ele>886</ele>
        <time>2018-03-11T03:19:58Z</time>
      </trkpt>
      <trkpt lat="47.97682" lon="7.14705">
        <ele>886</ele>
        <time>2018-03-11T03:20:58Z</time>
      </trkpt>
      <trkpt lat="47.97727" lon="7.14698">
        <ele>880</ele>
        <time>2018-03-11T03:21:58Z</time>
      </trkpt>
      <trkpt lat="47.97731" lon="7.14698">
        <ele>880</ele>
        <time>2018-03-11T03:22:58Z</time>
      </trkpt>
      <trkpt lat="47.97734" lon="7.14701">
        <ele>878</ele>
        <time>2018-03-11T03:23:58Z</time>
      </trkpt>
      <trkpt lat="47.97735" lon="7.14704">
        <ele>877</ele>
        <time>2018-03-11T03:24:58Z</time>
      </trkpt>
      <trkpt lat="47.97716" lon="7.14727">
        <ele>874</ele>
        <time>2018-03-11T03:25:58Z</time>
      </trkpt>
      <trkpt lat="47.97693" lon="7.14751">
        <ele>872</ele>
        <time>2018-03-11T03:26:58Z</time>
      </trkpt>
      <trkpt lat="47.9765" lon="7.14789">
        <ele>875</ele>
        <time>2018-03-11T03:27:58Z</time>
      </trkpt>
      <trkpt lat="47.97649" lon="7.14793">
        <ele>874</ele>
        <time>2018-03-11T03:28:58Z</time>
      </trkpt>
      <trkpt lat="47.97648" lon="7.14805">
        <ele>874</ele>
        <time>2018-03-11T03:29:58Z</time>
      </trkpt>
      <trkpt lat="47.97649" lon="7.14819">
        <ele>873</ele>
        <time>2018-03-11T03:30:58Z</time>
      </trkpt>
      <trkpt lat="47.97638" lon="7.14816">
        <ele>875</ele>
        <time>2018-03-11T03:31:58Z</time>
      </trkpt>
      <trkpt lat="47.97618" lon="7.14813">
        <ele>878</ele>
        <time>2018-03-11T03:32:58Z</time>
      </trkpt>
      <trkpt lat="47.976" lon="7.14812">
        <ele>881</ele>
        <time>2018-03-11T03:33:58Z</time>
      </trkpt>
      <trkpt lat="47.97484" lon="7.14829">
        <ele>876</ele>
        <time>2018-03-11T03:34:58Z</time>
      </trkpt>
      <trkpt lat="47.97412" lon="7.14836">
        <ele>867</ele>
        <time>2018-03-11T03:35:58Z</time>
      </trkpt>
      <trkpt lat="47.97391" lon="7.14842">
        <ele>864</ele>
        <time>2018-03-11T03:36:58Z</time>
      </trkpt>
      <trkpt lat="47.97338" lon="7.14868">
        <ele>861</ele>
        <time>2018-03-11T03:37:58Z</time>
      </trkpt>
      <trkpt lat="47.9732" lon="7.14885">
        <ele>860</ele>
        <time>2018-03-11T03:38:58Z</time>
      </trkpt>
      <trkpt lat="47.9731" lon="7.1491">
        <ele>863</ele>
        <time>2018-03-11T03:39:58Z</time>
      </trkpt>
      <trkpt lat="47.973" lon="7.14943">
        <ele>868</ele>
        <time>2018-03-11T03:40:58Z</time>
      </trkpt>
      <trkpt lat="47.97289" lon="7.14969">
        <ele>870</ele>
        <time>2018-03-11T03:41:58Z</time>
      </trkpt>
      <trkpt lat="47.9726" lon="7.15045">
        <ele>878</ele>
        <time>2018-03-11T03:42:58Z</time>
      </trkpt>
      <trkpt lat="47.97239" lon="7.15086">
        <ele>885</ele>
        <time>2018-03-11T03:43:58Z</time>
      </trkpt>
      <trkpt lat="47.97231" lon="7.15093">
        <ele>886</ele>
        <time>2018-03-11T03:44:58Z</time>
      </trkpt>
      <trkpt lat="47.97222" lon="7.15097">
        <ele>886</ele>
        <time>2018-03-11T03:45:58Z</time>
      </trkpt>
      <trkpt lat="47.97157" lon="7.15114">
        <ele>883</ele>
        <time>2018-03-11T03:46:58Z</time>
      </trkpt>
      <trkpt lat="47.97133" lon="7.15127">
        <ele>884</ele>
        <time>2018-03-11T03:47:58Z</time>
      </trkpt>
      <trkpt lat="47.97124" lon="7.15134">
        <ele>885</ele>
        <time>2018-03-11T03:48:58Z</time>
      </trkpt>
      <trkpt lat="47.9711" lon="7.15148">
        <ele>888</ele>
        <time>2018-03-11T03:49:58Z</time>
      </trkpt>
      <trkpt lat="47.971" lon="7.15159">
        <ele>890</ele>
        <time>2018-03-11T03:50:58Z</time>
      </trkpt>
      <trkpt lat="47.97092" lon="7.15165">
        <ele>890</ele>
        <time>2018-03-11T03:51:58Z</time>
      </trkpt>
      <trkpt lat="47.97063" lon="7.15175">
        <ele>889</ele>
        <time>2018-03-11T03:52:58Z</time>
      </trkpt>
      <trkpt lat="47.97029" lon="7.15185">
        <ele>886</ele>
        <time>2018-03-11T03:53:58Z</time>
      </trkpt>
      <trkpt lat="47.97005" lon="7.15196">
        <ele>884</ele>
        <time>2018-03-11T03:54:58Z</time>
      </trkpt>
      <trkpt lat="47.96993" lon="7.15209">
        <ele>885</ele>
        <time>2018-03-11T03:55:58Z</time>
      </trkpt>
      <trkpt lat="47.96969" lon="7.15271">
        <ele>893</ele>
        <time>2018-03-11T03:56:58Z</time>
      </trkpt>
      <trkpt lat="47.96951" lon="7.15304">
        <ele>896</ele>
        <time>2018-03-11T03:57:58Z</time>
      </trkpt>
      <trkpt lat="47.96934" lon="7.15328">
        <ele>897</ele>
        <time>2018-03-11T03:58:58Z</time>
      </trkpt>
      <trkpt lat="47.96911" lon="7.15349">
        <ele>897</ele>
        <time>2018-03-11T03:59:58Z</time>
      </trkpt>
      <trkpt lat="47.96848" lon="7.15377">
        <ele>896</ele>
        <time>2018-03-11T04:00:58Z</time>
      </trkpt>
      <trkpt lat="47.96774" lon="7.15383">
        <ele>893</ele>
        <time>2018-03-11T04:01:58Z</time>
      </trkpt>
      <trkpt lat="47.96738" lon="7.15379">
        <ele>889</ele>
        <time>2018-03-11T04:02:58Z</time>
      </trkpt>
      <trkpt lat="47.96692" lon="7.15398">
        <ele>889</ele>
        <time>2018-03-11T04:03:58Z</time>
      </trkpt>
      <trkpt lat="47.96651" lon="7.15428">
        <ele>892</ele>
        <time>2018-03-11T04:04:58Z</time>
      </trkpt>
      <trkpt lat="47.96607" lon="7.15474">
        <ele>895</ele>
        <time>2018-03-11T04:05:58Z</time>
      </trkpt>
      <trkpt lat="47.96566" lon="7.15525">
        <ele>900</ele>
        <time>2018-03-11T04:06:58Z</time>
      </trkpt>
      <trkpt lat="47.96511" lon="7.15558">
        <ele>897</ele>
        <time>2018-03-11T04:07:58Z</time>
      </trkpt>
      <trkpt lat="47.96423" lon="7.15566">
        <ele>883</ele>
        <time>2018-03-11T04:08:58Z</time>
      </trkpt>
      <trkpt lat="47.96349" lon="7.15576">
        <ele>877</ele>
        <time>2018-03-11T04:09:58Z</time>
      </trkpt>
      <trkpt lat="47.96312" lon="7.15598">
        <ele>876</ele>
        <time>2018-03-11T04:10:58Z</time>
      </trkpt>
      <trkpt lat="47.96274" lon="7.15637">
        <ele>877</ele>
        <time>2018-03-11T04:11:58Z</time>
      </trkpt>
      <trkpt lat="47.96216" lon="7.15665">
        <ele>872</ele>
        <time>2018-03-11T04:12:58Z</time>
      </trkpt>
      <trkpt lat="47.96194" lon="7.15671">
        <ele>871</ele>
        <time>2018-03-11T04:13:58Z</time>
      </trkpt>
      <trkpt lat="47.96144" lon="7.15654">
        <ele>864</ele>
        <time>2018-03-11T04:14:58Z</time>
      </trkpt>
      <trkpt lat="47.96091" lon="7.15628">
        <ele>858</ele>
        <time>2018-03-11T04:15:58Z</time>
      </trkpt>
      <trkpt lat="47.96057" lon="7.15634">
        <ele>854</ele>
        <time>2018-03-11T04:16:58Z</time>
      </trkpt>
      <trkpt lat="47.96039" lon="7.15666">
        <ele>853</ele>
        <time>2018-03-11T04:17:58Z</time>
      </trkpt>
      <trkpt lat="47.96038" lon="7.15691">
        <ele>852</ele>
        <time>2018-03-11T04:18:58Z</time>
      </trkpt>
      <trkpt lat="47.96042" lon="7.15737">
        <ele>852</ele>
        <time>2018-03-11T04:19:58Z</time>
      </trkpt>
      <trkpt lat="47.96048" lon="7.15776">
        <ele>854</ele>
        <time>2018-03-11T04:20:58Z</time>
      </trkpt>
      <trkpt lat="47.96047" lon="7.15807">
        <ele>855</ele>
        <time>2018-03-11T04:21:58Z</time>
      </trkpt>
      <trkpt lat="47.9603" lon="7.15821">
        <ele>850</ele>
        <time>2018-03-11T04:22:58Z</time>
      </trkpt>
      <trkpt lat="47.96005" lon="7.15834">
        <ele>842</ele>
        <time>2018-03-11T04:23:58Z</time>
      </trkpt>
      <trkpt lat="47.95981" lon="7.15839">
        <ele>837</ele>
        <time>2018-03-11T04:24:58Z</time>
      </trkpt>
      <trkpt lat="47.95959" lon="7.1584">
        <ele>833</ele>
        <time>2018-03-11T04:25:58Z</time>
      </trkpt>
      <trkpt lat="47.95925" lon="7.15829">
        <ele>826</ele>
        <time>2018-03-11T04:26:58Z</time>
      </trkpt>
      <trkpt lat="47.95885" lon="7.15808">
        <ele>820</ele>
        <time>2018-03-11T04:27:58Z</time>
      </trkpt>
      <trkpt lat="47.95861" lon="7.15797">
        <ele>817</ele>
        <time>2018-03-11T04:28:58Z</time>
      </trkpt>
      <trkpt lat="47.95851" lon="7.15796">
        <ele>816</ele>
        <time>2018-03-11T04:29:58Z</time>
      </trkpt>
      <trkpt lat="47.95843" lon="7.15798">
        <ele>815</ele>
        <time>2018-03-11T04:30:58Z</time>
      </trkpt>
      <trkpt lat="47.95834" lon="7.15808">
        <ele>815</ele>
        <time>2018-03-11T04:31:58Z</time>
      </trkpt>
      <trkpt lat="47.95823" lon="7.15825">
        <ele>814</ele>
        <time>2018-03-11T04:32:58Z</time>
      </trkpt>
      <trkpt lat="47.9582" lon="7.15822">
        <ele>813</ele>
        <time>2018-03-11T04:33:58Z</time>
      </trkpt>
      <trkpt lat="47.95814" lon="7.15822">
        <ele>812</ele>
        <time>2018-03-11T04:34:58Z</time>
      </trkpt>
      <trkpt lat="47.95804" lon="7.15831">
        <ele>811</ele>
        <time>2018-03-11T04:35:58Z</time>
      </trkpt>
      <trkpt lat="47.95783" lon="7.15853">
        <ele>810</ele>
        <time>2018-03-11T04:36:58Z</time>
      </trkpt>
      <trkpt lat="47.95748" lon="7.15878">
        <ele>805</ele>
        <time>2018-03-11T04:37:58Z</time>
      </trkpt>
      <trkpt lat="47.95723" lon="7.15906">
        <ele>799</ele>
        <time>2018-03-11T04:38:58Z</time>
      </trkpt>
      <trkpt lat="47.9571" lon="7.15931">
        <ele>798</ele>
        <time>2018-03-11T04:39:58Z</time>
      </trkpt>
      <trkpt lat="47.9568" lon="7.15973">
        <ele>795</ele>
        <time>2018-03-11T04:40:58Z</time>
      </trkpt>
      <trkpt lat="47.95652" lon="7.16004">
        <ele>791</ele>
        <time>2018-03-11T04:41:58Z</time>
      </trkpt>
      <trkpt lat="47.95626" lon="7.16028">
        <ele>788</ele>
        <time>2018-03-11T04:42:58Z</time>
      </trkpt>
      <trkpt lat="47.95552" lon="7.16091">
        <ele>781</ele>
        <time>2018-03-11T04:43:58Z</time>
      </trkpt>
      <trkpt lat="47.95522" lon="7.16151">
        <ele>783</ele>
        <time>2018-03-11T04:44:58Z</time>
      </trkpt>
      <trkpt lat="47.955" lon="7.16202">
        <ele>782</ele>
        <time>2018-03-11T04:45:58Z</time>
      </trkpt>
      <trkpt lat="47.95488" lon="7.16238">
        <ele>782</ele>
        <time>2018-03-11T04:46:58Z</time>
      </trkpt>
      <trkpt lat="47.95486" lon="7.16275">
        <ele>783</ele>
        <time>2018-03-11T04:47:58Z</time>
      </trkpt>
      <trkpt lat="47.9549" lon="7.16322">
        <ele>787</ele>
        <time>2018-03-11T04:48:58Z</time>
      </trkpt>
      <trkpt lat="47.95481" lon="7.1643">
        <ele>781</ele>
        <time>2018-03-11T04:49:58Z</time>
      </trkpt>
      <trkpt lat="47.95477" lon="7.16519">
        <ele>780</ele>
        <time>2018-03-11T04:50:58Z</time>
      </trkpt>
      <trkpt lat="47.95477" lon="7.16543">
        <ele>778</ele>
        <time>2018-03-11T04:51:58Z</time>
      </trkpt>
      <trkpt lat="47.95467" lon="7.16596">
        <ele>768</ele>
        <time>2018-03-11T04:52:58Z</time>
      </trkpt>
      <trkpt lat="47.95462" lon="7.16646">
        <ele>759</ele>
        <time>2018-03-11T04:53:58Z</time>
      </trkpt>
      <trkpt lat="47.95463" lon="7.16695">
        <ele>754</ele>
        <time>2018-03-11T04:54:58Z</time>
      </trkpt>
      <trkpt lat="47.95478" lon="7.16759">
        <ele>757</ele>
        <time>2018-03-11T04:55:58Z</time>
      </trkpt>
      <trkpt lat="47.95484" lon="7.16808">
        <ele>754</ele>
        <time>2018-03-11T04:56:58Z</time>
      </trkpt>
      <trkpt lat="47.9548" lon="7.16858">
        <ele>748</ele>
        <time>2018-03-11T04:57:58Z</time>
      </trkpt>
      <trkpt lat="47.95465" lon="7.16967">
        <ele>735</ele>
        <time>2018-03-11T04:58:58Z</time>
      </trkpt>
      <trkpt lat="47.95465" lon="7.17036">
        <ele>730</ele>
        <time>2018-03-11T04:59:58Z</time>
      </trkpt>
      <trkpt lat="47.95478" lon="7.17182">
        <ele>713</ele>
        <time>2018-03-11T05:00:58Z</time>
      </trkpt>
      <trkpt lat="47.95475" lon="7.17192">
        <ele>712</ele>
        <time>2018-03-11T05:01:58Z</time>
      </trkpt>
      <trkpt lat="47.95471" lon="7.17201">
        <ele>710</ele>
        <time>2018-03-11T05:02:58Z</time>
      </trkpt>
      <trkpt lat="47.95466" lon="7.17205">
        <ele>709</ele>
        <time>2018-03-11T05:03:58Z</time>
      </trkpt>
      <trkpt lat="47.95457" lon="7.17204">
        <ele>709</ele>
        <time>2018-03-11T05:04:58Z</time>
      </trkpt>
      <trkpt lat="47.95442" lon="7.17199">
        <ele>708</ele>
        <time>2018-03-11T05:05:58Z</time>
      </trkpt>
      <trkpt lat="47.95428" lon="7.17199">
        <ele>707</ele>
        <time>2018-03-11T05:06:58Z</time>
      </trkpt>
      <trkpt lat="47.95418" lon="7.17204">
        <ele>706</ele>
        <time>2018-03-11T05:07:58Z</time>
      </trkpt>
      <trkpt lat="47.95406" lon="7.17206">
        <ele>703</ele>
        <time>2018-03-11T05:08:58Z</time>
      </trkpt>
      <trkpt lat="47.95395" lon="7.17205">
        <ele>701</ele>
        <time>2018-03-11T05:09:58Z</time>
      </trkpt>
      <trkpt lat="47.95385" lon="7.17206">
        <ele>699</ele>
        <time>2018-03-11T05:10:58Z</time>
      </trkpt>
      <trkpt lat="47.95376" lon="7.17213">
        <ele>697</ele>
        <time>2018-03-11T05:11:58Z</time>
      </trkpt>
      <trkpt lat="47.95371" lon="7.17225">
        <ele>696</ele>
        <time>2018-03-11T05:12:58Z</time>
      </trkpt>
      <trkpt lat="47.95368" lon="7.17243">
        <ele>695</ele>
        <time>2018-03-11T05:13:58Z</time>
      </trkpt>
      <trkpt lat="47.95366" lon="7.17277">
        <ele>694</ele>
        <time>2018-03-11T05:14:58Z</time>
      </trkpt>
      <trkpt lat="47.95382" lon="7.17299">
        <ele>694</ele>
        <time>2018-03-11T05:15:58Z</time>
      </trkpt>
      <trkpt lat="47.95411" lon="7.17302">
        <ele>695</ele>
        <time>2018-03-11T05:16:58Z</time>
      </trkpt>
      <trkpt lat="47.95437" lon="7.17297">
        <ele>695</ele>
        <time>2018-03-11T05:17:58Z</time>
      </trkpt>
      <trkpt lat="47.95452" lon="7.17292">
        <ele>696</ele>
        <time>2018-03-11T05:18:58Z</time>
      </trkpt>
      <trkpt lat="47.9547" lon="7.17278">
        <ele>699</ele>
        <time>2018-03-11T05:19:58Z</time>
      </trkpt>
      <trkpt lat="47.95497" lon="7.17252">
        <ele>704</ele>
        <time>2018-03-11T05:20:58Z</time>
      </trkpt>
      <trkpt lat="47.95505" lon="7.17252">
        <ele>705</ele>
        <time>2018-03-11T05:21:58Z</time>
      </trkpt>
      <trkpt lat="47.95546" lon="7.17308">
        <ele>697</ele>
        <time>2018-03-11T05:22:58Z</time>
      </trkpt>
      <trkpt lat="47.95619" lon="7.17386">
        <ele>692</ele>
        <time>2018-03-11T05:23:58Z</time>
      </trkpt>
      <trkpt lat="47.95625" lon="7.17398">
        <ele>692</ele>
        <time>2018-03-11T05:24:58Z</time>
      </trkpt>
      <trkpt lat="47.9563" lon="7.17418">
        <ele>689</ele>
        <time>2018-03-11T05:25:58Z</time>
      </trkpt>
      <trkpt lat="47.95638" lon="7.17467">
        <ele>686</ele>
        <time>2018-03-11T05:26:58Z</time>
      </trkpt>
      <trkpt lat="47.95649" lon="7.17554">
        <ele>679</ele>
        <time>2018-03-11T05:27:58Z</time>
      </trkpt>
      <trkpt lat="47.95646" lon="7.17585">
        <ele>675</ele>
        <time>2018-03-11T05:28:58Z</time>
      </trkpt>
      <trkpt lat="47.95635" lon="7.17616">
        <ele>674</ele>
        <time>2018-03-11T05:29:58Z</time>
      </trkpt>
      <trkpt lat="47.9561" lon="7.17607">
        <ele>671</ele>
        <time>2018-03-11T05:30:58Z</time>
      </trkpt>
      <trkpt lat="47.95577" lon="7.17603">
        <ele>666</ele>
        <time>2018-03-11T05:31:58Z</time>
      </trkpt>
      <trkpt lat="47.95545" lon="7.1761">
        <ele>661</ele>
        <time>2018-03-11T05:32:58Z</time>
      </trkpt>
      <trkpt lat="47.9551" lon="7.17624">
        <ele>656</ele>
        <time>2018-03-11T05:33:58Z</time>
      </trkpt>
      <trkpt lat="47.95487" lon="7.17652">
        <ele>653</ele>
        <time>2018-03-11T05:34:58Z</time>
      </trkpt>
      <trkpt lat="47.95473" lon="7.17683">
        <ele>649</ele>
        <time>2018-03-11T05:35:58Z</time>
      </trkpt>
      <trkpt lat="47.95463" lon="7.17721">
        <ele>644</ele>
        <time>2018-03-11T05:36:58Z</time>
      </trkpt>
      <trkpt lat="47.95464" lon="7.1776">
        <ele>641</ele>
        <time>2018-03-11T05:37:58Z</time>
      </trkpt>
      <trkpt lat="47.95485" lon="7.17799">
        <ele>646</ele>
        <time>2018-03-11T05:38:58Z</time>
      </trkpt>
      <trkpt lat="47.95503" lon="7.17826">
        <ele>652</ele>
        <time>2018-03-11T05:39:58Z</time>
      </trkpt>
      <trkpt lat="47.95514" lon="7.17874">
        <ele>648</ele>
        <time>2018-03-11T05:40:58Z</time>
      </trkpt>
      <trkpt lat="47.95523" lon="7.17917">
        <ele>644</ele>
        <time>2018-03-11T05:41:58Z</time>
      </trkpt>
      <trkpt lat="47.95524" lon="7.17961">
        <ele>641</ele>
        <time>2018-03-11T05:42:58Z</time>
      </trkpt>
      <trkpt lat="47.95521" lon="7.17994">
        <ele>637</ele>
        <time>2018-03-11T05:43:58Z</time>
      </trkpt>
      <trkpt lat="47.95495" lon="7.18025">
        <ele>630</ele>
        <time>2018-03-11T05:44:58Z</time>
      </trkpt>
      <trkpt lat="47.95466" lon="7.18036">
        <ele>622</ele>
        <time>2018-03-11T05:45:58Z</time>
      </trkpt>
      <trkpt lat="47.95429" lon="7.18064">
        <ele>615</ele>
        <time>2018-03-11T05:46:58Z</time>
      </trkpt>
      <trkpt lat="47.95393" lon="7.18094">
        <ele>607</ele>
        <time>2018-03-11T05:47:58Z</time>
      </trkpt>
      <trkpt lat="47.9539" lon="7.18132">
        <ele>605</ele>
        <time>2018-03-11T05:48:58Z</time>
      </trkpt>
      <trkpt lat="47.95397" lon="7.18162">
        <ele>605</ele>
        <time>2018-03-11T05:49:58Z</time>
      </trkpt>
      <trkpt lat="47.95426" lon="7.18191">
        <ele>609</ele>
        <time>2018-03-11T05:50:58Z</time>
      </trkpt>
      <trkpt lat="47.95426" lon="7.18206">
        <ele>607</ele>
        <time>2018-03-11T05:51:58Z</time>
      </trkpt>
      <trkpt lat="47.95418" lon="7.18227">
        <ele>602</ele>
        <time>2018-03-11T05:52:58Z</time>
      </trkpt>
      <trkpt lat="47.95412" lon="7.18237">
        <ele>600</ele>
        <time>2018-03-11T05:53:58Z</time>
      </trkpt>
      <trkpt lat="47.95401" lon="7.18242">
        <ele>596</ele>
        <time>2018-03-11T05:54:58Z</time>
      </trkpt>
      <trkpt lat="47.95378" lon="7.18235">
        <ele>591</ele>
        <time>2018-03-11T05:55:58Z</time>
      </trkpt>
      <trkpt lat="47.95322" lon="7.18225">
        <ele>579</ele>
        <time>2018-03-11T05:56:58Z</time>
      </trkpt>
      <trkpt lat="47.95282" lon="7.18215">
        <ele>571</ele>
        <time>2018-03-11T05:57:58Z</time>
      </trkpt>
      <trkpt lat="47.95207" lon="7.18202">
        <ele>553</ele>
        <time>2018-03-11T05:58:58Z</time>
      </trkpt>
      <trkpt lat="47.95135" lon="7.18209">
        <ele>536</ele>
        <time>2018-03-11T05:59:58Z</time>
      </trkpt>
      <trkpt lat="47.95117" lon="7.18182">
        <ele>534</ele>
        <time>2018-03-11T06:00:58Z</time>
      </trkpt>
      <trkpt lat="47.95106" lon="7.18185">
        <ele>531</ele>
        <time>2018-03-11T06:01:58Z</time>
      </trkpt>
      <trkpt lat="47.95093" lon="7.18188">
        <ele>528</ele>
        <time>2018-03-11T06:02:58Z</time>
      </trkpt>
      <trkpt lat="47.95091" lon="7.18193">
        <ele>528</ele>
        <time>2018-03-11T06:03:58Z</time>
      </trkpt>
      <trkpt lat="47.95092" lon="7.18203">
        <ele>527</ele>
        <time>2018-03-11T06:04:58Z</time>
      </trkpt>
      <trkpt lat="47.95098" lon="7.18216">
        <ele>528</ele>
        <time>2018-03-11T06:05:58Z</time>
      </trkpt>
      <trkpt lat="47.95136" lon="7.18268">
        <ele>529</ele>
        <time>2018-03-11T06:06:58Z</time>
      </trkpt>
      <trkpt lat="47.95171" lon="7.18307">
        <ele>528</ele>
        <time>2018-03-11T06:07:58Z</time>
      </trkpt>
      <trkpt lat="47.95198" lon="7.18348">
        <ele>529</ele>
        <time>2018-03-11T06:08:58Z</time>
      </trkpt>
      <trkpt lat="47.95218" lon="7.18371">
        <ele>532</ele>
        <time>2018-03-11T06:09:58Z</time>
      </trkpt>
      <trkpt lat="47.9523" lon="7.18397">
        <ele>533</ele>
        <time>2018-03-11T06:10:58Z</time>
      </trkpt>
      <trkpt lat="47.95233" lon="7.18418">
        <ele>532</ele>
        <time>2018-03-11T06:11:58Z</time>
      </trkpt>
      <trkpt lat="47.95232" lon="7.1845">
        <ele>530</ele>
        <time>2018-03-11T06:12:58Z</time>
      </trkpt>
      <trkpt lat="47.95224" lon="7.18499">
        <ele>525</ele>
        <time>2018-03-11T06:13:58Z</time>
      </trkpt>
      <trkpt lat="47.9523" lon="7.18543">
        <ele>521</ele>
        <time>2018-03-11T06:14:58Z</time>
      </trkpt>
      <trkpt lat="47.95238" lon="7.18645">
        <ele>511</ele>
        <time>2018-03-11T06:15:58Z</time>
      </trkpt>
      <trkpt lat="47.95247" lon="7.18704">
        <ele>508</ele>
        <time>2018-03-11T06:16:58Z</time>
      </trkpt>
      <trkpt lat="47.95255" lon="7.18739">
        <ele>507</ele>
        <time>2018-03-11T06:17:58Z</time>
      </trkpt>
      <trkpt lat="47.95265" lon="7.18764">
        <ele>508</ele>
        <time>2018-03-11T06:18:58Z</time>
      </trkpt>
      <trkpt lat="47.95277" lon="7.18786">
        <ele>509</ele>
        <time>2018-03-11T06:19:58Z</time>
      </trkpt>
      <trkpt lat="47.95308" lon="7.18859">
        <ele>509</ele>
        <time>2018-03-11T06:20:58Z</time>
      </trkpt>
      <trkpt lat="47.95323" lon="7.1891">
        <ele>506</ele>
        <time>2018-03-11T06:21:58Z</time>
      </trkpt>
      <trkpt lat="47.95333" lon="7.18931">
        <ele>505</ele>
        <time>2018-03-11T06:22:58Z</time>
      </trkpt>
      <trkpt lat="47.95345" lon="7.18948">
        <ele>505</ele>
        <time>2018-03-11T06:23:58Z</time>
      </trkpt>
      <trkpt lat="47.95374" lon="7.18967">
        <ele>505</ele>
        <time>2018-03-11T06:24:58Z</time>
      </trkpt>
      <trkpt lat="47.95396" lon="7.1898">
        <ele>506</ele>
        <time>2018-03-11T06:25:58Z</time>
      </trkpt>
      <trkpt lat="47.95393" lon="7.19026">
        <ele>500</ele>
        <time>2018-03-11T06:26:58Z</time>
      </trkpt>
      <trkpt lat="47.95395" lon="7.19121">
        <ele>492</ele>
        <time>2018-03-11T06:27:58Z</time>
      </trkpt>
      <trkpt lat="47.95401" lon="7.19164">
        <ele>491</ele>
        <time>2018-03-11T06:28:58Z</time>
      </trkpt>
      <trkpt lat="47.95395" lon="7.19205">
        <ele>490</ele>
        <time>2018-03-11T06:29:58Z</time>
      </trkpt>
      <trkpt lat="47.9539" lon="7.19236">
        <ele>490</ele>
        <time>2018-03-11T06:30:58Z</time>
      </trkpt>
      <trkpt lat="47.95378" lon="7.19258">
        <ele>490</ele>
        <time>2018-03-11T06:31:58Z</time>
      </trkpt>
      <trkpt lat="47.95388" lon="7.19274">
        <ele>491</ele>
        <time>2018-03-11T06:32:58Z</time>
      </trkpt>
      <trkpt lat="47.95405" lon="7.19299">
        <ele>492</ele>
        <time>2018-03-11T06:33:58Z</time>
      </trkpt>
      <trkpt lat="47.95402" lon="7.19341">
        <ele>494</ele>
        <time>2018-03-11T06:34:58Z</time>
      </trkpt>
      <trkpt lat="47.95407" lon="7.19387">
        <ele>496</ele>
        <time>2018-03-11T06:35:58Z</time>
      </trkpt>
      <trkpt lat="47.95426" lon="7.19458">
        <ele>499</ele>
        <time>2018-03-11T06:36:58Z</time>
      </trkpt>
      <trkpt lat="47.95444" lon="7.19508">
        <ele>500</ele>
        <time>2018-03-11T06:37:58Z</time>
      </trkpt>
      <trkpt lat="47.95455" lon="7.19567">
        <ele>503</ele>
        <time>2018-03-11T06:38:58Z</time>
      </trkpt>
      <trkpt lat="47.95467" lon="7.19623">
        <ele>504</ele>
        <time>2018-03-11T06:39:58Z</time>
      </trkpt>
      <trkpt lat="47.95487" lon="7.19666">
        <ele>502</ele>
        <time>2018-03-11T06:40:58Z</time>
      </trkpt>
      <trkpt lat="47.95497" lon="7.19717">
        <ele>502</ele>
        <time>2018-03-11T06:41:58Z</time>
      </trkpt>
      <trkpt lat="47.95517" lon="7.19793">
        <ele>503</ele>
        <time>2018-03-11T06:42:58Z</time>
      </trkpt>
      <trkpt lat="47.95528" lon="7.19854">
        <ele>505</ele>
        <time>2018-03-11T06:43:58Z</time>
      </trkpt>
      <trkpt lat="47.95529" lon="7.19886">
        <ele>507</ele>
        <time>2018-03-11T06:44:58Z</time>
      </trkpt>
      <trkpt lat="47.95524" lon="7.19964">
        <ele>509</ele>
        <time>2018-03-11T06:45:58Z</time>
      </trkpt>
      <trkpt lat="47.95516" lon="7.19992">
        <ele>511</ele>
        <time>2018-03-11T06:46:58Z</time>
      </trkpt>
      <trkpt lat="47.95496" lon="7.20036">
        <ele>513</ele>
        <time>2018-03-11T06:47:58Z</time>
      </trkpt>
      <trkpt lat="47.95446" lon="7.20135">
        <ele>517</ele>
        <time>2018-03-11T06:48:58Z</time>
      </trkpt>
      <trkpt lat="47.95401" lon="7.20245">
        <ele>517</ele>
        <time>2018-03-11T06:49:58Z</time>
      </trkpt>
      <trkpt lat="47.95354" lon="7.20343">
        <ele>524</ele>
        <time>2018-03-11T06:50:58Z</time>
      </trkpt>
      <trkpt lat="47.95302" lon="7.20423">
        <ele>529</ele>
        <time>2018-03-11T06:51:58Z</time>
      </trkpt>
      <trkpt lat="47.95259" lon="7.20484">
        <ele>533</ele>
        <time>2018-03-11T06:52:58Z</time>
      </trkpt>
      <trkpt lat="47.95227" lon="7.20534">
        <ele>530</ele>
        <time>2018-03-11T06:53:58Z</time>
      </trkpt>
      <trkpt lat="47.95214" lon="7.20548">
        <ele>530</ele>
        <time>2018-03-11T06:54:58Z</time>
      </trkpt>
      <trkpt lat="47.95168" lon="7.20577">
        <ele>539</ele>
        <time>2018-03-11T06:55:58Z</time>
      </trkpt>
      <trkpt lat="47.95126" lon="7.20606">
        <ele>538</ele>
        <time>2018-03-11T06:56:58Z</time>
      </trkpt>
      <trkpt lat="47.95081" lon="7.20612">
        <ele>545</ele>
        <time>2018-03-11T06:57:58Z</time>
      </trkpt>
      <trkpt lat="47.95053" lon="7.20626">
        <ele>547</ele>
        <time>2018-03-11T06:58:58Z</time>
      </trkpt>
      <trkpt lat="47.95032" lon="7.20653">
        <ele>546</ele>
        <time>2018-03-11T06:59:58Z</time>
      </trkpt>
      <trkpt lat="47.95007" lon="7.20683">
        <ele>547</ele>
        <time>2018-03-11T07:00:58Z</time>
      </trkpt>
      <trkpt lat="47.94969" lon="7.20714">
        <ele>548</ele>
        <time>2018-03-11T07:01:58Z</time>
      </trkpt>
      <trkpt lat="47.94918" lon="7.20743">
        <ele>550</ele>
        <time>2018-03-11T07:02:58Z</time>
      </trkpt>
      <trkpt lat="47.94889" lon="7.20757">
        <ele>549</ele>
        <time>2018-03-11T07:03:58Z</time>
      </trkpt>
      <trkpt lat="47.94916" lon="7.20787">
        <ele>544</ele>
        <time>2018-03-11T07:04:58Z</time>
      </trkpt>
      <trkpt lat="47.9493" lon="7.20797">
        <ele>540</ele>
        <time>2018-03-11T07:05:58Z</time>
      </trkpt>
      <trkpt lat="47.94981" lon="7.20799">
        <ele>530</ele>
        <time>2018-03-11T07:06:58Z</time>
      </trkpt>
      <trkpt lat="47.95011" lon="7.20787">
        <ele>526</ele>
        <time>2018-03-11T07:07:58Z</time>
      </trkpt>
      <trkpt lat="47.9505" lon="7.20753">
        <ele>520</ele>
        <time>2018-03-11T07:08:58Z</time>
      </trkpt>
      <trkpt lat="47.95093" lon="7.20722">
        <ele>514</ele>
        <time>2018-03-11T07:09:58Z</time>
      </trkpt>
      <trkpt lat="47.95095" lon="7.20723">
        <ele>513</ele>
        <time>2018-03-11T07:10:58Z</time>
      </trkpt>
      <trkpt lat="47.95095" lon="7.20726">
        <ele>512</ele>
        <time>2018-03-11T07:11:58Z</time>
      </trkpt>
      <trkpt lat="47.9508" lon="7.2075">
        <ele>510</ele>
        <time>2018-03-11T07:12:58Z</time>
      </trkpt>
      <trkpt lat="47.95044" lon="7.20813">
        <ele>507</ele>
        <time>2018-03-11T07:13:58Z</time>
      </trkpt>
      <trkpt lat="47.95023" lon="7.20858">
        <ele>502</ele>
        <time>2018-03-11T07:14:58Z</time>
      </trkpt>
      <trkpt lat="47.95009" lon="7.2089">
        <ele>495</ele>
        <time>2018-03-11T07:15:58Z</time>
      </trkpt>
      <trkpt lat="47.94986" lon="7.20915">
        <ele>492</ele>
        <time>2018-03-11T07:16:58Z</time>
      </trkpt>
      <trkpt lat="47.94964" lon="7.20932">
        <ele>494</ele>
        <time>2018-03-11T07:17:58Z</time>
      </trkpt>
      <trkpt lat="47.94962" lon="7.20935">
        <ele>493</ele>
        <time>2018-03-11T07:18:58Z</time>
      </trkpt>
      <trkpt lat="47.9496" lon="7.20952">
        <ele>489</ele>
        <time>2018-03-11T07:19:58Z</time>
      </trkpt>
      <trkpt lat="47.94967" lon="7.20953">
        <ele>487</ele>
        <time>2018-03-11T07:20:58Z</time>
      </trkpt>
      <trkpt lat="47.95013" lon="7.20934">
        <ele>481</ele>
        <time>2018-03-11T07:21:58Z</time>
      </trkpt>
      <trkpt lat="47.95054" lon="7.20904">
        <ele>479</ele>
        <time>2018-03-11T07:22:58Z</time>
      </trkpt>
      <trkpt lat="47.95087" lon="7.20872">
        <ele>477</ele>
        <time>2018-03-11T07:23:58Z</time>
      </trkpt>
      <trkpt lat="47.95106" lon="7.20846">
        <ele>478</ele>
        <time>2018-03-11T07:24:58Z</time>
      </trkpt>
      <trkpt lat="47.95145" lon="7.20818">
        <ele>474</ele>
        <time>2018-03-11T07:25:58Z</time>
      </trkpt>
      <trkpt lat="47.95151" lon="7.20818">
        <ele>472</ele>
        <time>2018-03-11T07:26:58Z</time>
      </trkpt>
      <trkpt lat="47.95176" lon="7.20815">
        <ele>467</ele>
        <time>2018-03-11T07:27:58Z</time>
      </trkpt>
      <trkpt lat="47.95193" lon="7.20816">
        <ele>463</ele>
        <time>2018-03-11T07:28:58Z</time>
      </trkpt>
      <trkpt lat="47.95213" lon="7.20844">
        <ele>456</ele>
        <time>2018-03-11T07:29:58Z</time>
      </trkpt>
      <trkpt lat="47.95264" lon="7.20955">
        <ele>439</ele>
        <time>2018-03-11T07:30:58Z</time>
      </trkpt>
      <trkpt lat="47.95305" lon="7.21011">
        <ele>431</ele>
        <time>2018-03-11T07:31:58Z</time>
      </trkpt>
      <trkpt lat="47.95324" lon="7.21041">
        <ele>425</ele>
        <time>2018-03-11T07:32:58Z</time>
      </trkpt>
      <trkpt lat="47.95346" lon="7.21083">
        <ele>420</ele>
        <time>2018-03-11T07:33:58Z</time>
      </trkpt>
      <trkpt lat="47.95352" lon="7.21092">
        <ele>419</ele>
        <time>2018-03-11T07:34:58Z</time>
      </trkpt>
      <trkpt lat="47.95363" lon="7.21103">
        <ele>418</ele>
        <time>2018-03-11T07:35:58Z</time>
      </trkpt>
      <trkpt lat="47.95386" lon="7.2113">
        <ele>417</ele>
        <time>2018-03-11T07:36:58Z</time>
      </trkpt>
      <trkpt lat="47.95391" lon="7.21135">
        <ele>416</ele>
        <time>2018-03-11T07:37:58Z</time>
      </trkpt>
      <trkpt lat="47.95393" lon="7.21134">
        <ele>416</ele>
        <time>2018-03-11T07:38:58Z</time>
      </trkpt>
      <trkpt lat="47.95453" lon="7.21204">
        <ele>418</ele>
        <time>2018-03-11T07:39:58Z</time>
      </trkpt>
      <trkpt lat="47.95476" lon="7.21246">
        <ele>419</ele>
        <time>2018-03-11T07:40:58Z</time>
      </trkpt>
      <trkpt lat="47.95503" lon="7.21305">
        <ele>417</ele>
        <time>2018-03-11T07:41:58Z</time>
      </trkpt>
      <trkpt lat="47.95533" lon="7.21383">
        <ele>411</ele>
        <time>2018-03-11T07:42:58Z</time>
      </trkpt>
      <trkpt lat="47.9558" lon="7.21516">
        <ele>396</ele>
        <time>2018-03-11T07:43:58Z</time>
      </trkpt>
      <trkpt lat="47.95545" lon="7.21555">
        <ele>396</ele>
        <time>2018-03-11T07:44:58Z</time>
      </trkpt>
      <trkpt lat="47.95489" lon="7.21623">
        <ele>393</ele>
        <time>2018-03-11T07:45:58Z</time>
      </trkpt>
      <trkpt lat="47.95483" lon="7.21628">
        <ele>392</ele>
        <time>2018-03-11T07:46:58Z</time>
      </trkpt>
      <trkpt lat="47.95464" lon="7.21633">
        <ele>391</ele>
        <time>2018-03-11T07:47:58Z</time>
      </trkpt>
      <trkpt lat="47.95426" lon="7.21635">
        <ele>391</ele>
        <time>2018-03-11T07:48:58Z</time>
      </trkpt>
      <trkpt lat="47.9521" lon="7.2164">
        <ele>386</ele>
        <time>2018-03-11T07:49:58Z</time>
      </trkpt>
      <trkpt lat="47.95202" lon="7.21643">
        <ele>386</ele>
        <time>2018-03-11T07:50:58Z</time>
      </trkpt>
      <trkpt lat="47.95177" lon="7.21613">
        <ele>387</ele>
        <time>2018-03-11T07:51:58Z</time>
      </trkpt>
      <trkpt lat="47.95161" lon="7.21598">
        <ele>389</ele>
        <time>2018-03-11T07:52:58Z</time>
      </trkpt>
      <trkpt lat="47.95152" lon="7.21595">
        <ele>390</ele>
        <time>2018-03-11T07:53:58Z</time>
      </trkpt>
      <trkpt lat="47.95138" lon="7.21587">
        <ele>392</ele>
        <time>2018-03-11T07:54:58Z</time>
      </trkpt>
      <trkpt lat="47.95113" lon="7.21564">
        <ele>395</ele>
        <time>2018-03-11T07:55:58Z</time>
      </trkpt>
      <trkpt lat="47.951" lon="7.21551">
        <ele>396</ele>
        <time>2018-03-11T07:56:58Z</time>
      </trkpt>
      <trkpt lat="47.95042" lon="7.21539">
        <ele>401</ele>
        <time>2018-03-11T07:57:58Z</time>
      </trkpt>
      <trkpt lat="47.9498" lon="7.21522">
        <ele>405</ele>
        <time>2018-03-11T07:58:58Z</time>
      </trkpt>
      <trkpt lat="47.94941" lon="7.21517">
        <ele>406</ele>
        <time>2018-03-11T07:59:58Z</time>
      </trkpt>
      <trkpt lat="47.94876" lon="7.21505">
        <ele>414</ele>
        <time>2018-03-11T08:00:58Z</time>
      </trkpt>
      <trkpt lat="47.94792" lon="7.21488">
        <ele>429</ele>
        <time>2018-03-11T08:01:58Z</time>
      </trkpt>
      <trkpt lat="47.94681" lon="7.21454">
        <ele>448</ele>
        <time>2018-03-11T08:02:58Z</time>
      </trkpt>
      <trkpt lat="47.94621" lon="7.21438">
        <ele>461</ele>
        <time>2018-03-11T08:03:58Z</time>
      </trkpt>
      <trkpt lat="47.94591" lon="7.21447">
        <ele>466</ele>
        <time>2018-03-11T08:04:58Z</time>
      </trkpt>
      <trkpt lat="47.94556" lon="7.21451">
        <ele>472</ele>
        <time>2018-03-11T08:05:58Z</time>
      </trkpt>
      <trkpt lat="47.94516" lon="7.2146">
        <ele>478</ele>
        <time>2018-03-11T08:06:58Z</time>
      </trkpt>
      <trkpt lat="47.94424" lon="7.21451">
        <ele>493</ele>
        <time>2018-03-11T08:07:58Z</time>
      </trkpt>
      <trkpt lat="47.94384" lon="7.21443">
        <ele>496</ele>
        <time>2018-03-11T08:08:58Z</time>
      </trkpt>
      <trkpt lat="47.94352" lon="7.21417">
        <ele>502</ele>
        <time>2018-03-11T08:09:58Z</time>
      </trkpt>
      <trkpt lat="47.94318" lon="7.21377">
        <ele>506</ele>
        <time>2018-03-11T08:10:58Z</time>
      </trkpt>
      <trkpt lat="47.94293" lon="7.21338">
        <ele>506</ele>
        <time>2018-03-11T08:11:58Z</time>
      </trkpt>
      <trkpt lat="47.94274" lon="7.21301">
        <ele>508</ele>
        <time>2018-03-11T08:12:58Z</time>
      </trkpt>
      <trkpt lat="47.94269" lon="7.21283">
        <ele>510</ele>
        <time>2018-03-11T08:13:58Z</time>
      </trkpt>
      <trkpt lat="47.94257" lon="7.21234">
        <ele>516</ele>
        <time>2018-03-11T08:14:58Z</time>
      </trkpt>
      <trkpt lat="47.94246" lon="7.21178">
        <ele>525</ele>
        <time>2018-03-11T08:15:58Z</time>
      </trkpt>
      <trkpt lat="47.94238" lon="7.21127">
        <ele>531</ele>
        <time>2018-03-11T08:16:58Z</time>
      </trkpt>
      <trkpt lat="47.9424" lon="7.2109">
        <ele>535</ele>
        <time>2018-03-11T08:17:58Z</time>
      </trkpt>
      <trkpt lat="47.94228" lon="7.21061">
        <ele>537</ele>
        <time>2018-03-11T08:18:58Z</time>
      </trkpt>
      <trkpt lat="47.94213" lon="7.21033">
        <ele>538</ele>
        <time>2018-03-11T08:19:58Z</time>
      </trkpt>
      <trkpt lat="47.94191" lon="7.21014">
        <ele>537</ele>
        <time>2018-03-11T08:20:58Z</time>
      </trkpt>
      <trkpt lat="47.94137" lon="7.20978">
        <ele>537</ele>
        <time>2018-03-11T08:21:58Z</time>
      </trkpt>
      <trkpt lat="47.94047" lon="7.20907">
        <ele>544</ele>
        <time>2018-03-11T08:22:58Z</time>
      </trkpt>
      <trkpt lat="47.93979" lon="7.20848">
        <ele>555</ele>
        <time>2018-03-11T08:23:58Z</time>
      </trkpt>
      <trkpt lat="47.93958" lon="7.20835">
        <ele>559</ele>
        <time>2018-03-11T08:24:58Z</time>
      </trkpt>
      <trkpt lat="47.93928" lon="7.20833">
        <ele>564</ele>
        <time>2018-03-11T08:25:58Z</time>
      </trkpt>
      <trkpt lat="47.93891" lon="7.20844">
        <ele>565</ele>
        <time>2018-03-11T08:26:58Z</time>
      </trkpt>
      <trkpt lat="47.93832" lon="7.20868">
        <ele>566</ele>
        <time>2018-03-11T08:27:58Z</time>
      </trkpt>
      <trkpt lat="47.93759" lon="7.20905">
        <ele>565</ele>
        <time>2018-03-11T08:28:58Z</time>
      </trkpt>
      <trkpt lat="47.93674" lon="7.209">
        <ele>569</ele>
        <time>2018-03-11T08:29:58Z</time>
      </trkpt>
      <trkpt lat="47.93609" lon="7.20889">
        <ele>567</ele>
        <time>2018-03-11T08:30:58Z</time>
      </trkpt>
      <trkpt lat="47.93572" lon="7.20878">
        <ele>567</ele>
        <time>2018-03-11T08:31:58Z</time>
      </trkpt>
      <trkpt lat="47.93518" lon="7.20847">
        <ele>568</ele>
        <time>2018-03-11T08:32:58Z</time>
      </trkpt>
      <trkpt lat="47.93492" lon="7.20837">
        <ele>568</ele>
        <time>2018-03-11T08:33:58Z</time>
      </trkpt>
      <trkpt lat="47.93453" lon="7.20846">
        <ele>567</ele>
        <time>2018-03-11T08:34:58Z</time>
      </trkpt>
      <trkpt lat="47.93394" lon="7.20874">
        <ele>566</ele>
        <time>2018-03-11T08:35:58Z</time>
      </trkpt>
      <trkpt lat="47.93343" lon="7.20917">
        <ele>565</ele>
        <time>2018-03-11T08:36:58Z</time>
      </trkpt>
      <trkpt lat="47.93307" lon="7.20954">
        <ele>560</ele>
        <time>2018-03-11T08:37:58Z</time>
      </trkpt>
      <trkpt lat="47.93299" lon="7.20956">
        <ele>559</ele>
        <time>2018-03-11T08:38:58Z</time>
      </trkpt>
      <trkpt lat="47.93268" lon="7.20965">
        <ele>558</ele>
        <time>2018-03-11T08:39:58Z</time>
      </trkpt>
      <trkpt lat="47.93227" lon="7.20967">
        <ele>559</ele>
        <time>2018-03-11T08:40:58Z</time>
      </trkpt>
      <trkpt lat="47.93157" lon="7.20965">
        <ele>562</ele>
        <time>2018-03-11T08:41:58Z</time>
      </trkpt>
      <trkpt lat="47.93095" lon="7.20968">
        <ele>563</ele>
        <time>2018-03-11T08:42:58Z</time>
      </trkpt>
      <trkpt lat="47.92991" lon="7.20963">
        <ele>560</ele>
        <time>2018-03-11T08:43:58Z</time>
      </trkpt>
      <trkpt lat="47.92947" lon="7.20973">
        <ele>559</ele>
        <time>2018-03-11T08:44:58Z</time>
      </trkpt>
      <trkpt lat="47.92898" lon="7.21">
        <ele>557</ele>
        <time>2018-03-11T08:45:58Z</time>
      </trkpt>
      <trkpt lat="47.92875" lon="7.21009">
        <ele>556</ele>
        <time>2018-03-11T08:46:58Z</time>
      </trkpt>
      <trkpt lat="47.92845" lon="7.21021">
        <ele>556</ele>
        <time>2018-03-11T08:47:58Z</time>
      </trkpt>
      <trkpt lat="47.92801" lon="7.21029">
        <ele>553</ele>
        <time>2018-03-11T08:48:58Z</time>
      </trkpt>
      <trkpt lat="47.92753" lon="7.21037">
        <ele>549</ele>
        <time>2018-03-11T08:49:58Z</time>
      </trkpt>
      <trkpt lat="47.92772" lon="7.21071">
        <ele>546</ele>
        <time>2018-03-11T08:50:58Z</time>
      </trkpt>
      <trkpt lat="47.92779" lon="7.21085">
        <ele>545</ele>
        <time>2018-03-11T08:51:58Z</time>
      </trkpt>
      <trkpt lat="47.92787" lon="7.21107">
        <ele>544</ele>
        <time>2018-03-11T08:52:58Z</time>
      </trkpt>
      <trkpt lat="47.92788" lon="7.21119">
        <ele>543</ele>
        <time>2018-03-11T08:53:58Z</time>
      </trkpt>
      <trkpt lat="47.92793" lon="7.21162">
        <ele>539</ele>
        <time>2018-03-11T08:54:58Z</time>
      </trkpt>
      <trkpt lat="47.92798" lon="7.21178">
        <ele>537</ele>
        <time>2018-03-11T08:55:58Z</time>
      </trkpt>
      <trkpt lat="47.92801" lon="7.21192">
        <ele>536</ele>
        <time>2018-03-11T08:56:58Z</time>
      </trkpt>
      <trkpt lat="47.92804" lon="7.21218">
        <ele>534</ele>
        <time>2018-03-11T08:57:58Z</time>
      </trkpt>
      <trkpt lat="47.9281" lon="7.21257">
        <ele>531</ele>
        <time>2018-03-11T08:58:58Z</time>
      </trkpt>
      <trkpt lat="47.9281" lon="7.21297">
        <ele>529</ele>
        <time>2018-03-11T08:59:58Z</time>
      </trkpt>
      <trkpt lat="47.92806" lon="7.21335">
        <ele>528</ele>
        <time>2018-03-11T09:00:58Z</time>
      </trkpt>
      <trkpt lat="47.92796" lon="7.21373">
        <ele>525</ele>
        <time>2018-03-11T09:01:58Z</time>
      </trkpt>
      <trkpt lat="47.92781" lon="7.21403">
        <ele>522</ele>
        <time>2018-03-11T09:02:58Z</time>
      </trkpt>
      <trkpt lat="47.92766" lon="7.21437">
        <ele>519</ele>
        <time>2018-03-11T09:03:58Z</time>
      </trkpt>
      <trkpt lat="47.92753" lon="7.21472">
        <ele>515</ele>
        <time>2018-03-11T09:04:58Z</time>
      </trkpt>
      <trkpt lat="47.92736" lon="7.21511">
        <ele>512</ele>
        <time>2018-03-11T09:05:58Z</time>
      </trkpt>
      <trkpt lat="47.92733" lon="7.21542">
        <ele>508</ele>
        <time>2018-03-11T09:06:58Z</time>
      </trkpt>
      <trkpt lat="47.92723" lon="7.21565">
        <ele>507</ele>
        <time>2018-03-11T09:07:58Z</time>
      </trkpt>
      <trkpt lat="47.92715" lon="7.21589">
        <ele>506</ele>
        <time>2018-03-11T09:08:58Z</time>
      </trkpt>
      <trkpt lat="47.9271" lon="7.21616">
        <ele>504</ele>
        <time>2018-03-11T09:09:58Z</time>
      </trkpt>
      <trkpt lat="47.92716" lon="7.21639">
        <ele>500</ele>
        <time>2018-03-11T09:10:58Z</time>
      </trkpt>
      <trkpt lat="47.92712" lon="7.21639">
        <ele>501</ele>
        <time>2018-03-11T09:11:58Z</time>
      </trkpt>
      <trkpt lat="47.92695" lon="7.21655">
        <ele>503</ele>
        <time>2018-03-11T09:12:58Z</time>
      </trkpt>
      <trkpt lat="47.92668" lon="7.21692">
        <ele>508</ele>
        <time>2018-03-11T09:13:58Z</time>
      </trkpt>
      <trkpt lat="47.92638" lon="7.21761">
        <ele>512</ele>
        <time>2018-03-11T09:14:58Z</time>
      </trkpt>
      <trkpt lat="47.92602" lon="7.21921">
        <ele>516</ele>
        <time>2018-03-11T09:15:58Z</time>
      </trkpt>
      <trkpt lat="47.92586" lon="7.21974">
        <ele>519</ele>
        <time>2018-03-11T09:16:58Z</time>
      </trkpt>
      <trkpt lat="47.92554" lon="7.22021">
        <ele>525</ele>
        <time>2018-03-11T09:17:58Z</time>
      </trkpt>
      <trkpt lat="47.92481" lon="7.22121">
        <ele>540</ele>
        <time>2018-03-11T09:18:58Z</time>
      </trkpt>
      <trkpt lat="47.92422" lon="7.22229">
        <ele>550</ele>
        <time>2018-03-11T09:19:58Z</time>
      </trkpt>
      <trkpt lat="47.92384" lon="7.22291">
        <ele>550</ele>
        <time>2018-03-11T09:20:58Z</time>
      </trkpt>
      <trkpt lat="47.92341" lon="7.22335">
        <ele>553</ele>
        <time>2018-03-11T09:21:58Z</time>
      </trkpt>
      <trkpt lat="47.92309" lon="7.22363">
        <ele>553</ele>
        <time>2018-03-11T09:22:58Z</time>
      </trkpt>
      <trkpt lat="47.92282" lon="7.22369">
        <ele>556</ele>
        <time>2018-03-11T09:23:58Z</time>
      </trkpt>
      <trkpt lat="47.92194" lon="7.22369">
        <ele>569</ele>
        <time>2018-03-11T09:24:58Z</time>
      </trkpt>
      <trkpt lat="47.92158" lon="7.22372">
        <ele>573</ele>
        <time>2018-03-11T09:25:58Z</time>
      </trkpt>
      <trkpt lat="47.92113" lon="7.22389">
        <ele>575</ele>
        <time>2018-03-11T09:26:58Z</time>
      </trkpt>
      <trkpt lat="47.9205" lon="7.224">
        <ele>577</ele>
        <time>2018-03-11T09:27:58Z</time>
      </trkpt>
      <trkpt lat="47.91939" lon="7.22406">
        <ele>575</ele>
        <time>2018-03-11T09:28:58Z</time>
      </trkpt>
      <trkpt lat="47.91843" lon="7.22408">
        <ele>564</ele>
        <time>2018-03-11T09:29:58Z</time>
      </trkpt>
      <trkpt lat="47.91756" lon="7.2236">
        <ele>562</ele>
        <time>2018-03-11T09:30:58Z</time>
      </trkpt>
      <trkpt lat="47.9172" lon="7.22319">
        <ele>563</ele>
        <time>2018-03-11T09:31:58Z</time>
      </trkpt>
      <trkpt lat="47.91691" lon="7.22308">
        <ele>559</ele>
        <time>2018-03-11T09:32:58Z</time>
      </trkpt>
      <trkpt lat="47.91662" lon="7.22279">
        <ele>558</ele>
        <time>2018-03-11T09:33:58Z</time>
      </trkpt>
      <trkpt lat="47.91594" lon="7.22148">
        <ele>558</ele>
        <time>2018-03-11T09:34:58Z</time>
      </trkpt>
      <trkpt lat="47.91524" lon="7.22033">
        <ele>547</ele>
        <time>2018-03-11T09:35:58Z</time>
      </trkpt>
      <trkpt lat="47.91499" lon="7.21995">
        <ele>543</ele>
        <time>2018-03-11T09:36:58Z</time>
      </trkpt>
      <trkpt lat="47.91472" lon="7.21975">
        <ele>542</ele>
        <time>2018-03-11T09:37:58Z</time>
      </trkpt>
      <trkpt lat="47.91409" lon="7.21964">
        <ele>539</ele>
        <time>2018-03-11T09:38:58Z</time>
      </trkpt>
      <trkpt lat="47.91372" lon="7.21969">
        <ele>537</ele>
        <time>2018-03-11T09:39:58Z</time>
      </trkpt>
      <trkpt lat="47.91313" lon="7.2196">
        <ele>534</ele>
        <time>2018-03-11T09:40:58Z</time>
      </trkpt>
      <trkpt lat="47.91296" lon="7.21955">
        <ele>532</ele>
        <time>2018-03-11T09:41:58Z</time>
      </trkpt>
      <trkpt lat="47.91298" lon="7.21965">
        <ele>531</ele>
        <time>2018-03-11T09:42:58Z</time>
      </trkpt>
      <trkpt lat="47.91288" lon="7.21985">
        <ele>528</ele>
        <time>2018-03-11T09:43:58Z</time>
      </trkpt>
      <trkpt lat="47.91274" lon="7.2199">
        <ele>525</ele>
        <time>2018-03-11T09:44:58Z</time>
      </trkpt>
      <trkpt lat="47.91243" lon="7.21987">
        <ele>520</ele>
        <time>2018-03-11T09:45:58Z</time>
      </trkpt>
      <trkpt lat="47.91197" lon="7.21978">
        <ele>505</ele>
        <time>2018-03-11T09:46:58Z</time>
      </trkpt>
      <trkpt lat="47.91161" lon="7.21947">
        <ele>491</ele>
        <time>2018-03-11T09:47:58Z</time>
      </trkpt>
      <trkpt lat="47.91155" lon="7.21945">
        <ele>488</ele>
        <time>2018-03-11T09:48:58Z</time>
      </trkpt>
      <trkpt lat="47.91147" lon="7.21946">
        <ele>483</ele>
        <time>2018-03-11T09:49:58Z</time>
      </trkpt>
      <trkpt lat="47.91145" lon="7.21949">
        <ele>482</ele>
        <time>2018-03-11T09:50:58Z</time>
      </trkpt>
      <trkpt lat="47.91145" lon="7.21948">
        <ele>482</ele>
        <time>2018-03-11T09:51:58Z</time>
      </trkpt>
      <trkpt lat="47.91142" lon="7.21952">
        <ele>481</ele>
        <time>2018-03-11T09:52:58Z</time>
      </trkpt>
      <trkpt lat="47.91143" lon="7.21963">
        <ele>482</ele>
        <time>2018-03-11T09:53:58Z</time>
      </trkpt>
      <trkpt lat="47.91151" lon="7.21989">
        <ele>486</ele>
        <time>2018-03-11T09:54:58Z</time>
      </trkpt>
      <trkpt lat="47.91171" lon="7.22012">
        <ele>492</ele>
        <time>2018-03-11T09:55:58Z</time>
      </trkpt>
      <trkpt lat="47.91184" lon="7.22032">
        <ele>489</ele>
        <time>2018-03-11T09:56:58Z</time>
      </trkpt>
      <trkpt lat="47.91185" lon="7.22051">
        <ele>484</ele>
        <time>2018-03-11T09:57:58Z</time>
      </trkpt>
      <trkpt lat="47.91176" lon="7.22065">
        <ele>478</ele>
        <time>2018-03-11T09:58:58Z</time>
      </trkpt>
      <trkpt lat="47.91155" lon="7.22063">
        <ele>473</ele>
        <time>2018-03-11T09:59:58Z</time>
      </trkpt>
      <trkpt lat="47.91131" lon="7.22045">
        <ele>468</ele>
        <time>2018-03-11T10:00:58Z</time>
      </trkpt>
      <trkpt lat="47.91119" lon="7.22019">
        <ele>467</ele>
        <time>2018-03-11T10:01:58Z</time>
      </trkpt>
      <trkpt lat="47.9111" lon="7.22013">
        <ele>464</ele>
        <time>2018-03-11T10:02:58Z</time>
      </trkpt>
      <trkpt lat="47.91099" lon="7.22015">
        <ele>458</ele>
        <time>2018-03-11T10:03:58Z</time>
      </trkpt>
      <trkpt lat="47.91088" lon="7.22027">
        <ele>452</ele>
        <time>2018-03-11T10:04:58Z</time>
      </trkpt>
      <trkpt lat="47.91083" lon="7.22037">
        <ele>449</ele>
        <time>2018-03-11T10:05:58Z</time>
      </trkpt>
      <trkpt lat="47.91078" lon="7.22059">
        <ele>445</ele>
        <time>2018-03-11T10:06:58Z</time>
      </trkpt>
      <trkpt lat="47.91077" lon="7.22097">
        <ele>442</ele>
        <time>2018-03-11T10:07:58Z</time>
      </trkpt>
      <trkpt lat="47.91078" lon="7.22123">
        <ele>440</ele>
        <time>2018-03-11T10:08:58Z</time>
      </trkpt>
      <trkpt lat="47.91061" lon="7.22144">
        <ele>433</ele>
        <time>2018-03-11T10:09:58Z</time>
      </trkpt>
      <trkpt lat="47.91058" lon="7.22161">
        <ele>432</ele>
        <time>2018-03-11T10:10:58Z</time>
      </trkpt>
      <trkpt lat="47.9103" lon="7.22159">
        <ele>427</ele>
        <time>2018-03-11T10:11:58Z</time>
      </trkpt>
      <trkpt lat="47.90986" lon="7.22162">
        <ele>419</ele>
        <time>2018-03-11T10:12:58Z</time>
      </trkpt>
      <trkpt lat="47.90953" lon="7.22151">
        <ele>411</ele>
        <time>2018-03-11T10:13:58Z</time>
      </trkpt>
      <trkpt lat="47.90921" lon="7.2215">
        <ele>404</ele>
        <time>2018-03-11T10:14:58Z</time>
      </trkpt>
      <trkpt lat="47.90879" lon="7.22165">
        <ele>400</ele>
        <time>2018-03-11T10:15:58Z</time>
      </trkpt>
      <trkpt lat="47.90837" lon="7.22197">
        <ele>396</ele>
        <time>2018-03-11T10:16:58Z</time>
      </trkpt>
      <trkpt lat="47.908" lon="7.22191">
        <ele>387</ele>
        <time>2018-03-11T10:17:58Z</time>
      </trkpt>
      <trkpt lat="47.90772" lon="7.22198">
        <ele>382</ele>
        <time>2018-03-11T10:18:58Z</time>
      </trkpt>
      <trkpt lat="47.90755" lon="7.22208">
        <ele>381</ele>
        <time>2018-03-11T10:19:58Z</time>
      </trkpt>
      <trkpt lat="47.90755" lon="7.22186">
        <ele>376</ele>
        <time>2018-03-11T10:20:58Z</time>
      </trkpt>
      <trkpt lat="47.90764" lon="7.22166">
        <ele>372</ele>
        <time>2018-03-11T10:21:58Z</time>
      </trkpt>
      <trkpt lat="47.90806" lon="7.2208">
        <ele>359</ele>
        <time>2018-03-11T10:22:58Z</time>
      </trkpt>
      <trkpt lat="47.9083" lon="7.22022">
        <ele>344</ele>
        <time>2018-03-11T10:23:58Z</time>
      </trkpt>
      <trkpt lat="47.90853" lon="7.22">
        <ele>342</ele>
        <time>2018-03-11T10:24:58Z</time>
      </trkpt>
      <trkpt lat="47.90866" lon="7.21986">
        <ele>344</ele>
        <time>2018-03-11T10:25:58Z</time>
      </trkpt>
      <trkpt lat="47.90875" lon="7.21967">
        <ele>343</ele>
        <time>2018-03-11T10:26:58Z</time>
      </trkpt>
      <trkpt lat="47.90879" lon="7.21922">
        <ele>336</ele>
        <time>2018-03-11T10:27:58Z</time>
      </trkpt>
      <trkpt lat="47.9089" lon="7.21829">
        <ele>329</ele>
        <time>2018-03-11T10:28:58Z</time>
      </trkpt>
      <trkpt lat="47.90888" lon="7.21823">
        <ele>328</ele>
        <time>2018-03-11T10:29:58Z</time>
      </trkpt>
      <trkpt lat="47.90872" lon="7.2187">
        <ele>327</ele>
        <time>2018-03-11T10:30:58Z</time>
      </trkpt>
      <trkpt lat="47.90855" lon="7.21906">
        <ele>325</ele>
        <time>2018-03-11T10:31:58Z</time>
      </trkpt>
      <trkpt lat="47.90832" lon="7.21936">
        <ele>321</ele>
        <time>2018-03-11T10:32:58Z</time>
      </trkpt>
      <trkpt lat="47.90808" lon="7.21962">
        <ele>321</ele>
        <time>2018-03-11T10:33:58Z</time>
      </trkpt>
      <trkpt lat="47.90783" lon="7.21978">
        <ele>318</ele>
        <time>2018-03-11T10:34:58Z</time>
      </trkpt>
      <trkpt lat="47.90761" lon="7.21987">
        <ele>313</ele>
        <time>2018-03-11T10:35:58Z</time>
      </trkpt>
      <trkpt lat="47.90753" lon="7.21985">
        <ele>311</ele>
        <time>2018-03-11T10:36:58Z</time>
      </trkpt>
      <trkpt lat="47.90767" lon="7.21965">
        <ele>311</ele>
        <time>2018-03-11T10:37:58Z</time>
      </trkpt>
      <trkpt lat="47.90777" lon="7.21948">
        <ele>310</ele>
        <time>2018-03-11T10:38:58Z</time>
      </trkpt>
      <trkpt lat="47.90794" lon="7.21902">
        <ele>306</ele>
        <time>2018-03-11T10:39:58Z</time>
      </trkpt>
      <trkpt lat="47.90823" lon="7.21796">
        <ele>304</ele>
        <time>2018-03-11T10:40:58Z</time>
      </trkpt>
      <trkpt lat="47.90826" lon="7.21773">
        <ele>302</ele>
        <time>2018-03-11T10:41:58Z</time>
      </trkpt>
      <trkpt lat="47.90825" lon="7.21758">
        <ele>301</ele>
        <time>2018-03-11T10:42:58Z</time>
      </trkpt>
      <trkpt lat="47.90806" lon="7.2175">
        <ele>297</ele>
        <time>2018-03-11T10:43:58Z</time>
      </trkpt>
      <trkpt lat="47.90769" lon="7.21736">
        <ele>292</ele>
        <time>2018-03-11T10:44:58Z</time>
      </trkpt>
      <trkpt lat="47.90759" lon="7.21735">
        <ele>290</ele>
        <time>2018-03-11T10:45:58Z</time>
      </trkpt>
    </trkseg>
  </trk>
</gpx>